Provisional Data: Marsh Creek near Blanchard, PA


Please select a monitoring station.
Please select start date.
Please select start date.

Toggle Unit: C/F Toggle Unit: C/F
Sample Time Temperature (C) Temperature (F) Specific Conductivity (mS/cm) pH   Turbidity (NTU+) DO (mg/L)
8/9/2021 12:00:00 AM 23.15 73.67 0.122 7.2 5 7.53
8/9/2021 12:15:00 AM 23.06 73.508 0.122 7.2 5.18 7.51
8/9/2021 12:30:00 AM 22.96 73.328 0.121 7.18 5.15 7.57
8/9/2021 12:45:00 AM 22.88 73.184 0.121 7.18 5.1 7.57
8/9/2021 1:00:00 AM 22.79 73.022 0.121 7.17 4.96 7.59
8/9/2021 1:15:00 AM 22.71 72.878 0.121 7.16 5.04 7.57
8/9/2021 1:30:00 AM 22.61 72.698 0.12 7.15 5.32 7.61
8/9/2021 1:45:00 AM 22.54 72.57201 0.121 7.15 5.16 7.62
8/9/2021 2:00:00 AM 22.46 72.42799 0.121 7.14 5.32 7.66
8/9/2021 2:15:00 AM 22.42 72.356 0.121 7.13 5.23 7.64
8/9/2021 2:30:00 AM 22.35 72.23 0.121 7.12 5.8 7.63
8/9/2021 2:45:00 AM 22.29 72.122 0.121 7.12 5.49 7.66
8/9/2021 3:00:00 AM 22.23 72.014 0.121 7.11 5.07 7.67
8/9/2021 3:15:00 AM 22.17 71.906 0.121 7.11 5.63 7.68
8/9/2021 3:30:00 AM 22.13 71.834 0.121 7.11 5.17 7.68
8/9/2021 3:45:00 AM 22.07 71.726 0.121 7.1 5.65 7.71
8/9/2021 4:00:00 AM 22.02 71.636 0.121 7.1 5.34 7.74
8/9/2021 4:15:00 AM 21.97 71.546 0.121 7.1 7.96 7.72
8/9/2021 4:30:00 AM 21.93 71.474 0.121 7.1 6.39 7.75
8/9/2021 4:45:00 AM 21.88 71.384 0.121 7.1 5.66 7.74
8/9/2021 5:00:00 AM 21.83 71.294 0.121 7.1 6.1 7.79
8/9/2021 5:15:00 AM 21.78 71.204 0.121 7.1 5.63 7.8
8/9/2021 5:30:00 AM 21.74 71.132 0.121 7.1 6.43 7.78
8/9/2021 5:45:00 AM 21.7 71.06 0.121 7.1 6.39 7.83
8/9/2021 6:00:00 AM 21.66 70.988 0.121 7.1 5.87 7.83
8/9/2021 6:15:00 AM 21.61 70.898 0.121 7.1 5.49 7.83
8/9/2021 6:30:00 AM 21.56 70.808 0.121 7.1 5.33 7.84
8/9/2021 6:45:00 AM 21.52 70.736 0.121 7.11 5.53 7.87
8/9/2021 7:00:00 AM 21.48 70.664 0.121 7.11 5.44 7.94
8/9/2021 7:15:00 AM 21.45 70.61 0.121 7.11 5.11 7.98
8/9/2021 7:30:00 AM 21.44 70.592 0.121 7.13 5.14 8.03
8/9/2021 7:45:00 AM 21.42 70.556 0.121 7.14 4.9 8.06
8/9/2021 8:00:00 AM 21.43 70.574 0.121 7.14 5.52 8.16
8/9/2021 8:15:00 AM 21.44 70.592 0.121 7.16 4.96 8.21
8/9/2021 8:30:00 AM 21.44 70.592 0.121 7.18 4.96 8.3
8/9/2021 8:45:00 AM 21.45 70.61 0.121 7.19 4.96 8.34
8/9/2021 9:00:00 AM 21.46 70.628 0.121 7.21 4.55 8.44
8/9/2021 9:15:00 AM 21.52 70.736 0.121 7.23 4.86 8.54
8/9/2021 9:30:00 AM 21.57 70.826 0.121 7.26 4.53 8.64
8/9/2021 9:45:00 AM 21.62 70.916 0.121 7.28 4.51 8.72
8/9/2021 10:00:00 AM 21.68 71.024 0.121 7.3 4.7 8.78
8/9/2021 10:15:00 AM 21.76 71.168 0.121 7.33 4.42 8.89
8/9/2021 10:30:00 AM 21.87 71.366 0.121 7.36 4.7 8.98
8/9/2021 10:45:00 AM 21.97 71.546 0.121 7.39 4.59 9.09
8/9/2021 11:00:00 AM 22.1 71.78 0.12 7.42 4.36 9.16
8/9/2021 11:15:00 AM 22.25 72.05 0.121 7.45 4.49 9.25
8/9/2021 11:30:00 AM 22.37 72.266 0.12 7.49 4.51 9.32
8/9/2021 11:45:00 AM 22.5 72.5 0.12 7.51 4.4 9.34
8/9/2021 12:00:00 PM 22.65 72.77 0.12 7.54 4.33 9.44
8/9/2021 12:15:00 PM 22.77 72.986 0.12 7.57 3.9 9.48
8/9/2021 12:30:00 PM 22.92 73.256 0.12 7.6 4.74 9.48
8/9/2021 12:45:00 PM 23.13 73.634 0.121 7.62 4.12 9.55
8/9/2021 1:00:00 PM 23.27 73.886 0.12 7.64 4.25 9.56
8/9/2021 1:15:00 PM 23.43 74.174 0.12 7.67 4.13 9.57
8/9/2021 1:30:00 PM 23.5 74.3 0.12 7.68 4.29 9.53
8/9/2021 1:45:00 PM 23.66 74.588 0.12 7.7 3.94 9.55
8/9/2021 2:00:00 PM 23.73 74.714 0.12 7.71 4.31 9.5
8/9/2021 2:15:00 PM 23.9 75.02 0.119 7.73 4.16 9.5
8/9/2021 2:30:00 PM 24.03 75.254 0.119 7.75 4.06 9.48
8/9/2021 2:45:00 PM 24.02 75.236 0.119 7.74 4.44 9.39
8/9/2021 3:00:00 PM 24.12 75.416 0.119 7.74 4.14 9.34
8/9/2021 3:15:00 PM 24.3 75.74 0.119 7.75 4.2 9.3
8/9/2021 3:30:00 PM 24.35 75.83 0.119 7.74 4.33 9.21
8/9/2021 3:45:00 PM 24.66 76.388 0.119 7.77 4.3 9.25
8/9/2021 4:00:00 PM 24.82 76.676 0.118 7.79 4.21 9.22
8/9/2021 4:15:00 PM 25.01 77.018 0.119 7.81 4.11 9.19
8/9/2021 4:30:00 PM 25.14 77.252 0.119 7.81 3.97 9.12
8/9/2021 4:45:00 PM 25.25 77.45 0.118 7.8 4.21 9
8/9/2021 5:00:00 PM 25.35 77.63 0.119 7.79 4.13 8.91
8/9/2021 5:15:00 PM 25.39 77.702 0.119 7.77 4.43 8.77
8/9/2021 5:30:00 PM 25.51 77.918 0.119 7.76 4.21 8.71
8/9/2021 5:45:00 PM 25.55 77.99 0.119 7.71 4.27 8.56
8/9/2021 6:00:00 PM 25.65 78.17 0.119 7.7 4.51 8.5
8/9/2021 6:15:00 PM 25.69 78.242 0.119 7.66 4.26 8.38
8/9/2021 6:30:00 PM 25.73 78.314 0.119 7.64 4.17 8.25
8/9/2021 6:45:00 PM 25.76 78.368 0.12 7.61 4.62 8.14
8/9/2021 7:00:00 PM 25.78 78.404 0.12 7.58 4.43 8.06
8/9/2021 7:15:00 PM 25.77 78.386 0.12 7.55 4.23 7.95
8/9/2021 7:30:00 PM 25.76 78.368 0.121 7.52 4.42 7.82
8/9/2021 7:45:00 PM 25.73 78.314 0.121 7.49 4.29 7.74
8/9/2021 8:00:00 PM 25.69 78.242 0.121 7.46 4.33 7.63
8/9/2021 8:15:00 PM 25.64 78.152 0.122 7.43 4.87 7.57
8/9/2021 8:30:00 PM 25.59 78.062 0.122 7.4 4.83 7.49
8/9/2021 8:45:00 PM 25.54 77.972 0.122 7.38 4.51 7.42
8/9/2021 9:00:00 PM 25.48 77.864 0.122 7.35 4.97 7.38
8/9/2021 9:15:00 PM 25.4 77.72 0.122 7.33 5.19 7.32
8/9/2021 9:30:00 PM 25.33 77.594 0.123 7.32 5.16 7.32
8/9/2021 9:45:00 PM 25.25 77.45 0.123 7.3 4.97 7.29
8/9/2021 10:00:00 PM 25.18 77.324 0.123 7.29 5.48 7.28
8/9/2021 10:15:00 PM 25.08 77.144 0.123 7.28 5.2 7.26
8/9/2021 10:30:00 PM 25 77 0.123 7.27 5.47 7.27
8/9/2021 10:45:00 PM 24.9 76.82 0.123 7.26 5.68 7.26
8/9/2021 11:00:00 PM 24.8 76.64 0.122 7.25 5.24 7.25
8/9/2021 11:15:00 PM 24.69 76.442 0.122 7.24 5.41 7.27
8/9/2021 11:30:00 PM 24.6 76.28 0.122 7.24 5.37 7.23
8/9/2021 11:45:00 PM 24.49 76.082 0.123 7.22 6.49 7.25
8/10/2021 12:00:00 AM 24.39 75.902 0.123 7.22 5.17 7.23
8/10/2021 12:15:00 AM 24.28 75.704 0.123 7.2 5.45 7.25
8/10/2021 12:30:00 AM 24.17 75.506 0.123 7.2 5.76 7.26
8/10/2021 12:45:00 AM 24.06 75.308 0.123 7.19 5.7 7.27
8/10/2021 1:00:00 AM 23.96 75.128 0.123 7.18 5.56 7.25
8/10/2021 1:15:00 AM 23.86 74.948 0.123 7.17 5.27 7.32
8/10/2021 1:30:00 AM 23.75 74.75 0.123 7.17 5.75 7.34
8/10/2021 1:45:00 AM 23.67 74.606 0.124 7.15 5.14 7.35
8/10/2021 2:00:00 AM 23.58 74.444 0.123 7.15 5.44 7.37
8/10/2021 2:15:00 AM 23.49 74.282 0.123 7.14 6.26 7.38
8/10/2021 2:30:00 AM 23.4 74.12 0.123 7.14 5.23 7.43
8/10/2021 2:45:00 AM 23.33 73.994 0.123 7.13 5.54 7.42
8/10/2021 3:00:00 AM 23.25 73.85 0.123 7.12 5.57 7.44
8/10/2021 3:15:00 AM 23.17 73.706 0.123 7.12 7.23 7.43
8/10/2021 3:30:00 AM 23.08 73.544 0.123 7.11 8.64 7.49
8/10/2021 3:45:00 AM 23.01 73.418 0.123 7.11 5.8 7.51
8/10/2021 4:00:00 AM 22.94 73.292 0.123 7.11 5.43 7.48
8/10/2021 4:15:00 AM 22.87 73.166 0.123 7.1 5.53 7.5
8/10/2021 4:30:00 AM 22.82 73.076 0.123 7.1 4.88 7.47
8/10/2021 4:45:00 AM 22.76 72.968 0.123 7.1 5.36 7.51
8/10/2021 5:00:00 AM 22.71 72.878 0.124 7.1 5.44 7.51
8/10/2021 5:15:00 AM 22.67 72.806 0.123 7.1 6.09 7.49
8/10/2021 5:30:00 AM 22.61 72.698 0.123 7.1 5.54 7.57
8/10/2021 5:45:00 AM 22.56 72.608 0.123 7.1 5.53 7.59
8/10/2021 6:00:00 AM 22.52 72.536 0.123 7.1 6.45 7.56
8/10/2021 6:15:00 AM 22.47 72.446 0.123 7.1 5.63 7.61
8/10/2021 6:30:00 AM 22.42 72.356 0.123 7.1 6.25 7.63
8/10/2021 6:45:00 AM 22.36 72.248 0.123 7.11 4.95 7.67
8/10/2021 7:00:00 AM 22.32 72.176 0.122 7.11 6.13 7.64
8/10/2021 7:15:00 AM 22.28 72.104 0.122 7.1 8.75 7.7
8/10/2021 7:30:00 AM 22.24 72.032 0.122 7.12 6.87 7.72
8/10/2021 7:45:00 AM 22.23 72.014 0.122 7.13 6.43 7.78
8/10/2021 8:00:00 AM 22.23 72.014 0.122 7.15 5.39 7.95
8/10/2021 8:15:00 AM 22.2 71.96 0.122 7.16 4.9 7.97
8/10/2021 8:30:00 AM 22.2 71.96 0.122 7.17 4.92 8.05
8/10/2021 8:45:00 AM 22.19 71.942 0.122 7.19 4.88 8.12
8/10/2021 9:00:00 AM 22.22 71.996 0.122 7.2 6.81 8.19
8/10/2021 9:15:00 AM 22.24 72.032 0.122 7.22 4.88 8.29
8/10/2021 9:30:00 AM 22.21 71.978 0.122 7.24 4.8 8.28
8/10/2021 9:45:00 AM 22.2 71.96 0.122 7.24 4.67 8.3
8/10/2021 10:00:00 AM 22.23 72.014 0.122 7.26 4.88 8.38
8/10/2021 10:15:00 AM 22.23 72.014 0.122 7.27 9.47 8.42
8/10/2021 10:30:00 AM 22.24 72.032 0.122 7.29 4.3 8.5
8/10/2021 10:45:00 AM 22.25 72.05 0.122 7.3 4.57 8.53
8/10/2021 11:00:00 AM 22.38 72.284 0.122 7.33 5.63 8.65
8/10/2021 11:15:00 AM 22.44 72.392 0.122 7.36 4.59 8.78
8/10/2021 11:30:00 AM 22.47 72.446 0.121 7.39 4.35 8.9
8/10/2021 11:45:00 AM 22.73 72.914 0.121 7.43 4.84 9.02
8/10/2021 12:00:00 PM 22.94 73.292 0.121 7.47 4.43 9.13
8/10/2021 12:15:00 PM 23.04 73.472 0.121 7.51 4.44 9.17
8/10/2021 12:30:00 PM 23.02 73.436 0.121 7.55 4.45 9.24
8/10/2021 12:45:00 PM 22.96 73.328 0.121 7.53 4.3 9.09
8/10/2021 1:00:00 PM 22.96 73.328 0.121 7.53 4.37 9.08
8/10/2021 1:15:00 PM 22.97 73.346 0.121 7.53 4.34 9.05
8/10/2021 1:30:00 PM 23.15 73.67 0.121 7.56 4.14 9.16
8/10/2021 1:45:00 PM 23.15 73.67 0.12 7.59 4.23 9.21
8/10/2021 2:00:00 PM 23.12 73.616 0.12 7.58 4.63 9.09
8/10/2021 2:15:00 PM 23.12 73.616 0.12 7.56 4.42 8.95
8/10/2021 2:30:00 PM 23.18 73.724 0.12 7.55 4.46 8.93
8/10/2021 2:45:00 PM 23.28 73.904 0.12 7.57 4.32 9.01
8/10/2021 3:00:00 PM 23.43 74.174 0.12 7.6 4.3 9.1
8/10/2021 3:15:00 PM 23.58 74.444 0.12 7.63 4.01 9.2
8/10/2021 3:30:00 PM 23.72 74.696 0.12 7.64 4 9.23
8/10/2021 3:45:00 PM 23.9 75.02 0.119 7.67 4.18 9.26
8/10/2021 4:00:00 PM 24.04 75.272 0.119 7.7 4.11 9.24
8/10/2021 4:15:00 PM 24.12 75.416 0.119 7.71 3.94 9.18
8/10/2021 4:30:00 PM 24.17 75.506 0.119 7.7 4.07 9.09
8/10/2021 4:45:00 PM 24.22 75.596 0.119 7.71 4.09 9.01
8/10/2021 5:00:00 PM 24.3 75.74 0.119 7.69 4.03 8.96
8/10/2021 5:15:00 PM 24.36 75.848 0.119 7.69 4.2 8.93
8/10/2021 5:30:00 PM 24.38 75.884 0.119 7.67 4.15 8.82
8/10/2021 5:45:00 PM 24.4 75.92 0.12 7.63 4.08 8.68
8/10/2021 6:00:00 PM 24.49 76.082 0.119 7.63 4.36 8.66
8/10/2021 6:15:00 PM 24.5 76.1 0.12 7.61 4.17 8.59
8/10/2021 6:30:00 PM 24.5 76.1 0.119 7.6 4.34 8.51
8/10/2021 6:45:00 PM 24.5 76.1 0.119 7.58 4.35 8.41
8/10/2021 7:00:00 PM 24.45 76.01 0.119 7.56 4.07 8.35
8/10/2021 7:15:00 PM 24.4 75.92 0.119 7.54 4.2 8.24
8/10/2021 7:30:00 PM 24.32 75.776 0.119 7.51 4.33 8.13
8/10/2021 7:45:00 PM 24.27 75.686 0.12 7.48 4.56 8.04
8/10/2021 8:00:00 PM 24.24 75.632 0.12 7.45 4.51 7.93
8/10/2021 8:15:00 PM 24.21 75.578 0.12 7.42 4.41 7.85
8/10/2021 8:30:00 PM 24.19 75.542 0.12 7.4 4.42 7.82
8/10/2021 8:45:00 PM 24.16 75.488 0.12 7.38 4.34 7.75
8/10/2021 9:00:00 PM 24.15 75.47 0.12 7.35 4.8 7.69
8/10/2021 9:15:00 PM 24.13 75.434 0.12 7.34 4.86 7.62
8/10/2021 9:30:00 PM 24.11 75.398 0.12 7.32 5.04 7.6
8/10/2021 9:45:00 PM 24.09 75.362 0.12 7.31 5.35 7.57
8/10/2021 10:00:00 PM 24.07 75.326 0.12 7.29 5.96 7.51
8/10/2021 10:15:00 PM 24.05 75.29 0.12 7.28 5.41 7.51
8/10/2021 10:30:00 PM 24.03 75.254 0.121 7.28 5.47 7.46
8/10/2021 10:45:00 PM 24.01 75.218 0.121 7.27 5.2 7.46
8/10/2021 11:00:00 PM 23.97 75.146 0.121 7.26 6.72 7.43
8/10/2021 11:15:00 PM 23.94 75.092 0.12 7.26 6.89 7.42
8/10/2021 11:30:00 PM 23.88 74.984 0.121 7.24 5.6 7.4
8/10/2021 11:45:00 PM 23.82 74.876 0.121 7.23 6.51 7.39
8/11/2021 12:00:00 AM 23.76 74.768 0.122 7.23 5.93 7.38
8/11/2021 12:15:00 AM 23.7 74.66 0.122 7.22 5.81 7.4
8/11/2021 12:30:00 AM 23.53 74.354 0.118 7.24 7.23 7.63
8/11/2021 12:45:00 AM 23.48 74.264 0.118 7.23 6.79 7.5
8/11/2021 1:00:00 AM 23.4 74.12 0.118 7.22 7.18 7.48
8/11/2021 1:15:00 AM 23.33 73.994 0.118 7.21 6.7 7.48
8/11/2021 1:30:00 AM 23.27 73.886 0.119 7.2 6.93 7.47
8/11/2021 1:45:00 AM 23.22 73.796 0.119 7.18 6.43 7.44
8/11/2021 2:00:00 AM 23.16 73.688 0.119 7.18 6.48 7.44
8/11/2021 2:15:00 AM 23.09 73.562 0.119 7.17 6.41 7.51
8/11/2021 2:30:00 AM 23.03 73.454 0.119 7.17 5.93 7.48
8/11/2021 2:45:00 AM 22.97 73.346 0.119 7.16 6.2 7.46
8/11/2021 3:00:00 AM 22.91 73.238 0.119 7.16 6.32 7.52
8/11/2021 3:15:00 AM 22.86 73.148 0.12 7.15 5.97 7.49
8/11/2021 3:30:00 AM 22.82 73.076 0.119 7.15 6.02 7.52
8/11/2021 3:45:00 AM 22.78 73.004 0.119 7.15 6.66 7.51
8/11/2021 4:00:00 AM 22.74 72.932 0.12 7.14 6.38 7.52
8/11/2021 4:15:00 AM 22.69 72.842 0.12 7.14 6.08 7.55
8/11/2021 4:30:00 AM 22.66 72.788 0.12 7.14 5.71 7.57
8/11/2021 4:45:00 AM 22.63 72.734 0.12 7.14 6.48 7.56
8/11/2021 5:00:00 AM 22.59 72.662 0.12 7.14 6.34 7.58
8/11/2021 5:15:00 AM 22.57 72.626 0.12 7.14 7.98 7.54
8/11/2021 5:30:00 AM 22.53 72.554 0.12 7.14 6.65 7.56
8/11/2021 5:45:00 AM 22.51 72.518 0.121 7.14 5.94 7.5
8/11/2021 6:00:00 AM 22.48 72.464 0.12 7.14 6.77 7.53
8/11/2021 6:15:00 AM 22.45 72.41 0.12 7.14 6.3 7.57
8/11/2021 6:30:00 AM 22.42 72.356 0.121 7.14 6.64 7.58
8/11/2021 6:45:00 AM 22.39 72.302 0.12 7.15 5.7 7.6
8/11/2021 7:00:00 AM 22.37 72.266 0.12 7.15 6.35 7.66
8/11/2021 7:15:00 AM 22.35 72.23 0.12 7.16 5.61 7.72
8/11/2021 7:30:00 AM 22.34 72.212 0.12 7.17 5.86 7.74
8/11/2021 7:45:00 AM 22.33 72.194 0.12 7.17 6.07 7.8
8/11/2021 8:00:00 AM 22.32 72.176 0.12 7.18 5.38 7.81
8/11/2021 8:15:00 AM 22.31 72.158 0.12 7.19 5.31 7.86
8/11/2021 8:30:00 AM 22.3 72.14 0.12 7.2 5.23 7.87
8/11/2021 8:45:00 AM 22.32 72.176 0.12 7.21 5.47 7.95
8/11/2021 9:00:00 AM 22.34 72.212 0.12 7.22 5.7 8.06
8/11/2021 9:15:00 AM 22.32 72.176 0.12 7.23 5.47 8.1
8/11/2021 9:30:00 AM 22.32 72.176 0.119 7.23 5.51 8.05
8/11/2021 9:45:00 AM 22.37 72.266 0.119 7.25 5.52 8.19
8/11/2021 10:00:00 AM 22.38 72.284 0.119 7.26 5.96 8.23
8/11/2021 10:15:00 AM 22.42 72.356 0.119 7.28 7.34 8.34
8/11/2021 10:30:00 AM 22.41 72.338 0.119 7.29 6.08 8.33
8/11/2021 10:45:00 AM 22.48 72.464 0.119 7.31 4.86 8.42
8/11/2021 11:00:00 AM 22.52 72.536 0.119 7.32 4.67 8.48
8/11/2021 11:15:00 AM 22.61 72.698 0.119 7.34 4.98 8.56
8/11/2021 11:30:00 AM 22.72 72.896 0.118 7.36 5.11 8.68
8/11/2021 11:45:00 AM 22.77 72.986 0.118 7.38 4.97 8.73
8/11/2021 12:00:00 PM 22.93 73.274 0.118 7.42 4.57 8.81
8/11/2021 12:15:00 PM 23.09 73.562 0.118 7.44 4.7 8.91
8/11/2021 12:30:00 PM 23.21 73.778 0.118 7.48 4.89 9.02
8/11/2021 12:45:00 PM 23.33 73.994 0.117 7.5 5.65 9.01
8/11/2021 1:00:00 PM 23.5 74.3 0.117 7.52 4.69 9.03
8/11/2021 1:15:00 PM 23.55 74.39 0.117 7.55 4.69 9.06
8/11/2021 1:30:00 PM 23.74 74.732 0.117 7.57 4.83 9.11
8/11/2021 1:45:00 PM 23.87 74.966 0.116 7.6 4.67 9.13
8/11/2021 2:00:00 PM 23.99 75.182 0.116 7.62 4.89 9.13
8/11/2021 2:15:00 PM 24.26 75.668 0.116 7.66 4.58 9.2
8/11/2021 2:30:00 PM 24.4 75.92 0.117 7.67 4.7 9.18
8/11/2021 2:45:00 PM 24.63 76.334 0.117 7.7 4.58 9.18
8/11/2021 3:00:00 PM 24.81 76.658 0.118 7.72 5.04 9.19
8/11/2021 3:15:00 PM 24.95 76.91 0.118 7.74 5.05 9.15
8/11/2021 3:30:00 PM 24.91 76.838 0.119 7.74 5.13 9.06
8/11/2021 3:45:00 PM 24.96 76.92799 0.119 7.73 4.94 8.96
8/11/2021 4:00:00 PM 25.04 77.07201 0.12 7.72 5.01 8.89
8/11/2021 4:15:00 PM 24.93 76.874 0.119 7.69 5.12 8.73
8/11/2021 4:30:00 PM 24.96 76.92799 0.119 7.67 5.09 8.6
8/11/2021 4:45:00 PM 24.96 76.92799 0.12 7.62 4.92 8.45
8/11/2021 5:00:00 PM 24.98 76.964 0.119 7.61 5.19 8.35
8/11/2021 5:15:00 PM 25.02 77.036 0.119 7.59 4.57 8.34
8/11/2021 5:30:00 PM 25.09 77.162 0.119 7.59 6.24 8.32
8/11/2021 5:45:00 PM 25.17 77.306 0.119 7.59 5.07 8.38
8/11/2021 6:00:00 PM 25.2 77.36 0.119 7.6 4.91 8.37
8/11/2021 6:15:00 PM 25.2 77.36 0.119 7.58 4.57 8.25
8/11/2021 6:30:00 PM 25.21 77.378 0.119 7.55 5.13 8.13
8/11/2021 6:45:00 PM 25.2 77.36 0.119 7.53 4.88 8.06
8/11/2021 7:00:00 PM 25.2 77.36 0.119 7.5 4.51 7.93
8/11/2021 7:15:00 PM 25.19 77.342 0.119 7.47 5.03 7.81
8/11/2021 7:30:00 PM 25.18 77.324 0.119 7.44 4.89 7.72
8/11/2021 7:45:00 PM 25.17 77.306 0.119 7.42 4.98 7.64
8/11/2021 8:00:00 PM 25.15 77.27 0.12 7.4 4.82 7.6
8/11/2021 8:15:00 PM 25.12 77.216 0.12 7.38 5.21 7.56
8/11/2021 8:30:00 PM 25.09 77.162 0.12 7.36 4.89 7.52
8/11/2021 8:45:00 PM 25.04 77.07201 0.12 7.34 5.62 7.46
8/11/2021 9:00:00 PM 25 77 0.12 7.33 5.89 7.46
8/11/2021 9:15:00 PM 24.94 76.892 0.121 7.32 5.47 7.42
8/11/2021 9:30:00 PM 24.88 76.784 0.121 7.3 6.3 7.41
8/11/2021 9:45:00 PM 24.83 76.694 0.121 7.29 6.53 7.35
8/11/2021 10:00:00 PM 24.75 76.55 0.121 7.28 6.04 7.37
8/11/2021 10:15:00 PM 24.68 76.424 0.121 7.27 5.75 7.36
8/11/2021 10:30:00 PM 24.59 76.262 0.12 7.27 5.22 7.35
8/11/2021 10:45:00 PM 24.5 76.1 0.121 7.26 5.91 7.35
8/11/2021 11:00:00 PM 24.41 75.938 0.12 7.25 5.81 7.36
8/11/2021 11:15:00 PM 24.32 75.776 0.121 7.24 5.93 7.37
8/11/2021 11:30:00 PM 24.23 75.614 0.121 7.24 5.42 7.33
8/11/2021 11:45:00 PM 24.14 75.452 0.121 7.23 5.37 7.37
8/12/2021 12:00:00 AM 24.04 75.272 0.12 7.22 5.79 7.37
8/12/2021 12:15:00 AM 23.96 75.128 0.121 7.21 5.64 7.37
8/12/2021 12:30:00 AM 23.89 75.002 0.12 7.21 5.64 7.38
8/12/2021 12:45:00 AM 23.82 74.876 0.12 7.2 5.5 7.33
8/12/2021 1:00:00 AM 23.73 74.714 0.12 7.2 6.3 7.39
8/12/2021 1:15:00 AM 23.65 74.57 0.121 7.19 6.11 7.4
8/12/2021 1:30:00 AM 23.58 74.444 0.12 7.18 5.74 7.39
8/12/2021 1:45:00 AM 23.5 74.3 0.121 7.18 5.65 7.43
8/12/2021 2:00:00 AM 23.43 74.174 0.121 7.17 5.82 7.43
8/12/2021 2:15:00 AM 23.34 74.012 0.121 7.16 5.75 7.43
8/12/2021 2:30:00 AM 23.27 73.886 0.121 7.16 5.26 7.45
8/12/2021 2:45:00 AM 23.21 73.778 0.121 7.15 5.62 7.44
8/12/2021 3:00:00 AM 23.13 73.634 0.121 7.15 5.71 7.49
8/12/2021 3:15:00 AM 23.06 73.508 0.121 7.15 5.85 7.51
8/12/2021 3:30:00 AM 22.99 73.382 0.121 7.15 5.69 7.53
8/12/2021 3:45:00 AM 22.93 73.274 0.121 7.14 8.43 7.49
8/12/2021 4:00:00 AM 22.87 73.166 0.121 7.13 5.41 7.5
8/12/2021 4:15:00 AM 22.8 73.04 0.121 7.13 5.62 7.55
8/12/2021 4:30:00 AM 22.74 72.932 0.121 7.13 5.96 7.58
8/12/2021 4:45:00 AM 22.68 72.824 0.121 7.13 5.36 7.57
8/12/2021 5:00:00 AM 22.61 72.698 0.122 7.13 5.41 7.6
8/12/2021 5:15:00 AM 22.56 72.608 0.122 7.12 6.26 7.6
8/12/2021 5:30:00 AM 22.49 72.482 0.122 7.13 5.76 7.64
8/12/2021 5:45:00 AM 22.44 72.392 0.122 7.13 5.76 7.64
8/12/2021 6:00:00 AM 22.38 72.284 0.122 7.13 5.08 7.66
8/12/2021 6:15:00 AM 22.32 72.176 0.122 7.13 5.59 7.66
8/12/2021 6:30:00 AM 22.27 72.086 0.122 7.13 5.67 7.68
8/12/2021 6:45:00 AM 22.21 71.978 0.122 7.13 5.4 7.72
8/12/2021 7:00:00 AM 22.16 71.888 0.122 7.13 5.56 7.73
8/12/2021 7:15:00 AM 22.14 71.852 0.122 7.14 5.36 7.76
8/12/2021 7:30:00 AM 22.11 71.798 0.122 7.15 5.47 7.85
8/12/2021 7:45:00 AM 22.1 71.78 0.122 7.16 5.23 7.9
8/12/2021 8:00:00 AM 22.09 71.762 0.123 7.17 4.77 7.97
8/12/2021 8:15:00 AM 22.08 71.744 0.122 7.19 5.16 8.06
8/12/2021 8:30:00 AM 22.09 71.762 0.123 7.2 5.46 8.07
8/12/2021 8:45:00 AM 22.11 71.798 0.123 7.21 5.09 8.12
8/12/2021 9:00:00 AM 22.17 71.906 0.123 7.23 5.29 8.23
8/12/2021 9:15:00 AM 22.22 71.996 0.123 7.25 4.97 8.34
8/12/2021 9:30:00 AM 22.29 72.122 0.122 7.28 4.71 8.44
8/12/2021 9:45:00 AM 22.35 72.23 0.122 7.3 4.82 8.48
8/12/2021 10:00:00 AM 22.44 72.392 0.122 7.32 5.25 8.54
8/12/2021 10:15:00 AM 22.55 72.59 0.122 7.34 4.79 8.63
8/12/2021 10:30:00 AM 22.68 72.824 0.122 7.37 4.63 8.72
8/12/2021 10:45:00 AM 22.83 73.094 0.122 7.4 4.47 8.78
8/12/2021 11:00:00 AM 22.89 73.202 0.122 7.43 4.57 8.86
8/12/2021 11:15:00 AM 23.14 73.652 0.122 7.47 4.6 8.92
8/12/2021 11:30:00 AM 23.32 73.976 0.122 7.5 4.23 8.98
8/12/2021 11:45:00 AM 23.39 74.102 0.122 7.52 4.33 9.05
8/12/2021 12:00:00 PM 23.55 74.39 0.122 7.54 4.28 9.05
8/12/2021 12:15:00 PM 23.69 74.642 0.121 7.56 4.29 9.08
8/12/2021 12:30:00 PM 23.92 75.056 0.121 7.59 4.33 9.15
8/12/2021 12:45:00 PM 23.91 75.038 0.121 7.62 4.41 9.2
8/12/2021 1:00:00 PM 24.13 75.434 0.121 7.63 4.49 9.2
8/12/2021 1:15:00 PM 24.3 75.74 0.121 7.66 4.36 9.21
8/12/2021 1:30:00 PM 24.45 76.01 0.12 7.68 4.47 9.22
8/12/2021 1:45:00 PM 24.38 75.884 0.12 7.69 3.97 9.16
8/12/2021 2:00:00 PM 24.53 76.154 0.12 7.69 4.23 9.13
8/12/2021 2:15:00 PM 24.56 76.208 0.12 7.68 4.55 9.07
8/12/2021 2:30:00 PM 24.82 76.676 0.12 7.7 3.89 9.12
8/12/2021 2:45:00 PM 24.95 76.91 0.12 7.73 4.29 9.13
8/12/2021 3:00:00 PM 25.15 77.27 0.12 7.75 4.33 9.16
8/12/2021 3:15:00 PM 25.3 77.54 0.12 7.78 3.93 9.13
8/12/2021 3:30:00 PM 25.36 77.648 0.119 7.77 4.31 9.07
8/12/2021 3:45:00 PM 25.52 77.936 0.119 7.78 3.99 9.04
8/12/2021 4:00:00 PM 25.6 78.08 0.119 7.77 3.9 8.93
8/12/2021 4:15:00 PM 25.69 78.242 0.119 7.77 4.35 8.87
8/12/2021 4:30:00 PM 25.8 78.44 0.119 7.76 4.09 8.82
8/12/2021 4:45:00 PM 25.86 78.548 0.119 7.74 4.39 8.68
8/12/2021 5:00:00 PM 25.98 78.764 0.119 7.72 4.29 8.61
8/12/2021 5:15:00 PM 26.04 78.872 0.12 7.71 4.19 8.52
8/12/2021 5:30:00 PM 26.13 79.034 0.12 7.69 4.51 8.43
8/12/2021 5:45:00 PM 26.2 79.16 0.12 7.67 4.18 8.31
8/12/2021 6:00:00 PM 26.25 79.25 0.12 7.65 4.39 8.25
8/12/2021 6:15:00 PM 26.28 79.304 0.12 7.61 4.36 8.09
8/12/2021 6:30:00 PM 26.29 79.32201 0.12 7.58 4.52 7.94
8/12/2021 6:45:00 PM 26.3 79.34 0.121 7.54 4.29 7.85
8/12/2021 7:00:00 PM 26.3 79.34 0.121 7.52 4.46 7.74
8/12/2021 7:15:00 PM 26.29 79.32201 0.121 7.48 4.77 7.63
8/12/2021 7:30:00 PM 26.29 79.32201 0.121 7.46 4.39 7.53
8/12/2021 7:45:00 PM 26.27 79.286 0.122 7.43 4.63 7.47
8/12/2021 8:00:00 PM 26.26 79.268 0.122 7.41 4.39 7.38
8/12/2021 8:15:00 PM 26.22 79.196 0.122 7.39 4.69 7.35
8/12/2021 8:30:00 PM 26.16 79.088 0.122 7.38 4.76 7.31
8/12/2021 8:45:00 PM 26.08 78.944 0.122 7.37 4.69 7.27
8/12/2021 9:00:00 PM 26 78.8 0.122 7.35 4.93 7.22
8/12/2021 9:15:00 PM 25.92 78.656 0.122 7.33 5.39 7.15
8/12/2021 9:30:00 PM 25.84 78.512 0.123 7.32 5.04 7.13
8/12/2021 9:45:00 PM 25.79 78.422 0.122 7.31 5.94 7.13
8/12/2021 10:00:00 PM 25.71 78.278 0.123 7.29 5.28 7.06
8/12/2021 10:15:00 PM 25.66 78.188 0.123 7.28 5.25 7.03
8/12/2021 10:30:00 PM 25.6 78.08 0.124 7.27 4.97 7
8/12/2021 10:45:00 PM 25.55 77.99 0.124 7.26 5.52 6.99
8/12/2021 11:00:00 PM 25.5 77.9 0.124 7.26 5.43 7.01
8/12/2021 11:15:00 PM 25.43 77.774 0.124 7.25 6.28 7.01
8/12/2021 11:30:00 PM 25.36 77.648 0.124 7.25 5.34 7.01
8/12/2021 11:45:00 PM 25.29 77.522 0.124 7.24 6.1 6.99
8/13/2021 12:00:00 AM 25.21 77.378 0.124 7.24 5.3 7
8/13/2021 12:15:00 AM 25.11 77.198 0.124 7.23 5.12 7.02
8/13/2021 12:30:00 AM 25.02 77.036 0.124 7.23 5.2 7.03
8/13/2021 12:45:00 AM 24.91 76.838 0.124 7.22 5.55 7.06
8/13/2021 1:00:00 AM 24.81 76.658 0.124 7.21 5.87 7.08
8/13/2021 1:15:00 AM 24.7 76.46 0.124 7.21 4.92 7.11
8/13/2021 1:30:00 AM 24.59 76.262 0.124 7.2 5.3 7.11
8/13/2021 1:45:00 AM 24.49 76.082 0.124 7.19 5.45 7.11
8/13/2021 2:00:00 AM 24.39 75.902 0.123 7.19 5.53 7.11
8/13/2021 2:15:00 AM 24.28 75.704 0.123 7.18 5.33 7.14
8/13/2021 2:30:00 AM 24.18 75.524 0.123 7.18 5.66 7.17
8/13/2021 2:45:00 AM 24.09 75.362 0.123 7.17 5.38 7.17
8/13/2021 3:00:00 AM 23.98 75.164 0.123 7.17 5.15 7.2
8/13/2021 3:15:00 AM 23.9 75.02 0.123 7.16 6.03 7.22
8/13/2021 3:30:00 AM 23.8 74.84 0.123 7.16 5.45 7.25
8/13/2021 3:45:00 AM 23.7 74.66 0.123 7.16 5.93 7.27
8/13/2021 4:00:00 AM 23.62 74.516 0.124 7.15 5.66 7.27
8/13/2021 4:15:00 AM 23.53 74.354 0.123 7.14 5.64 7.27
8/13/2021 4:30:00 AM 23.45 74.21 0.123 7.14 6.23 7.3
8/13/2021 4:45:00 AM 23.37 74.066 0.123 7.14 6.23 7.31
8/13/2021 5:00:00 AM 23.29 73.922 0.123 7.12 5.71 7.33
8/13/2021 5:15:00 AM 23.21 73.778 0.123 7.13 6.89 7.38
8/13/2021 5:30:00 AM 23.14 73.652 0.123 7.13 6.27 7.37
8/13/2021 5:45:00 AM 23.07 73.526 0.123 7.12 6.11 7.4
8/13/2021 6:00:00 AM 23 73.4 0.123 7.12 6.06 7.42
8/13/2021 6:15:00 AM 22.94 73.292 0.123 7.12 6.11 7.43
8/13/2021 6:30:00 AM 22.87 73.166 0.123 7.12 6.13 7.5
8/13/2021 6:45:00 AM 22.82 73.076 0.123 7.13 5.62 7.51
8/13/2021 7:00:00 AM 22.77 72.986 0.123 7.13 5.38 7.55
8/13/2021 7:15:00 AM 22.74 72.932 0.123 7.14 6.22 7.58
8/13/2021 7:30:00 AM 22.71 72.878 0.123 7.14 5.55 7.64
8/13/2021 7:45:00 AM 22.68 72.824 0.123 7.15 5.72 7.71
8/13/2021 8:00:00 AM 22.66 72.788 0.123 7.17 5.67 7.78
8/13/2021 8:15:00 AM 22.64 72.752 0.123 7.18 4.96 7.84
8/13/2021 8:30:00 AM 22.64 72.752 0.123 7.2 4.57 7.93
8/13/2021 8:45:00 AM 22.67 72.806 0.123 7.21 4.97 7.99
8/13/2021 9:00:00 AM 22.69 72.842 0.123 7.23 5 8.06
8/13/2021 9:15:00 AM 22.71 72.878 0.123 7.24 10.01 8.09
8/13/2021 9:30:00 AM 22.75 72.95 0.123 7.26 5.21 8.16
8/13/2021 9:45:00 AM 22.83 73.094 0.123 7.28 5.86 8.26
8/13/2021 10:00:00 AM 22.9 73.22 0.123 7.3 4.87 8.3
8/13/2021 10:15:00 AM 23.01 73.418 0.123 7.33 4.74 8.41
8/13/2021 10:30:00 AM 23.13 73.634 0.123 7.35 5.3 8.5
8/13/2021 10:45:00 AM 23.24 73.832 0.123 7.37 4.71 8.52
8/13/2021 11:00:00 AM 23.35 74.03 0.122 7.41 4.54 8.64
8/13/2021 11:15:00 AM 23.5 74.3 0.123 7.43 4.53 8.71
8/13/2021 11:30:00 AM 23.63 74.534 0.123 7.46 5.13 8.71
8/13/2021 11:45:00 AM 23.75 74.75 0.123 7.49 4.52 8.82
8/13/2021 12:00:00 PM 23.9 75.02 0.122 7.52 4.46 8.89
8/13/2021 12:15:00 PM 24.07 75.326 0.122 7.55 4.31 8.91
8/13/2021 12:30:00 PM 24.24 75.632 0.123 7.57 4.32 8.95
8/13/2021 12:45:00 PM 24.37 75.866 0.122 7.59 4.31 8.98
8/13/2021 1:00:00 PM 24.37 75.866 0.122 7.62 4.2 9.02
8/13/2021 1:15:00 PM 24.25 75.65 0.122 7.6 4.43 8.87
8/13/2021 1:30:00 PM 24.19 75.542 0.122 7.59 4.34 8.82
8/13/2021 1:45:00 PM 24.2 75.56 0.122 7.6 4.31 8.83
8/13/2021 2:00:00 PM 24.35 75.83 0.122 7.58 4.23 8.82
8/13/2021 2:15:00 PM 24.4 75.92 0.122 7.61 4.16 8.84
8/13/2021 2:30:00 PM 24.55 76.19 0.122 7.62 5.02 8.88
8/13/2021 2:45:00 PM 24.66 76.388 0.122 7.64 3.95 8.91
8/13/2021 3:00:00 PM 24.88 76.784 0.122 7.64 4.4 8.87
8/13/2021 3:15:00 PM 25.08 77.144 0.121 7.67 4.25 8.9
8/13/2021 3:30:00 PM 25.22 77.396 0.121 7.68 4.54 8.87
8/13/2021 3:45:00 PM 25.34 77.612 0.121 7.68 5.25 8.86
8/13/2021 4:00:00 PM 25.32 77.576 0.121 7.67 4.09 8.78
8/13/2021 4:15:00 PM 25.47 77.846 0.121 7.69 4.3 8.77
8/13/2021 4:30:00 PM 25.49 77.882 0.121 7.67 4.26 8.63
8/13/2021 4:45:00 PM 25.57 78.026 0.121 7.66 4.96 8.56
8/13/2021 5:00:00 PM 25.55 77.99 0.121 7.64 4.08 8.43
8/13/2021 5:15:00 PM 25.74 78.332 0.121 7.64 3.96 8.44
8/13/2021 5:30:00 PM 25.8 78.44 0.12 7.66 3.97 8.45
8/13/2021 5:45:00 PM 25.82 78.476 0.12 7.66 4.87 8.38
8/13/2021 6:00:00 PM 25.86 78.548 0.12 7.63 4.91 8.28
8/13/2021 6:15:00 PM 25.91 78.638 0.12 7.62 4.29 8.23
8/13/2021 6:30:00 PM 25.96 78.728 0.12 7.6 5.07 8.17
8/13/2021 6:45:00 PM 25.99 78.782 0.12 7.59 5.31 8.06
8/13/2021 7:00:00 PM 25.98 78.764 0.121 7.55 4.31 7.93
8/13/2021 7:15:00 PM 25.97 78.746 0.12 7.53 4.56 7.84
8/13/2021 7:30:00 PM 25.94 78.692 0.121 7.51 4.34 7.77
8/13/2021 7:45:00 PM 25.92 78.656 0.121 7.47 5 7.6
8/13/2021 8:00:00 PM 25.91 78.638 0.121 7.45 4.75 7.53
8/13/2021 8:15:00 PM 25.88 78.584 0.121 7.42 5.37 7.45
8/13/2021 8:30:00 PM 25.85 78.53 0.121 7.4 4.63 7.39
8/13/2021 8:45:00 PM 25.81 78.458 0.122 7.38 5.17 7.33
8/13/2021 9:00:00 PM 25.77 78.386 0.121 7.36 4.75 7.31
8/13/2021 9:15:00 PM 25.73 78.314 0.121 7.35 4.99 7.26
8/13/2021 9:30:00 PM 25.68 78.224 0.122 7.33 5.38 7.21
8/13/2021 9:45:00 PM 25.65 78.17 0.122 7.32 5.2 7.2
8/13/2021 10:00:00 PM 25.62 78.116 0.122 7.31 5.47 7.18
8/13/2021 10:15:00 PM 25.58 78.044 0.122 7.3 4.88 7.13
8/13/2021 10:30:00 PM 25.53 77.954 0.122 7.28 5.87 7.08
8/13/2021 10:45:00 PM 25.49 77.882 0.122 7.28 5.37 7.11
8/13/2021 11:00:00 PM 25.44 77.792 0.122 7.27 5.45 7.08
8/13/2021 11:15:00 PM 25.31 77.558 0.12 7.28 5.65 7.21
8/13/2021 11:30:00 PM 25.24 77.432 0.12 7.28 6.04 7.19
8/13/2021 11:45:00 PM 25.13 77.234 0.12 7.26 5.96 7.16
8/14/2021 12:00:00 AM 25.04 77.07201 0.119 7.25 6.35 7.13
8/14/2021 12:15:00 AM 24.95 76.91 0.119 7.25 6.39 7.16
8/14/2021 12:30:00 AM 24.86 76.748 0.118 7.24 6.24 7.14
8/14/2021 12:45:00 AM 24.79 76.622 0.118 7.24 6.13 7.16
8/14/2021 1:00:00 AM 24.71 76.478 0.118 7.23 6.76 7.11
8/14/2021 1:15:00 AM 24.62 76.316 0.118 7.23 5.8 7.14
8/14/2021 1:30:00 AM 24.53 76.154 0.119 7.22 5.9 7.14
8/14/2021 1:45:00 AM 24.44 75.992 0.119 7.22 6.79 7.22
8/14/2021 2:00:00 AM 24.35 75.83 0.119 7.21 6.5 7.19
8/14/2021 2:15:00 AM 24.26 75.668 0.119 7.2 6.13 7.23
8/14/2021 2:30:00 AM 24.18 75.524 0.118 7.2 6.66 7.24
8/14/2021 2:45:00 AM 24.09 75.362 0.118 7.19 7.88 7.23
8/14/2021 3:00:00 AM 24.01 75.218 0.118 7.18 6.69 7.24
8/14/2021 3:15:00 AM 23.94 75.092 0.118 7.17 6.84 7.2
8/14/2021 3:30:00 AM 23.87 74.966 0.118 7.16 7.7 7.2
8/14/2021 3:45:00 AM 23.81 74.858 0.118 7.15 6.5 7.21
8/14/2021 4:00:00 AM 23.75 74.75 0.118 7.15 8.4 7.23
8/14/2021 4:15:00 AM 23.68 74.624 0.118 7.14 8.24 7.27
8/14/2021 4:30:00 AM 23.62 74.516 0.118 7.14 9.17 7.28
8/14/2021 4:45:00 AM 23.57 74.426 0.118 7.13 10.01 7.27
8/14/2021 5:00:00 AM 23.52 74.336 0.118 7.12 11.49 7.27
8/14/2021 5:15:00 AM 23.46 74.228 0.118 7.12 12.74 7.28
8/14/2021 5:30:00 AM 23.42 74.156 0.118 7.11 13.63 7.24
8/14/2021 5:45:00 AM 23.35 74.03 0.119 7.11 14.43 7.3
8/14/2021 6:00:00 AM 23.3 73.94 0.119 7.11 15.08 7.29
8/14/2021 6:15:00 AM 23.26 73.868 0.119 7.11 13.56 7.28
8/14/2021 6:30:00 AM 23.22 73.796 0.12 7.11 13.46 7.32
8/14/2021 6:45:00 AM 23.18 73.724 0.12 7.12 12.78 7.36
8/14/2021 7:00:00 AM 23.13 73.634 0.121 7.12 11.65 7.41
8/14/2021 7:15:00 AM 23.1 73.58 0.121 7.13 12.02 7.45
8/14/2021 7:30:00 AM 23.08 73.544 0.122 7.14 11.03 7.48
8/14/2021 7:45:00 AM 23.06 73.508 0.122 7.15 10.91 7.56
8/14/2021 8:00:00 AM 23.05 73.49 0.122 7.16 9.97 7.62
8/14/2021 8:15:00 AM 23.05 73.49 0.122 7.18 8.59 7.72
8/14/2021 8:30:00 AM 23.02 73.436 0.123 7.18 7.75 7.72
8/14/2021 8:45:00 AM 23.01 73.418 0.123 7.2 7.51 7.77
8/14/2021 9:00:00 AM 23.03 73.454 0.124 7.22 7.07 7.86
8/14/2021 9:15:00 AM 23.03 73.454 0.124 7.23 7.09 7.94
8/14/2021 9:30:00 AM 23.03 73.454 0.125 7.25 7.06 8.01
8/14/2021 9:45:00 AM 23.02 73.436 0.125 7.26 6.81 8.06
8/14/2021 10:00:00 AM 23.03 73.454 0.125 7.27 6.36 8.09
8/14/2021 10:15:00 AM 23 73.4 0.125 7.28 5.69 8.06
8/14/2021 10:30:00 AM 23 73.4 0.125 7.28 6.25 8.09
8/14/2021 10:45:00 AM 22.98 73.364 0.125 7.29 5.71 8.1
8/14/2021 11:00:00 AM 22.98 73.364 0.125 7.29 6.06 8.12
8/14/2021 11:15:00 AM 23.02 73.436 0.124 7.31 5.97 8.22
8/14/2021 11:30:00 AM 23.08 73.544 0.124 7.33 5.08 8.35
8/14/2021 11:45:00 AM 22.99 73.382 0.124 7.34 5.18 8.26
8/14/2021 12:00:00 PM 22.93 73.274 0.124 7.35 5.41 8.3
8/14/2021 12:15:00 PM 22.9 73.22 0.124 7.36 5.29 8.36
8/14/2021 12:30:00 PM 22.86 73.148 0.124 7.36 4.67 8.32
8/14/2021 12:45:00 PM 22.83 73.094 0.124 7.37 4.8 8.37
8/14/2021 1:00:00 PM 22.83 73.094 0.124 7.37 4.56 8.36
8/14/2021 1:15:00 PM 22.87 73.166 0.124 7.39 4.79 8.51
8/14/2021 1:30:00 PM 22.88 73.184 0.124 7.42 4.8 8.58
8/14/2021 1:45:00 PM 22.93 73.274 0.124 7.43 4.82 8.66
8/14/2021 2:00:00 PM 23.1 73.58 0.124 7.46 4.54 8.75
8/14/2021 2:15:00 PM 23.26 73.868 0.123 7.51 4.91 8.92
8/14/2021 2:30:00 PM 23.35 74.03 0.123 7.54 4.65 9.01
8/14/2021 2:45:00 PM 23.44 74.192 0.123 7.57 4.41 9.06
8/14/2021 3:00:00 PM 23.6 74.48 0.123 7.6 5.31 9.09
8/14/2021 3:15:00 PM 23.7 74.66 0.123 7.62 4.77 9.13
8/14/2021 3:30:00 PM 23.81 74.858 0.123 7.64 4.61 9.08
8/14/2021 3:45:00 PM 23.9 75.02 0.123 7.64 4.26 9.06
8/14/2021 4:00:00 PM 23.95 75.11 0.123 7.64 4.56 9.02
8/14/2021 4:15:00 PM 23.99 75.182 0.122 7.65 4.45 9
8/14/2021 4:30:00 PM 24.03 75.254 0.123 7.65 4.09 8.95
8/14/2021 4:45:00 PM 24.04 75.272 0.123 7.64 4.27 8.89
8/14/2021 5:00:00 PM 24.06 75.308 0.123 7.63 4.41 8.84
8/14/2021 5:15:00 PM 24.07 75.326 0.122 7.63 4.26 8.8
8/14/2021 5:30:00 PM 24.08 75.344 0.122 7.63 4.55 8.73
8/14/2021 5:45:00 PM 24.06 75.308 0.122 7.62 4.42 8.7
8/14/2021 6:00:00 PM 24.05 75.29 0.123 7.6 4.15 8.61
8/14/2021 6:15:00 PM 24.01 75.218 0.123 7.58 3.85 8.55
8/14/2021 6:30:00 PM 23.97 75.146 0.123 7.56 6.47 8.45
8/14/2021 6:45:00 PM 23.93 75.074 0.123 7.56 4.42 8.42
8/14/2021 7:00:00 PM 23.87 74.966 0.123 7.53 4.92 8.32
8/14/2021 7:15:00 PM 23.81 74.858 0.123 7.51 4.16 8.26
8/14/2021 7:30:00 PM 23.74 74.732 0.124 7.49 4.15 8.18
8/14/2021 7:45:00 PM 23.67 74.606 0.124 7.47 4.44 8.09
8/14/2021 8:00:00 PM 23.61 74.498 0.124 7.45 4.33 8.04
8/14/2021 8:15:00 PM 23.54 74.372 0.124 7.42 4.48 7.94
8/14/2021 8:30:00 PM 23.48 74.264 0.124 7.41 4.65 7.91
8/14/2021 8:45:00 PM 23.42 74.156 0.124 7.38 4.88 7.85
8/14/2021 9:00:00 PM 23.36 74.048 0.124 7.37 4.58 7.82
8/14/2021 9:15:00 PM 23.32 73.976 0.124 7.35 5.17 7.76
8/14/2021 9:30:00 PM 23.27 73.886 0.124 7.34 5.32 7.7
8/14/2021 9:45:00 PM 23.24 73.832 0.124 7.33 5.33 7.7
8/14/2021 10:00:00 PM 23.22 73.796 0.124 7.32 5.43 7.71
8/14/2021 10:15:00 PM 23.17 73.706 0.124 7.3 5.22 7.63
8/14/2021 10:30:00 PM 23.14 73.652 0.124 7.29 6.91 7.65
8/14/2021 10:45:00 PM 23.1 73.58 0.125 7.28 6.05 7.61
8/14/2021 11:00:00 PM 23.05 73.49 0.125 7.27 5.18 7.55
8/14/2021 11:15:00 PM 23 73.4 0.125 7.27 5.9 7.61
8/14/2021 11:30:00 PM 22.95 73.31 0.125 7.27 5.74 7.62
8/14/2021 11:45:00 PM 22.87 73.166 0.125 7.25 4.91 7.56
8/15/2021 12:00:00 AM 22.79 73.022 0.125 7.25 6.2 7.59
8/15/2021 12:15:00 AM 22.69 72.842 0.125 7.24 5.63 7.57
8/15/2021 12:30:00 AM 22.6 72.68 0.125 7.24 6.29 7.62
8/15/2021 12:45:00 AM 22.49 72.482 0.125 7.22 7.79 7.61
8/15/2021 1:00:00 AM 22.38 72.284 0.125 7.22 7.5 7.64
8/15/2021 1:15:00 AM 22.27 72.086 0.125 7.21 6.04 7.65
8/15/2021 1:30:00 AM 22.15 71.87 0.125 7.21 5.89 7.67
8/15/2021 1:45:00 AM 22.03 71.654 0.125 7.2 6.75 7.7
8/15/2021 2:00:00 AM 21.92 71.456 0.125 7.2 6.3 7.73
8/15/2021 2:15:00 AM 21.81 71.258 0.125 7.2 5.9 7.78
8/15/2021 2:30:00 AM 21.7 71.06 0.125 7.19 6.38 7.76
8/15/2021 2:45:00 AM 21.59 70.862 0.125 7.18 5.67 7.79
8/15/2021 3:00:00 AM 21.49 70.682 0.125 7.18 6.12 7.84
8/15/2021 3:15:00 AM 21.39 70.502 0.125 7.18 5.74 7.86
8/15/2021 3:30:00 AM 21.3 70.34 0.125 7.17 6.76 7.88
8/15/2021 3:45:00 AM 21.2 70.16 0.125 7.17 6.37 7.92
8/15/2021 4:00:00 AM 21.1 69.98 0.125 7.16 5.86 7.91
8/15/2021 4:15:00 AM 21.01 69.818 0.125 7.16 5.88 7.94
8/15/2021 4:30:00 AM 20.93 69.674 0.125 7.16 6.31 7.96
8/15/2021 4:45:00 AM 20.85 69.53 0.125 7.16 5.96 7.96
8/15/2021 5:00:00 AM 20.77 69.386 0.125 7.15 5.74 7.98
8/15/2021 5:15:00 AM 20.68 69.224 0.125 7.16 5.91 8.01
8/15/2021 5:30:00 AM 20.61 69.098 0.125 7.16 6.9 8
8/15/2021 5:45:00 AM 20.55 68.99 0.125 7.16 5.81 8.06
8/15/2021 6:00:00 AM 20.48 68.864 0.125 7.16 5.51 8.03
8/15/2021 6:15:00 AM 20.41 68.738 0.125 7.16 6.01 8.06
8/15/2021 6:30:00 AM 20.34 68.612 0.125 7.17 5.33 8.11
8/15/2021 6:45:00 AM 20.28 68.504 0.125 7.17 5.38 8.13
8/15/2021 7:00:00 AM 20.23 68.414 0.125 7.18 5.05 8.2
8/15/2021 7:15:00 AM 20.17 68.306 0.125 7.19 5.25 8.23
8/15/2021 7:30:00 AM 20.13 68.234 0.125 7.2 5.31 8.33
8/15/2021 7:45:00 AM 20.1 68.18 0.125 7.21 5.88 8.34
8/15/2021 8:00:00 AM 20.06 68.108 0.125 7.21 4.84 8.4
8/15/2021 8:15:00 AM 20.02 68.036 0.125 7.23 5.08 8.48
8/15/2021 8:30:00 AM 20 68 0.125 7.24 4.93 8.54
8/15/2021 8:45:00 AM 19.99 67.982 0.125 7.26 5.03 8.61
8/15/2021 9:00:00 AM 19.98 67.964 0.125 7.28 4.71 8.69
8/15/2021 9:15:00 AM 19.98 67.964 0.125 7.29 4.79 8.79
8/15/2021 9:30:00 AM 19.99 67.982 0.125 7.31 4.63 8.89
8/15/2021 9:45:00 AM 19.98 67.964 0.125 7.33 4.55 8.91
8/15/2021 10:00:00 AM 20.01 68.018 0.125 7.34 4.97 9
8/15/2021 10:15:00 AM 20.07 68.126 0.124 7.38 3.97 9.14
8/15/2021 10:30:00 AM 20.12 68.216 0.124 7.4 4.28 9.2
8/15/2021 10:45:00 AM 20.12 68.216 0.124 7.42 4.1 9.25
8/15/2021 11:00:00 AM 20.14 68.252 0.125 7.44 4.17 9.36
8/15/2021 11:15:00 AM 20.18 68.324 0.124 7.47 4.17 9.42
8/15/2021 11:30:00 AM 20.21 68.378 0.124 7.5 4.05 9.5
8/15/2021 11:45:00 AM 20.25 68.45 0.124 7.52 4.32 9.53
8/15/2021 12:00:00 PM 20.61 69.098 0.124 7.55 4.13 9.57
8/15/2021 12:15:00 PM 20.78 69.404 0.124 7.59 4.01 9.65
8/15/2021 12:30:00 PM 20.79 69.422 0.124 7.62 4.23 9.69
8/15/2021 12:45:00 PM 21.1 69.98 0.124 7.65 4.27 9.79
8/15/2021 1:00:00 PM 21.35 70.43 0.124 7.68 3.96 9.82
8/15/2021 1:15:00 PM 21.22 70.196 0.124 7.71 4.11 9.81
8/15/2021 1:30:00 PM 21.23 70.214 0.124 7.73 4.07 9.84
8/15/2021 1:45:00 PM 21.27 70.286 0.124 7.76 4.06 9.86
8/15/2021 2:00:00 PM 21.32 70.376 0.124 7.78 3.86 9.89
8/15/2021 2:15:00 PM 21.38 70.484 0.124 7.79 3.61 9.87
8/15/2021 2:30:00 PM 21.38 70.484 0.124 7.8 3.82 9.88
8/15/2021 2:45:00 PM 21.46 70.628 0.123 7.81 3.9 9.88
8/15/2021 3:00:00 PM 21.62 70.916 0.123 7.83 3.66 9.88
8/15/2021 3:15:00 PM 21.71 71.078 0.123 7.84 3.74 9.84
8/15/2021 3:30:00 PM 21.86 71.348 0.123 7.85 3.76 9.84
8/15/2021 3:45:00 PM 21.98 71.564 0.123 7.88 3.91 9.82
8/15/2021 4:00:00 PM 22.01 71.618 0.123 7.87 3.87 9.77
8/15/2021 4:15:00 PM 22.12 71.816 0.122 7.86 3.85 9.7
8/15/2021 4:30:00 PM 22.19 71.942 0.122 7.85 3.79 9.64
8/15/2021 4:45:00 PM 22.22 71.996 0.122 7.84 3.88 9.55
8/15/2021 5:00:00 PM 22.28 72.104 0.122 7.83 3.77 9.49
8/15/2021 5:15:00 PM 22.34 72.212 0.122 7.82 3.83 9.41
8/15/2021 5:30:00 PM 22.41 72.338 0.122 7.8 3.99 9.32
8/15/2021 5:45:00 PM 22.48 72.464 0.121 7.8 3.94 9.26
8/15/2021 6:00:00 PM 22.5 72.5 0.122 7.76 4.13 9.15
8/15/2021 6:15:00 PM 22.53 72.554 0.121 7.74 3.8 9.05
8/15/2021 6:30:00 PM 22.55 72.59 0.121 7.71 3.99 8.96
8/15/2021 6:45:00 PM 22.57 72.626 0.121 7.68 4.61 8.84
8/15/2021 7:00:00 PM 22.56 72.608 0.121 7.65 4.35 8.71
8/15/2021 7:15:00 PM 22.54 72.57201 0.121 7.62 4.01 8.61
8/15/2021 7:30:00 PM 22.53 72.554 0.121 7.59 4.43 8.48
8/15/2021 7:45:00 PM 22.51 72.518 0.121 7.55 3.78 8.38
8/15/2021 8:00:00 PM 22.51 72.518 0.122 7.52 4.21 8.3
8/15/2021 8:15:00 PM 22.5 72.5 0.122 7.5 4.35 8.23
8/15/2021 8:30:00 PM 22.48 72.464 0.122 7.47 4.58 8.13
8/15/2021 8:45:00 PM 22.47 72.446 0.122 7.45 4.17 8.08
8/15/2021 9:00:00 PM 22.45 72.41 0.122 7.42 4.58 7.99
8/15/2021 9:15:00 PM 22.43 72.374 0.122 7.41 4.65 7.97
8/15/2021 9:30:00 PM 22.42 72.356 0.122 7.39 5.81 7.88
8/15/2021 9:45:00 PM 22.4 72.32 0.122 7.38 4.62 7.82
8/15/2021 10:00:00 PM 22.38 72.284 0.122 7.37 4.71 7.88
8/15/2021 10:15:00 PM 22.36 72.248 0.122 7.36 5.25 7.82
8/15/2021 10:30:00 PM 22.33 72.194 0.122 7.35 5.21 7.81
8/15/2021 10:45:00 PM 22.32 72.176 0.122 7.33 5.44 7.78
8/15/2021 11:00:00 PM 22.3 72.14 0.122 7.33 5.1 7.8
8/15/2021 11:15:00 PM 22.27 72.086 0.122 7.31 5.04 7.76
8/15/2021 11:30:00 PM 22.24 72.032 0.122 7.31 5.04 7.76
8/15/2021 11:45:00 PM 22.21 71.978 0.122 7.3 5.09 7.74
8/16/2021 12:00:00 AM 22.17 71.906 0.122 7.29 5.01 7.75
8/16/2021 12:15:00 AM 22.13 71.834 0.122 7.29 5.27 7.73
8/16/2021 12:30:00 AM 22.09 71.762 0.122 7.29 5.47 7.74
8/16/2021 12:45:00 AM 22.04 71.672 0.123 7.28 5.13 7.74
8/16/2021 1:00:00 AM 21.98 71.564 0.123 7.27 5.59 7.69
8/16/2021 1:15:00 AM 21.93 71.474 0.123 7.27 5.05 7.72
8/16/2021 1:30:00 AM 21.87 71.366 0.123 7.27 5.14 7.76
8/16/2021 1:45:00 AM 21.8 71.24 0.123 7.27 6.29 7.78
8/16/2021 2:00:00 AM 21.74 71.132 0.123 7.26 6.31 7.74
8/16/2021 2:15:00 AM 21.67 71.006 0.123 7.26 5.78 7.81
8/16/2021 2:30:00 AM 21.59 70.862 0.123 7.26 5.3 7.84
8/16/2021 2:45:00 AM 21.52 70.736 0.123 7.26 5.5 7.83
8/16/2021 3:00:00 AM 21.44 70.592 0.123 7.26 6.09 7.88
8/16/2021 3:15:00 AM 21.37 70.466 0.123 7.26 6.14 7.88
8/16/2021 3:30:00 AM 21.31 70.358 0.123 7.25 4.97 7.9
8/16/2021 3:45:00 AM 21.24 70.232 0.123 7.26 7.63 7.9
8/16/2021 4:00:00 AM 21.19 70.142 0.124 7.25 5.27 7.89
8/16/2021 4:15:00 AM 21.13 70.034 0.123 7.25 5.69 7.93
8/16/2021 4:30:00 AM 21.08 69.944 0.124 7.25 6.13 7.94
8/16/2021 4:45:00 AM 21.03 69.854 0.124 7.25 5.56 7.97
8/16/2021 5:00:00 AM 20.98 69.764 0.124 7.24 5.98 7.97
8/16/2021 5:15:00 AM 20.93 69.674 0.124 7.24 7.81 7.99
8/16/2021 5:30:00 AM 20.89 69.602 0.124 7.23 9.16 7.98
8/16/2021 5:45:00 AM 20.85 69.53 0.124 7.24 5.25 8.01
8/16/2021 6:00:00 AM 20.81 69.458 0.123 7.23 5.1 8.01
8/16/2021 6:15:00 AM 20.77 69.386 0.124 7.23 5.87 8.02
8/16/2021 6:30:00 AM 20.74 69.332 0.124 7.23 4.83 8.03
8/16/2021 6:45:00 AM 20.7 69.26 0.124 7.23 5.12 8.03
8/16/2021 7:00:00 AM 20.67 69.206 0.124 7.23 5.02 8.07
8/16/2021 7:15:00 AM 20.64 69.152 0.124 7.23 5.2 8.09
8/16/2021 7:30:00 AM 20.6 69.08 0.124 7.23 5.51 8.11
8/16/2021 7:45:00 AM 20.58 69.044 0.124 7.23 4.66 8.14
8/16/2021 8:00:00 AM 20.58 69.044 0.124 7.24 4.7 8.23
8/16/2021 8:15:00 AM 20.59 69.062 0.123 7.26 4.45 8.36
8/16/2021 8:30:00 AM 20.58 69.044 0.123 7.27 7.29 8.4
8/16/2021 8:45:00 AM 20.58 69.044 0.123 7.28 8.93 8.48
8/16/2021 9:00:00 AM 20.57 69.026 0.123 7.3 6.38 8.53
8/16/2021 9:15:00 AM 20.59 69.062 0.123 7.31 5.12 8.62
8/16/2021 9:30:00 AM 20.63 69.134 0.123 7.33 4.4 8.72
8/16/2021 9:45:00 AM 20.63 69.134 0.123 7.35 4.17 8.82
8/16/2021 10:00:00 AM 20.63 69.134 0.123 7.36 4.47 8.83
8/16/2021 10:15:00 AM 20.64 69.152 0.123 7.37 4.61 8.86
8/16/2021 10:30:00 AM 20.63 69.134 0.123 7.38 4.12 8.83
8/16/2021 10:45:00 AM 20.67 69.206 0.123 7.4 5.49 8.94
8/16/2021 11:00:00 AM 20.77 69.386 0.123 7.43 4.17 9
8/16/2021 11:15:00 AM 20.85 69.53 0.123 7.46 3.82 9.18
8/16/2021 11:30:00 AM 20.87 69.566 0.123 7.47 3.85 9.21
8/16/2021 11:45:00 AM 20.9 69.62 0.123 7.5 4.07 9.29
8/16/2021 12:00:00 PM 20.89 69.602 0.123 7.51 4.05 9.27
8/16/2021 12:15:00 PM 20.86 69.548 0.123 7.5 3.85 9.2
8/16/2021 12:30:00 PM 20.84 69.512 0.123 7.5 4 9.11
8/16/2021 12:45:00 PM 20.84 69.512 0.123 7.49 3.96 9.08
8/16/2021 1:00:00 PM 20.86 69.548 0.123 7.5 3.59 9.12
8/16/2021 1:15:00 PM 20.85 69.53 0.123 7.49 3.77 9.07
8/16/2021 1:30:00 PM 20.86 69.548 0.123 7.49 3.77 9.08
8/16/2021 1:45:00 PM 20.86 69.548 0.123 7.48 3.59 9
8/16/2021 2:00:00 PM 20.87 69.566 0.123 7.47 3.77 9
8/16/2021 2:15:00 PM 20.9 69.62 0.123 7.47 3.92 9.01
8/16/2021 2:30:00 PM 20.89 69.602 0.122 7.48 3.77 8.97
8/16/2021 2:45:00 PM 20.93 69.674 0.122 7.49 3.73 9
8/16/2021 3:00:00 PM 20.97 69.746 0.122 7.5 3.35 9.07
8/16/2021 3:15:00 PM 21.03 69.854 0.122 7.51 4.15 9.14
8/16/2021 3:30:00 PM 21.11 69.998 0.122 7.54 3.49 9.24
8/16/2021 3:45:00 PM 21.17 70.106 0.122 7.55 3.64 9.28
8/16/2021 4:00:00 PM 21.18 70.124 0.122 7.56 3.68 9.27
8/16/2021 4:15:00 PM 21.17 70.106 0.122 7.55 3.65 9.12
8/16/2021 4:30:00 PM 21.16 70.088 0.122 7.54 3.87 9.04
8/16/2021 4:45:00 PM 21.18 70.124 0.122 7.52 3.74 8.96
8/16/2021 5:00:00 PM 21.18 70.124 0.122 7.51 3.46 8.92
8/16/2021 5:15:00 PM 21.19 70.142 0.122 7.49 3.68 8.84
8/16/2021 5:30:00 PM 21.19 70.142 0.122 7.47 3.59 8.73
8/16/2021 5:45:00 PM 21.21 70.17799 0.122 7.47 3.81 8.71
8/16/2021 6:00:00 PM 21.23 70.214 0.122 7.46 3.68 8.69
8/16/2021 6:15:00 PM 21.25 70.25 0.122 7.45 3.65 8.63
8/16/2021 6:30:00 PM 21.26 70.268 0.122 7.44 3.45 8.59
8/16/2021 6:45:00 PM 21.27 70.286 0.122 7.42 3.64 8.52
8/16/2021 7:00:00 PM 21.28 70.304 0.121 7.42 3.65 8.49
8/16/2021 7:15:00 PM 21.28 70.304 0.121 7.4 3.72 8.44
8/16/2021 7:30:00 PM 21.29 70.32201 0.121 7.39 3.97 8.35
8/16/2021 7:45:00 PM 21.29 70.32201 0.121 7.38 3.72 8.34
8/16/2021 8:00:00 PM 21.28 70.304 0.121 7.37 3.69 8.26
8/16/2021 8:15:00 PM 21.28 70.304 0.121 7.37 3.89 8.28
8/16/2021 8:30:00 PM 21.27 70.286 0.121 7.36 4.44 8.23
8/16/2021 8:45:00 PM 21.26 70.268 0.121 7.35 3.7 8.21
8/16/2021 9:00:00 PM 21.25 70.25 0.121 7.34 4.13 8.18
8/16/2021 9:15:00 PM 21.24 70.232 0.121 7.33 4.34 8.14
8/16/2021 9:30:00 PM 21.22 70.196 0.121 7.32 4.46 8.08
8/16/2021 9:45:00 PM 21.21 70.17799 0.121 7.31 4.61 8.11
8/16/2021 10:00:00 PM 21.2 70.16 0.121 7.3 5.93 8.06
8/16/2021 10:15:00 PM 21.19 70.142 0.121 7.3 4.73 8.08
8/16/2021 10:30:00 PM 21.17 70.106 0.121 7.3 4.1 8.04
8/16/2021 10:45:00 PM 21.16 70.088 0.121 7.29 5.33 8.07
8/16/2021 11:00:00 PM 21.15 70.07 0.121 7.29 4.96 8.05
8/16/2021 11:15:00 PM 21.14 70.052 0.121 7.28 4.85 8.02
8/16/2021 11:30:00 PM 21.13 70.034 0.121 7.29 4.95 8.08
8/16/2021 11:45:00 PM 21.11 69.998 0.121 7.28 4.96 8.05
8/17/2021 12:00:00 AM 21.1 69.98 0.12 7.28 5.42 8.08
8/17/2021 12:15:00 AM 21.07 69.926 0.12 7.27 5.02 8.07
8/17/2021 12:30:00 AM 21.06 69.908 0.12 7.27 6.15 8.07
8/17/2021 12:45:00 AM 21.04 69.872 0.12 7.27 5.7 8.06
8/17/2021 1:00:00 AM 21.02 69.836 0.12 7.26 5.26 8.06
8/17/2021 1:15:00 AM 21 69.8 0.12 7.26 5.05 8.06
8/17/2021 1:30:00 AM 20.98 69.764 0.12 7.26 5.35 8.08
8/17/2021 1:45:00 AM 20.96 69.728 0.121 7.26 5.61 8.09
8/17/2021 2:00:00 AM 20.93 69.674 0.121 7.26 5.54 8.1
8/17/2021 2:15:00 AM 20.91 69.638 0.121 7.26 4.97 8.1
8/17/2021 2:30:00 AM 20.89 69.602 0.121 7.26 5.32 8.12
8/17/2021 2:45:00 AM 20.87 69.566 0.122 7.26 5.21 8.09
8/17/2021 3:00:00 AM 20.85 69.53 0.12 7.26 5.77 8.09
8/17/2021 3:15:00 AM 20.83 69.494 0.12 7.26 5.01 8.13
8/17/2021 3:30:00 AM 20.81 69.458 0.12 7.26 5.44 8.11
8/17/2021 3:45:00 AM 20.79 69.422 0.12 7.25 5.42 8.12
8/17/2021 4:00:00 AM 20.77 69.386 0.123 7.26 5.46 8.13
8/17/2021 4:15:00 AM 20.75 69.35 0.119 7.26 1.57 8.16
8/17/2021 4:30:00 AM 20.73 69.314 0.123 7.26 16.97 8.16
8/17/2021 4:45:00 AM 20.71 69.278 0.123 7.26 5.35 8.14
8/17/2021 5:00:00 AM 20.69 69.242 0.124 7.26 6.4 8.14
8/17/2021 5:15:00 AM 20.68 69.224 0.124 7.27 6.21 8.15
8/17/2021 5:30:00 AM 20.66 69.188 0.124 7.28 6.99 8.15
8/17/2021 5:45:00 AM 20.64 69.152 0.126 7.27 6.99 8.11
8/17/2021 6:00:00 AM 20.63 69.134 0.12 7.27 7.46 8.16
8/17/2021 6:15:00 AM 20.62 69.116 0.127 7.27 7.55 8.16
8/17/2021 6:30:00 AM 20.6 69.08 0.128 7.27 8.08 8.13
8/17/2021 6:45:00 AM 20.59 69.062 0.129 7.27 7.97 8.23
8/17/2021 7:00:00 AM 20.58 69.044 0.129 7.27 7.93 8.23
8/17/2021 7:15:00 AM 20.57 69.026 0.126 7.26 7.9 8.25
8/17/2021 7:30:00 AM 20.57 69.026 0.129 7.27 7.24 8.31
8/17/2021 7:45:00 AM 20.58 69.044 0.093 7.28 9.19 8.34
8/17/2021 8:00:00 AM 20.57 69.026 0.127 7.29 6.64 8.36
8/17/2021 8:15:00 AM 20.58 69.044 0.126 7.28 6 8.42
8/17/2021 8:30:00 AM 20.58 69.044 0.127 7.29 6.33 8.44
8/17/2021 8:45:00 AM 20.58 69.044 0.124 7.29 5.84 8.45
8/17/2021 9:00:00 AM 20.59 69.062 0.124 7.3 6.8 8.49
8/17/2021 9:15:00 AM 20.6 69.08 0.124 7.31 6.59 8.55
8/17/2021 9:30:00 AM 20.62 69.116 0.124 7.32 5.96 8.62
8/17/2021 9:45:00 AM 20.64 69.152 0.123 7.33 6.23 8.65
8/17/2021 10:00:00 AM 20.67 69.206 0.122 7.34 8.48 8.73
8/17/2021 10:15:00 AM 20.7 69.26 0.121 7.36 5.79 8.81
8/17/2021 10:30:00 AM 20.75 69.35 0.121 7.38 6.66 8.87
8/17/2021 10:45:00 AM 20.78 69.404 0.12 7.39 5.82 8.94
8/17/2021 11:00:00 AM 20.83 69.494 0.12 7.41 5.68 8.99
8/17/2021 11:15:00 AM 20.88 69.584 0.12 7.43 5.01 9.04
8/17/2021 11:30:00 AM 20.91 69.638 0.12 7.45 7.11 9.08
8/17/2021 11:45:00 AM 21.05 69.89 0.12 7.47 5.46 9.17
8/17/2021 12:00:00 PM 21.1 69.98 0.12 7.49 5.45 9.2
8/17/2021 12:15:00 PM 21.15 70.07 0.122 7.52 5.33 9.28
8/17/2021 12:30:00 PM 21.21 70.17799 0.12 7.54 5.08 9.29
8/17/2021 12:45:00 PM 21.29 70.32201 0.12 7.55 6.19 9.34
8/17/2021 1:00:00 PM 21.38 70.484 0.121 7.58 5.3 9.35
8/17/2021 1:15:00 PM 21.5 70.7 0.121 7.61 5.31 9.43
8/17/2021 1:30:00 PM 21.59 70.862 0.121 7.63 6.11 9.44
8/17/2021 1:45:00 PM 21.69 71.042 0.122 7.65 6.83 9.44
8/17/2021 2:00:00 PM 21.74 71.132 0.122 7.67 6.39 9.44
8/17/2021 2:15:00 PM 21.79 71.222 0.122 7.67 7.1 9.41
8/17/2021 2:30:00 PM 21.86 71.348 0.122 7.69 6.9 9.39
8/17/2021 2:45:00 PM 21.98 71.564 0.122 7.71 8.78 9.42
8/17/2021 3:00:00 PM 22.07 71.726 0.121 7.73 7.27 9.41
8/17/2021 3:15:00 PM 22.22 71.996 0.121 7.74 6.35 9.44
8/17/2021 3:30:00 PM 22.32 72.176 0.121 7.77 6.76 9.43
8/17/2021 3:45:00 PM 22.44 72.392 0.121 7.79 5.82 9.46
8/17/2021 4:00:00 PM 22.52 72.536 0.122 7.8 6.35 9.41
8/17/2021 4:15:00 PM 22.55 72.59 0.122 7.8 6.18 9.36
8/17/2021 4:30:00 PM 22.65 72.77 0.123 7.81 5.71 9.33
8/17/2021 4:45:00 PM 22.7 72.86 0.123 7.82 6.02 9.29
8/17/2021 5:00:00 PM 22.77 72.986 0.123 7.82 5.33 9.26
8/17/2021 5:15:00 PM 22.79 73.022 0.123 7.82 5.35 9.22
8/17/2021 5:30:00 PM 22.82 73.076 0.123 7.8 5.5 9.16
8/17/2021 5:45:00 PM 22.84 73.112 0.123 7.79 5.83 9.09
8/17/2021 6:00:00 PM 22.85 73.13 0.123 7.77 6.1 9
8/17/2021 6:15:00 PM 22.87 73.166 0.123 7.75 5.51 8.95
8/17/2021 6:30:00 PM 22.88 73.184 0.123 7.71 5.45 8.85
8/17/2021 6:45:00 PM 22.9 73.22 0.123 7.69 4.94 8.73
8/17/2021 7:00:00 PM 22.91 73.238 0.124 7.68 6.44 8.71
8/17/2021 7:15:00 PM 22.92 73.256 0.124 7.65 5.1 8.59
8/17/2021 7:30:00 PM 22.91 73.238 0.124 7.62 5.3 8.5
8/17/2021 7:45:00 PM 22.9 73.22 0.124 7.6 6.18 8.45
8/17/2021 8:00:00 PM 22.89 73.202 0.123 7.57 3.34 8.4
8/17/2021 8:15:00 PM 22.87 73.166 0.059 7.54 13.77 8.31
8/17/2021 8:30:00 PM 22.86 73.148 0.123 7.5 6.04 8.23
8/17/2021 8:45:00 PM 22.84 73.112 0.095 7.48 15.4 8.18
8/17/2021 9:00:00 PM 22.83 73.094 0.123 7.46 5.29 8.15
8/17/2021 9:15:00 PM 22.81 73.058 0.123 7.42 6.36 8.08
8/17/2021 9:30:00 PM 22.78 73.004 0.122 7.41 5.32 8.06
8/17/2021 9:45:00 PM 22.75 72.95 0.122 7.39 5.38 8.01
8/17/2021 10:00:00 PM 22.71 72.878 0.122 7.38 6.15 7.96
8/17/2021 10:15:00 PM 22.68 72.824 0.122 7.37 5.86 7.95
8/17/2021 10:30:00 PM 22.64 72.752 0.121 7.35 5.77 7.96
8/17/2021 10:45:00 PM 22.61 72.698 0.121 7.34 5.64 7.91
8/17/2021 11:00:00 PM 22.57 72.626 0.121 7.33 5.71 7.93
8/17/2021 11:15:00 PM 22.54 72.57201 0.12 7.32 5.95 7.88
8/17/2021 11:30:00 PM 22.49 72.482 0.12 7.31 5.63 7.9
8/17/2021 11:45:00 PM 22.46 72.42799 0.119 7.3 5.98 7.88
8/18/2021 12:00:00 AM 22.42 72.356 0.119 7.29 5.93 7.87
8/18/2021 12:15:00 AM 22.38 72.284 0.119 7.29 5.88 7.88
8/18/2021 12:30:00 AM 22.34 72.212 0.121 7.28 6.13 7.88
8/18/2021 12:45:00 AM 22.3 72.14 0.12 7.28 6.45 7.88
8/18/2021 1:00:00 AM 22.26 72.068 0.119 7.27 6.64 7.89
8/18/2021 1:15:00 AM 22.22 71.996 0.12 7.26 6.56 7.86
8/18/2021 1:30:00 AM 22.18 71.924 0.12 7.25 6.58 7.87
8/18/2021 1:45:00 AM 22.14 71.852 0.12 7.25 6.47 7.87
8/18/2021 2:00:00 AM 22.1 71.78 0.12 7.25 9.49 7.88
8/18/2021 2:15:00 AM 22.07 71.726 0.12 7.24 6.25 7.89
8/18/2021 2:30:00 AM 22.03 71.654 0.121 7.24 6.36 7.88
8/18/2021 2:45:00 AM 22 71.6 0.121 7.24 6.24 7.89
8/18/2021 3:00:00 AM 21.97 71.546 0.121 7.23 6.98 7.9
8/18/2021 3:15:00 AM 21.94 71.492 0.121 7.23 6.6 7.91
8/18/2021 3:30:00 AM 21.91 71.438 0.121 7.23 6.37 7.92
8/18/2021 3:45:00 AM 21.88 71.384 0.122 7.23 5.92 7.93
8/18/2021 4:00:00 AM 21.85 71.33 0.121 7.23 6.69 7.95
8/18/2021 4:15:00 AM 21.83 71.294 0.111 7.24 8 7.97
8/18/2021 4:30:00 AM 21.8 71.24 0.12 7.23 6.73 7.95
8/18/2021 4:45:00 AM 21.78 71.204 0.12 7.22 6.7 7.95
8/18/2021 5:00:00 AM 21.75 71.15 0.119 7.22 6.74 7.96
8/18/2021 5:15:00 AM 21.73 71.114 0.119 7.22 6.66 7.97
8/18/2021 5:30:00 AM 21.71 71.078 0.12 7.22 6.83 7.95
8/18/2021 5:45:00 AM 21.69 71.042 0.121 7.21 6.98 7.97
8/18/2021 6:00:00 AM 21.66 70.988 0.121 7.22 6.18 7.95
8/18/2021 6:15:00 AM 21.64 70.952 0.122 7.22 6.26 7.95
8/18/2021 6:30:00 AM 21.61 70.898 0.122 7.22 6.36 7.97
8/18/2021 6:45:00 AM 21.59 70.862 0.123 7.23 6.24 7.98
8/18/2021 7:00:00 AM 21.56 70.808 0.123 7.24 7.05 7.99
8/18/2021 7:15:00 AM 21.54 70.772 0.123 7.24 6.03 8.02
8/18/2021 7:30:00 AM 21.51 70.718 0.124 7.25 6.13 8.05
8/18/2021 7:45:00 AM 21.5 70.7 0.124 7.24 6.15 8.03
8/18/2021 8:00:00 AM 21.48 70.664 0.126 7.25 6.73 8.06
8/18/2021 8:15:00 AM 21.47 70.646 0.13 7.26 7.27 8.04
8/18/2021 8:30:00 AM 21.46 70.628 0.135 7.27 8.47 8.07
8/18/2021 8:45:00 AM 21.44 70.592 0.142 7.29 12.53 8.13
8/18/2021 9:00:00 AM 21.42 70.556 0.146 7.31 17.6 8.15
8/18/2021 9:15:00 AM 21.44 70.592 0.15 7.28 18.08 8.04
8/18/2021 9:30:00 AM 21.42 70.556 0.151 7.34 22.6 8.26
8/18/2021 9:45:00 AM 21.43 70.574 0.152 7.35 21.44 8.24
8/18/2021 10:00:00 AM 21.42 70.556 0.159 7.36 22.62 8.26
8/18/2021 10:15:00 AM 21.41 70.538 0.175 7.38 19.51 8.33
8/18/2021 10:30:00 AM 21.4 70.52 0.187 7.4 16.73 8.41
8/18/2021 10:45:00 AM 21.41 70.538 0.183 7.41 18.5 8.38
8/18/2021 11:00:00 AM 21.41 70.538 0.178 7.42 17.74 8.4
8/18/2021 11:15:00 AM 21.4 70.52 0.171 7.45 20.11 8.49
8/18/2021 11:30:00 AM 21.4 70.52 0.173 7.44 18.45 8.45
8/18/2021 11:45:00 AM 21.41 70.538 0.174 7.45 19.08 8.51
8/18/2021 12:00:00 PM 21.42 70.556 0.174 7.44 17.43 8.5
8/18/2021 12:15:00 PM 21.43 70.574 0.172 7.45 16.2 8.56
8/18/2021 12:30:00 PM 21.45 70.61 0.17 7.45 16.17 8.57
8/18/2021 12:45:00 PM 21.45 70.61 0.164 7.45 17.32 8.58
8/18/2021 1:00:00 PM 21.45 70.61 0.157 7.47 18.32 8.61
8/18/2021 1:15:00 PM 21.46 70.628 0.154 7.46 19.35 8.56
8/18/2021 1:30:00 PM 21.46 70.628 0.153 7.46 20.63 8.52
8/18/2021 1:45:00 PM 21.47 70.646 0.153 7.45 21.71 8.48
8/18/2021 2:00:00 PM 21.47 70.646 0.156 7.46 26.18 8.48
8/18/2021 2:15:00 PM 21.47 70.646 0.157 7.47 27.81 8.44
8/18/2021 2:30:00 PM 21.48 70.664 0.159 7.47 30.44 8.41
8/18/2021 2:45:00 PM 21.51 70.718 0.161 7.45 34.08 8.46
8/18/2021 3:00:00 PM 21.67 71.006 0.186 7.44 122.05 8.46
8/18/2021 3:15:00 PM 21.89 71.402 0.169 7.32 472.16 8.36
8/18/2021 3:30:00 PM 21.82 71.276 0.18 7.36 202.39 8.38
8/18/2021 3:45:00 PM 21.91 71.438 0.172 7.31 220.5 8.3
8/18/2021 4:00:00 PM 21.91 71.438 0.175 7.29 140.07 8.23
8/18/2021 4:15:00 PM 21.84 71.312 0.194 7.27 125.18 8.09
8/18/2021 4:30:00 PM 21.8 71.24 0.206 7.26 119.87 8.07
8/18/2021 4:45:00 PM 21.77 71.186 0.199 7.27 106.01 8.12
8/18/2021 5:00:00 PM 21.71 71.078 0.176 7.27 91.39 8.14
8/18/2021 5:15:00 PM 21.65 70.97 0.163 7.28 77.66 8.21
8/18/2021 5:30:00 PM 21.62 70.916 0.144 7.27 105.8 8.23
8/18/2021 5:45:00 PM 21.59 70.862 0.149 7.28 84.67 8.28
8/18/2021 6:00:00 PM 21.6 70.88 0.145 7.27 102.17 8.29
8/18/2021 6:15:00 PM 21.77 71.186 0.145 7.23 182.94 8.19
8/18/2021 6:30:00 PM 21.91 71.438 0.136 7.19 264.03 8.21
8/18/2021 6:45:00 PM 21.81 71.258 0.128 7.19 158.67 8.24
8/18/2021 7:00:00 PM 21.66 70.988 0.133 7.18 188.96 8.22
8/18/2021 7:15:00 PM 21.59 70.862 0.136 7.18 271.82 8.2
8/18/2021 7:30:00 PM 21.66 70.988 0.123 7.16 243.53 8.18
8/18/2021 7:45:00 PM 21.52 70.736 0.11 7.11 245.17 8.22
8/18/2021 8:00:00 PM 21.35 70.43 0.104 7.1 319.87 8.25
8/18/2021 8:15:00 PM 21.27 70.286 0.105 7.14 330.23 8.25
8/18/2021 8:30:00 PM 21.2 70.16 0.107 7.15 327.26 8.25
8/18/2021 8:45:00 PM 21.16 70.088 0.106 7.13 349.79 8.25
8/18/2021 9:00:00 PM 21.11 69.998 0.104 7.08 409.16 8.26
8/18/2021 9:15:00 PM 21.06 69.908 0.103 7.06 348.24 8.27
8/18/2021 9:30:00 PM 20.99 69.782 0.102 7.03 316.38 8.3
8/18/2021 9:45:00 PM 20.93 69.674 0.102 7.02 177.39 8.33
8/18/2021 10:00:00 PM 20.91 69.638 0.106 7 478.05 8.33
8/18/2021 10:15:00 PM 20.88 69.584 0.11 7.01 476.03 8.34
8/18/2021 10:30:00 PM 20.86 69.548 0.113 7.01 489.79 8.34
8/18/2021 10:45:00 PM 20.83 69.494 0.115 7.01 143.57 8.35
8/18/2021 11:00:00 PM 20.79 69.422 0.115 7.02 128.77 8.37
8/18/2021 11:15:00 PM 20.74 69.332 0.114 7.01 176.49 8.39
8/18/2021 11:30:00 PM 20.7 69.26 0.113 7.01 124.54 8.41
8/18/2021 11:45:00 PM 20.67 69.206 0.113 7.01 135.95 8.42
8/19/2021 12:00:00 AM 20.64 69.152 0.113 7.01 155.86 8.43
8/19/2021 12:15:00 AM 20.62 69.116 0.112 7.02 136.92 8.43
8/19/2021 12:30:00 AM 20.6 69.08 0.112 7.02 147.79 8.44
8/19/2021 12:45:00 AM 20.58 69.044 0.112 7.03 114.97 8.45
8/19/2021 1:00:00 AM 20.56 69.008 0.111 7.03 213.54 8.46
8/19/2021 1:15:00 AM 20.53 68.954 0.109 7.03 285.09 8.48
8/19/2021 1:30:00 AM 20.51 68.918 0.11 7.04 370.68 8.48
8/19/2021 1:45:00 AM 20.48 68.864 0.108 7.03 110.24 8.5
8/19/2021 2:00:00 AM 20.45 68.81 0.108 7.04 110.38 8.5
8/19/2021 2:15:00 AM 20.41 68.738 0.107 7.05 99.88 8.53
8/19/2021 2:30:00 AM 20.39 68.702 0.107 7.05 91.75 8.53
8/19/2021 2:45:00 AM 20.35 68.63 0.108 7.06 85.98 8.54
8/19/2021 3:00:00 AM 20.32 68.576 0.108 7.06 81.61 8.55
8/19/2021 3:15:00 AM 20.29 68.522 0.108 7.07 74.02 8.57
8/19/2021 3:30:00 AM 20.26 68.468 0.108 7.07 68.32 8.57
8/19/2021 3:45:00 AM 20.23 68.414 0.108 7.08 71.86 8.58
8/19/2021 4:00:00 AM 20.2 68.36 0.109 7.08 78.36 8.59
8/19/2021 4:15:00 AM 20.18 68.324 0.109 7.08 62.1 8.59
8/19/2021 4:30:00 AM 20.15 68.27 0.11 7.09 55.8 8.61
8/19/2021 4:45:00 AM 20.12 68.216 0.111 7.09 51.13 8.63
8/19/2021 5:00:00 AM 20.09 68.162 0.111 7.09 43.76 8.62
8/19/2021 5:15:00 AM 20.07 68.126 0.112 7.09 47.83 8.62
8/19/2021 5:30:00 AM 20.04 68.07201 0.112 7.09 45.23 8.64
8/19/2021 5:45:00 AM 20.01 68.018 0.112 7.1 242.76 8.65
8/19/2021 6:00:00 AM 19.98 67.964 0.113 7.1 298.73 8.63
8/19/2021 6:15:00 AM 19.95 67.91 0.113 7.1 317.65 8.66
8/19/2021 6:30:00 AM 19.92 67.856 0.11 7.1 39.1 8.67
8/19/2021 6:45:00 AM 19.89 67.802 0.114 7.11 39.53 8.69
8/19/2021 7:00:00 AM 19.87 67.766 0.115 7.11 38.02 8.68
8/19/2021 7:15:00 AM 19.85 67.73 0.076 7.11 42.11 8.69
8/19/2021 7:30:00 AM 19.85 67.73 0.075 7.12 42.51 8.71
8/19/2021 7:45:00 AM 19.84 67.712 0.074 7.12 44.93 8.72
8/19/2021 8:00:00 AM 19.84 67.712 0.075 7.13 47.95 8.75
8/19/2021 8:15:00 AM 19.84 67.712 0.075 7.14 50.53 8.75
8/19/2021 8:30:00 AM 19.84 67.712 0.075 7.14 57.19 8.73
8/19/2021 8:45:00 AM 19.84 67.712 0.074 7.14 58.76 8.77
8/19/2021 9:00:00 AM 19.84 67.712 0.107 7.14 12.59 8.79
8/19/2021 9:15:00 AM 19.87 67.766 0.117 7.16 28.05 8.82
8/19/2021 9:30:00 AM 19.91 67.838 0.117 7.16 26.99 8.85
8/19/2021 9:45:00 AM 19.93 67.874 0.118 7.17 26.91 8.86
8/19/2021 10:00:00 AM 19.95 67.91 0.118 7.16 24.83 8.89
8/19/2021 10:15:00 AM 19.97 67.946 0.118 7.17 24.91 8.91
8/19/2021 10:30:00 AM 20 68 0.118 7.18 23.59 8.92
8/19/2021 10:45:00 AM 20.04 68.07201 0.118 7.19 23.54 8.94
8/19/2021 11:00:00 AM 20.07 68.126 0.118 7.2 23.05 8.95
8/19/2021 11:15:00 AM 20.08 68.144 0.118 7.2 23.43 8.96
8/19/2021 11:30:00 AM 20.13 68.234 0.118 7.21 21.56 8.99
8/19/2021 11:45:00 AM 20.17 68.306 0.118 7.21 21.47 8.99
8/19/2021 12:00:00 PM 20.24 68.432 0.118 7.21 21.42 8.97
8/19/2021 12:15:00 PM 20.3 68.54 0.118 7.23 19.58 9.01
8/19/2021 12:30:00 PM 20.36 68.648 0.118 7.26 19.24 9.05
8/19/2021 12:45:00 PM 20.47 68.846 0.118 7.26 20.28 9.09
8/19/2021 1:00:00 PM 20.53 68.954 0.115 7.27 2.1 9.1
8/19/2021 1:15:00 PM 20.63 69.134 0.118 7.29 18.65 9.07
8/19/2021 1:30:00 PM 20.75 69.35 0.118 7.29 17.71 9.12
8/19/2021 1:45:00 PM 20.85 69.53 0.118 7.29 19.02 9.09
8/19/2021 2:00:00 PM 20.9 69.62 0.118 7.3 18.65 9.08
8/19/2021 2:15:00 PM 20.98 69.764 0.118 7.28 17.79 9.07
8/19/2021 2:30:00 PM 21.07 69.926 0.118 7.3 18.19 9.07
8/19/2021 2:45:00 PM 21.19 70.142 0.118 7.32 16.64 9.06
8/19/2021 3:00:00 PM 21.24 70.232 0.118 7.33 16 9.06
8/19/2021 3:15:00 PM 21.26 70.268 0.118 7.33 15.65 9.04
8/19/2021 3:30:00 PM 21.32 70.376 0.119 7.32 15.09 9.03
8/19/2021 3:45:00 PM 21.38 70.484 0.118 7.32 15.21 8.99
8/19/2021 4:00:00 PM 21.45 70.61 0.119 7.31 16.18 8.97
8/19/2021 4:15:00 PM 21.54 70.772 0.118 7.32 16.52 8.96
8/19/2021 4:30:00 PM 21.62 70.916 0.118 7.32 15.11 8.93
8/19/2021 4:45:00 PM 21.68 71.024 0.119 7.32 14.63 8.88
8/19/2021 5:00:00 PM 21.7 71.06 0.119 7.32 54.69 8.85
8/19/2021 5:15:00 PM 21.71 71.078 0.119 7.31 64.01 8.81
8/19/2021 5:30:00 PM 21.73 71.114 0.119 7.3 77.4 8.79
8/19/2021 5:45:00 PM 21.76 71.168 0.119 7.3 81.2 8.78
8/19/2021 6:00:00 PM 21.78 71.204 0.12 7.29 86.94 8.71
8/19/2021 6:15:00 PM 21.76 71.168 0.12 7.28 91.85 8.71
8/19/2021 6:30:00 PM 21.72 71.096 0.121 7.27 97.68 8.66
8/19/2021 6:45:00 PM 21.68 71.024 0.121 7.26 101.46 8.64
8/19/2021 7:00:00 PM 21.64 70.952 0.12 7.26 109.98 8.64
8/19/2021 7:15:00 PM 21.6 70.88 0.121 7.25 111.2 8.62
8/19/2021 7:30:00 PM 21.56 70.808 0.121 7.23 113.99 8.59
8/19/2021 7:45:00 PM 21.52 70.736 0.121 7.22 116.44 8.58
8/19/2021 8:00:00 PM 21.48 70.664 0.121 7.22 121.37 8.55
8/19/2021 8:15:00 PM 21.44 70.592 0.121 7.2 13.93 8.53
8/19/2021 8:30:00 PM 21.38 70.484 0.121 7.19 14.26 8.52
8/19/2021 8:45:00 PM 21.32 70.376 0.121 7.18 14.59 8.51
8/19/2021 9:00:00 PM 21.27 70.286 0.121 7.18 13.62 8.5
8/19/2021 9:15:00 PM 21.21 70.17799 0.122 7.17 13.69 8.49
8/19/2021 9:30:00 PM 21.15 70.07 0.122 7.16 13.39 8.5
8/19/2021 9:45:00 PM 21.11 69.998 0.122 7.15 13.48 8.49
8/19/2021 10:00:00 PM 21.05 69.89 0.122 7.15 14.71 8.5
8/19/2021 10:15:00 PM 21 69.8 0.122 7.15 13.67 8.51
8/19/2021 10:30:00 PM 20.97 69.746 0.122 7.15 14.1 8.51
8/19/2021 10:45:00 PM 20.93 69.674 0.122 7.15 14.24 8.52
8/19/2021 11:00:00 PM 20.9 69.62 0.122 7.14 13.38 8.52
8/19/2021 11:15:00 PM 20.87 69.566 0.123 7.14 13.19 8.51
8/19/2021 11:30:00 PM 20.83 69.494 0.122 7.14 12.76 8.53
8/19/2021 11:45:00 PM 20.8 69.44 0.123 7.13 13.11 8.54
8/20/2021 12:00:00 AM 20.77 69.386 0.123 7.14 14.51 8.55
8/20/2021 12:15:00 AM 20.74 69.332 0.123 7.14 13.48 8.56
8/20/2021 12:30:00 AM 20.7 69.26 0.123 7.13 13.85 8.52
8/20/2021 12:45:00 AM 20.66 69.188 0.124 7.12 15.11 8.58
8/20/2021 1:00:00 AM 20.63 69.134 0.123 7.12 14.42 8.58
8/20/2021 1:15:00 AM 20.59 69.062 0.124 7.12 13.02 8.57
8/20/2021 1:30:00 AM 20.56 69.008 0.123 7.12 15.48 8.59
8/20/2021 1:45:00 AM 20.52 68.936 0.123 7.13 14.22 8.6
8/20/2021 2:00:00 AM 20.49 68.882 0.123 7.12 13.29 8.6
8/20/2021 2:15:00 AM 20.46 68.828 0.124 7.12 12.85 8.6
8/20/2021 2:30:00 AM 20.42 68.756 0.124 7.12 12.04 8.61
8/20/2021 2:45:00 AM 20.39 68.702 0.124 7.12 13.03 8.61
8/20/2021 3:00:00 AM 20.36 68.648 0.124 7.12 12.93 8.58
8/20/2021 3:15:00 AM 20.32 68.576 0.124 7.11 12.58 8.63
8/20/2021 3:30:00 AM 20.29 68.522 0.124 7.12 12.55 8.64
8/20/2021 3:45:00 AM 20.26 68.468 0.124 7.11 12.37 8.65
8/20/2021 4:00:00 AM 20.23 68.414 0.124 7.12 12.54 8.66
8/20/2021 4:15:00 AM 20.2 68.36 0.124 7.12 11.67 8.62
8/20/2021 4:30:00 AM 20.16 68.288 0.124 7.12 11.61 8.66
8/20/2021 4:45:00 AM 20.13 68.234 0.124 7.12 11.24 8.68
8/20/2021 5:00:00 AM 20.1 68.18 0.124 7.12 11.95 8.67
8/20/2021 5:15:00 AM 20.07 68.126 0.125 7.12 13.52 8.7
8/20/2021 5:30:00 AM 20.04 68.07201 0.125 7.12 15.85 8.68
8/20/2021 5:45:00 AM 20.01 68.018 0.124 7.12 12.59 8.7
8/20/2021 6:00:00 AM 19.99 67.982 0.125 7.12 12.5 8.71
8/20/2021 6:15:00 AM 19.96 67.92799 0.125 7.13 11.8 8.68
8/20/2021 6:30:00 AM 19.94 67.892 0.124 7.13 11.47 8.73
8/20/2021 6:45:00 AM 19.92 67.856 0.125 7.12 11.75 8.73
8/20/2021 7:00:00 AM 19.89 67.802 0.124 7.13 11.32 8.73
8/20/2021 7:15:00 AM 19.87 67.766 0.124 7.13 11.3 8.73
8/20/2021 7:30:00 AM 19.84 67.712 0.124 7.14 10.87 8.74
8/20/2021 7:45:00 AM 19.83 67.694 0.124 7.14 10.01 8.78
8/20/2021 8:00:00 AM 19.81 67.658 0.124 7.14 10.68 8.81
8/20/2021 8:15:00 AM 19.8 67.64 0.124 7.15 9.98 8.82
8/20/2021 8:30:00 AM 19.79 67.622 0.124 7.16 12.71 8.84
8/20/2021 8:45:00 AM 19.79 67.622 0.124 7.16 9.48 8.9
8/20/2021 9:00:00 AM 19.79 67.622 0.124 7.17 10.06 8.92
8/20/2021 9:15:00 AM 19.8 67.64 0.124 7.18 9 8.97
8/20/2021 9:30:00 AM 19.82 67.676 0.124 7.2 8.77 9.04
8/20/2021 9:45:00 AM 19.84 67.712 0.124 7.21 8.66 9.07
8/20/2021 10:00:00 AM 19.87 67.766 0.123 7.23 8.67 9.13
8/20/2021 10:15:00 AM 19.91 67.838 0.123 7.24 8.78 9.15
8/20/2021 10:30:00 AM 19.94 67.892 0.123 7.25 8.17 9.21
8/20/2021 10:45:00 AM 19.97 67.946 0.123 7.26 8.31 9.22
8/20/2021 11:00:00 AM 20.01 68.018 0.123 7.29 8.69 9.25
8/20/2021 11:15:00 AM 20.06 68.108 0.123 7.28 7.94 9.29
8/20/2021 11:30:00 AM 20.1 68.18 0.123 7.3 8.31 9.26
8/20/2021 11:45:00 AM 20.14 68.252 0.123 7.3 7.81 9.27
8/20/2021 12:00:00 PM 20.17 68.306 0.123 7.31 7.75 9.27
8/20/2021 12:15:00 PM 20.22 68.396 0.123 7.31 9.47 9.25
8/20/2021 12:30:00 PM 20.28 68.504 0.122 7.32 7.21 9.3
8/20/2021 12:45:00 PM 20.41 68.738 0.129 7.35 7.54 9.36
8/20/2021 1:00:00 PM 20.48 68.864 0.131 7.37 7.45 9.36
8/20/2021 1:15:00 PM 20.62 69.116 0.125 7.37 7.04 9.41
8/20/2021 1:30:00 PM 20.72 69.296 0.121 7.4 7.76 9.38
8/20/2021 1:45:00 PM 20.83 69.494 0.121 7.39 8.58 9.4
8/20/2021 2:00:00 PM 21.02 69.836 0.121 7.42 10.01 9.42
8/20/2021 2:15:00 PM 21.17 70.106 0.121 7.43 8.94 9.41
8/20/2021 2:30:00 PM 21.3 70.34 0.121 7.44 8.16 9.37
8/20/2021 2:45:00 PM 21.39 70.502 0.12 7.45 7.95 9.36
8/20/2021 3:00:00 PM 21.51 70.718 0.12 7.45 7.09 9.33
8/20/2021 3:15:00 PM 21.61 70.898 0.12 7.45 6.97 9.26
8/20/2021 3:30:00 PM 21.7 71.06 0.121 7.46 7.9 9.2
8/20/2021 3:45:00 PM 21.78 71.204 0.12 7.44 7.49 9.17
8/20/2021 4:00:00 PM 21.81 71.258 0.12 7.44 6.88 9.15
8/20/2021 4:15:00 PM 21.85 71.33 0.12 7.44 7.04 9.12
8/20/2021 4:30:00 PM 21.88 71.384 0.12 7.43 6.86 9.08
8/20/2021 4:45:00 PM 21.85 71.33 0.12 7.41 7.17 9
8/20/2021 5:00:00 PM 21.82 71.276 0.121 7.39 7.24 8.96
8/20/2021 5:15:00 PM 21.79 71.222 0.121 7.38 7.36 8.91
8/20/2021 5:30:00 PM 21.8 71.24 0.121 7.36 7.02 8.87
8/20/2021 5:45:00 PM 21.82 71.276 0.122 7.35 7.16 8.8
8/20/2021 6:00:00 PM 21.81 71.258 0.122 7.35 7.57 8.76
8/20/2021 6:15:00 PM 21.78 71.204 0.123 7.34 7.42 8.72
8/20/2021 6:30:00 PM 21.74 71.132 0.123 7.33 7.21 8.69
8/20/2021 6:45:00 PM 21.68 71.024 0.123 7.32 7.6 8.67
8/20/2021 7:00:00 PM 21.6 70.88 0.124 7.31 8.66 8.65
8/20/2021 7:15:00 PM 21.52 70.736 0.123 7.31 9.26 8.63
8/20/2021 7:30:00 PM 21.47 70.646 0.128 7.33 10.56 8.54
8/20/2021 7:45:00 PM 21.43 70.574 0.133 7.34 12.45 8.62
8/20/2021 8:00:00 PM 21.38 70.484 0.132 7.33 12.85 8.59
8/20/2021 8:15:00 PM 21.33 70.394 0.128 7.31 14.99 8.53
8/20/2021 8:30:00 PM 21.27 70.286 0.125 7.28 15.95 8.52
8/20/2021 8:45:00 PM 21.22 70.196 0.124 7.25 17.68 8.5
8/20/2021 9:00:00 PM 21.17 70.106 0.122 7.24 18.29 8.48
8/20/2021 9:15:00 PM 21.11 69.998 0.124 7.22 21.71 8.48
8/20/2021 9:30:00 PM 21.06 69.908 0.123 7.21 24.36 8.47
8/20/2021 9:45:00 PM 21 69.8 0.123 7.21 26.53 8.44
8/20/2021 10:00:00 PM 20.95 69.71 0.124 7.21 27.38 8.43
8/20/2021 10:15:00 PM 20.9 69.62 0.126 7.22 27.19 8.48
8/20/2021 10:30:00 PM 20.85 69.53 0.127 7.22 35.13 8.44
8/20/2021 10:45:00 PM 20.8 69.44 0.127 7.21 40.14 8.43
8/20/2021 11:00:00 PM 20.74 69.332 0.127 7.21 43.63 8.48
8/20/2021 11:15:00 PM 20.7 69.26 0.125 7.21 36.33 8.47
8/20/2021 11:30:00 PM 20.65 69.17 0.125 7.19 33.62 8.51
8/20/2021 11:45:00 PM 20.62 69.116 0.124 7.2 28.1 8.52
8/21/2021 12:00:00 AM 20.58 69.044 0.124 7.19 25.82 8.52
8/21/2021 12:15:00 AM 20.55 68.99 0.123 7.19 23.75 8.52
8/21/2021 12:30:00 AM 20.51 68.918 0.124 7.18 17.71 8.56
8/21/2021 12:45:00 AM 20.48 68.864 0.124 7.19 16.28 8.58
8/21/2021 1:00:00 AM 20.45 68.81 0.124 7.2 16.55 8.58
8/21/2021 1:15:00 AM 20.41 68.738 0.125 7.19 17.14 8.54
8/21/2021 1:30:00 AM 20.38 68.684 0.126 7.2 17.32 8.58
8/21/2021 1:45:00 AM 20.35 68.63 0.127 7.21 18.97 8.61
8/21/2021 2:00:00 AM 20.32 68.576 0.127 7.2 24.19 8.59
8/21/2021 2:15:00 AM 20.28 68.504 0.127 7.21 18.11 8.58
8/21/2021 2:30:00 AM 20.24 68.432 0.126 7.21 18.76 8.64
8/21/2021 2:45:00 AM 20.2 68.36 0.125 7.23 17.51 8.66
8/21/2021 3:00:00 AM 20.16 68.288 0.124 7.22 15.4 8.69
8/21/2021 3:15:00 AM 20.13 68.234 0.123 7.22 16.28 8.69
8/21/2021 3:30:00 AM 20.08 68.144 0.123 7.22 14.3 8.72
8/21/2021 3:45:00 AM 20.05 68.09 0.123 7.22 14.3 8.7
8/21/2021 4:00:00 AM 20.01 68.018 0.122 7.22 13.13 8.72
8/21/2021 4:15:00 AM 19.97 67.946 0.122 7.22 12.13 8.74
8/21/2021 4:30:00 AM 19.94 67.892 0.122 7.21 12.13 8.75
8/21/2021 4:45:00 AM 19.9 67.82 0.121 7.21 10.95 8.73
8/21/2021 5:00:00 AM 19.87 67.766 0.121 7.2 10.75 8.72
8/21/2021 5:15:00 AM 19.83 67.694 0.121 7.2 12.81 8.76
8/21/2021 5:30:00 AM 19.8 67.64 0.119 7.2 10.62 8.77
8/21/2021 5:45:00 AM 19.77 67.586 0.082 7.19 10.28 8.77
8/21/2021 6:00:00 AM 19.74 67.532 0.107 7.18 10.73 8.76
8/21/2021 6:15:00 AM 19.71 67.478 0.117 7.19 10.12 8.76
8/21/2021 6:30:00 AM 19.68 67.424 0.118 7.19 9.05 8.76
8/21/2021 6:45:00 AM 19.65 67.37 0.119 7.18 9.68 8.78
8/21/2021 7:00:00 AM 19.63 67.334 0.12 7.18 9.27 8.8
8/21/2021 7:15:00 AM 19.6 67.28 0.121 7.17 9.83 8.81
8/21/2021 7:30:00 AM 19.57 67.226 0.121 7.19 9.71 8.81
8/21/2021 7:45:00 AM 19.55 67.19 0.121 7.19 9.55 8.84
8/21/2021 8:00:00 AM 19.53 67.154 0.123 7.19 9.05 8.86
8/21/2021 8:15:00 AM 19.51 67.118 0.124 7.2 8.47 8.9
8/21/2021 8:30:00 AM 19.5 67.1 0.125 7.21 8.83 8.91
8/21/2021 8:45:00 AM 19.5 67.1 0.127 7.22 8.58 8.94
8/21/2021 9:00:00 AM 19.5 67.1 0.128 7.24 8.12 9.03
8/21/2021 9:15:00 AM 19.51 67.118 0.129 7.25 8.66 9.03
8/21/2021 9:30:00 AM 19.55 67.19 0.129 7.26 7.3 9.1
8/21/2021 9:45:00 AM 19.62 67.316 0.129 7.3 8.33 9.17
8/21/2021 10:00:00 AM 19.67 67.406 0.13 7.3 7.43 9.22
8/21/2021 10:15:00 AM 19.73 67.514 0.129 7.32 7.53 9.27
8/21/2021 10:30:00 AM 19.81 67.658 0.129 7.33 7.47 9.3
8/21/2021 10:45:00 AM 19.91 67.838 0.129 7.35 6.76 9.3
8/21/2021 11:00:00 AM 20.03 68.054 0.129 7.36 6.99 9.33
8/21/2021 11:15:00 AM 20.13 68.234 0.128 7.38 6.86 9.36
8/21/2021 11:30:00 AM 20.26 68.468 0.128 7.39 7.53 9.34
8/21/2021 11:45:00 AM 20.39 68.702 0.127 7.41 6.89 9.4
8/21/2021 12:00:00 PM 20.56 69.008 0.126 7.43 6.79 9.4
8/21/2021 12:15:00 PM 20.75 69.35 0.126 7.44 6.99 9.33
8/21/2021 12:30:00 PM 20.97 69.746 0.126 7.44 6.22 9.39
8/21/2021 12:45:00 PM 21.15 70.07 0.125 7.45 6.32 9.4
8/21/2021 1:00:00 PM 21.33 70.394 0.124 7.47 5.96 9.39
8/21/2021 1:15:00 PM 21.42 70.556 0.124 7.47 6.94 9.33
8/21/2021 1:30:00 PM 21.59 70.862 0.124 7.48 6.62 9.32
8/21/2021 1:45:00 PM 21.82 71.276 0.124 7.48 6.68 9.33
8/21/2021 2:00:00 PM 22.01 71.618 0.123 7.51 6.86 9.34
8/21/2021 2:15:00 PM 22.16 71.888 0.123 7.52 6.14 9.27
8/21/2021 2:30:00 PM 22.29 72.122 0.123 7.52 6.36 9.28
8/21/2021 2:45:00 PM 22.39 72.302 0.122 7.54 5.32 9.26
8/21/2021 3:00:00 PM 22.47 72.446 0.122 7.53 6.24 9.23
8/21/2021 3:15:00 PM 22.52 72.536 0.122 7.52 6.19 9.13
8/21/2021 3:30:00 PM 22.53 72.554 0.122 7.52 6.69 9.16
8/21/2021 3:45:00 PM 22.49 72.482 0.122 7.52 5.98 9.12
8/21/2021 4:00:00 PM 22.43 72.374 0.121 7.51 6.35 9.03
8/21/2021 4:15:00 PM 22.33 72.194 0.122 7.48 6.5 9.04
8/21/2021 4:30:00 PM 22.28 72.104 0.122 7.46 6.41 9.02
8/21/2021 4:45:00 PM 22.3 72.14 0.121 7.46 6.26 8.98
8/21/2021 5:00:00 PM 22.3 72.14 0.121 7.45 7.1 8.98
8/21/2021 5:15:00 PM 22.27 72.086 0.121 7.43 7.07 8.91
8/21/2021 5:30:00 PM 22.25 72.05 0.12 7.43 6.99 8.88
8/21/2021 5:45:00 PM 22.24 72.032 0.12 7.41 6.93 8.86
8/21/2021 6:00:00 PM 22.22 71.996 0.12 7.39 7.24 8.8
8/21/2021 6:15:00 PM 22.22 71.996 0.12 7.37 7.6 8.77
8/21/2021 6:30:00 PM 22.23 72.014 0.12 7.36 8.08 8.7
8/21/2021 6:45:00 PM 22.26 72.068 0.12 7.33 7.42 8.67
8/21/2021 7:00:00 PM 22.29 72.122 0.12 7.33 7.89 8.62
8/21/2021 7:15:00 PM 22.29 72.122 0.109 7.31 7.94 8.52
8/21/2021 7:30:00 PM 22.26 72.068 0.109 7.31 7.65 8.52
8/21/2021 7:45:00 PM 22.2 71.96 0.119 7.28 7.8 8.43
8/21/2021 8:00:00 PM 22.13 71.834 0.12 7.27 7.51 8.38
8/21/2021 8:15:00 PM 22.04 71.672 0.121 7.28 7.53 8.35
8/21/2021 8:30:00 PM 21.96 71.528 0.121 7.26 7.56 8.35
8/21/2021 8:45:00 PM 21.89 71.402 0.121 7.23 9.01 8.3
8/21/2021 9:00:00 PM 21.82 71.276 0.121 7.22 8.61 8.32
8/21/2021 9:15:00 PM 21.77 71.186 0.121 7.21 9.25 8.36
8/21/2021 9:30:00 PM 21.73 71.114 0.121 7.2 8.25 8.3
8/21/2021 9:45:00 PM 21.69 71.042 0.121 7.19 9 8.33
8/21/2021 10:00:00 PM 21.66 70.988 0.121 7.17 8.75 8.31
8/21/2021 10:15:00 PM 21.64 70.952 0.121 7.18 9.11 8.31
8/21/2021 10:30:00 PM 21.6 70.88 0.121 7.17 9.87 8.28
8/21/2021 10:45:00 PM 21.57 70.826 0.12 7.18 9.33 8.31
8/21/2021 11:00:00 PM 21.53 70.754 0.12 7.17 8.74 8.26
8/21/2021 11:15:00 PM 21.49 70.682 0.12 7.16 7.98 8.21
8/21/2021 11:30:00 PM 21.44 70.592 0.12 7.16 31.59 8.32
8/21/2021 11:45:00 PM 21.39 70.502 0.12 7.17 27.12 8.34
8/22/2021 12:00:00 AM 21.34 70.412 0.12 7.16 8.84 8.33
8/22/2021 12:15:00 AM 21.28 70.304 0.12 7.15 8.39 8.34
8/22/2021 12:30:00 AM 21.24 70.232 0.119 7.15 8.37 8.32
8/22/2021 12:45:00 AM 21.18 70.124 0.119 7.15 7.71 8.36
8/22/2021 1:00:00 AM 21.13 70.034 0.119 7.15 7.9 8.36
8/22/2021 1:15:00 AM 21.08 69.944 0.12 7.15 7.43 8.37
8/22/2021 1:30:00 AM 21.04 69.872 0.12 7.15 7.75 8.34
8/22/2021 1:45:00 AM 20.99 69.782 0.12 7.13 9.06 8.33
8/22/2021 2:00:00 AM 20.94 69.692 0.119 7.13 7.41 8.3
8/22/2021 2:15:00 AM 20.89 69.602 0.12 7.12 7.87 8.38
8/22/2021 2:30:00 AM 20.84 69.512 0.119 7.14 7.76 8.43
8/22/2021 2:45:00 AM 20.8 69.44 0.119 7.13 8.08 8.36
8/22/2021 3:00:00 AM 20.75 69.35 0.119 7.13 8.13 8.42
8/22/2021 3:15:00 AM 20.7 69.26 0.119 7.14 8.04 8.45
8/22/2021 3:30:00 AM 20.64 69.152 0.119 7.16 8.89 8.43
8/22/2021 3:45:00 AM 20.59 69.062 0.118 7.18 9.3 8.54
8/22/2021 4:00:00 AM 20.53 68.954 0.118 7.19 11.1 8.6
8/22/2021 4:30:00 AM 20.44 68.792 0.117 7.2 9.74 8.57
8/22/2021 4:45:00 AM 20.39 68.702 0.117 7.2 10.09 8.61
8/22/2021 5:00:00 AM 20.35 68.63 0.117 7.21 9.76 8.65
8/22/2021 5:15:00 AM 20.31 68.558 0.117 7.19 9.45 8.65
8/22/2021 5:30:00 AM 20.27 68.486 0.117 7.19 10.49 8.64
8/22/2021 5:45:00 AM 20.23 68.414 0.117 7.19 8.71 8.66
8/22/2021 6:00:00 AM 20.2 68.36 0.117 7.19 8.82 8.66
8/22/2021 6:15:00 AM 20.17 68.306 0.117 7.18 8.27 8.63
8/22/2021 6:30:00 AM 20.14 68.252 0.117 7.18 8.6 8.68
8/22/2021 6:45:00 AM 20.11 68.198 0.117 7.18 8.35 8.66
8/22/2021 7:00:00 AM 20.08 68.144 0.117 7.18 8.06 8.67
8/22/2021 7:15:00 AM 20.06 68.108 0.117 7.18 8.18 8.69
8/22/2021 7:30:00 AM 20.05 68.09 0.117 7.18 7.33 8.72
8/22/2021 7:45:00 AM 20.03 68.054 0.117 7.18 7.6 8.68
8/22/2021 8:00:00 AM 20.01 68.018 0.117 7.18 7.49 8.68
8/22/2021 8:15:00 AM 19.99 67.982 0.117 7.19 7.04 8.77
8/22/2021 8:30:00 AM 19.98 67.964 0.117 7.18 6.97 8.79
8/22/2021 8:45:00 AM 19.96 67.92799 0.117 7.21 6.43 8.82
8/22/2021 9:00:00 AM 19.96 67.92799 0.118 7.21 6.71 8.84
8/22/2021 9:15:00 AM 19.95 67.91 0.118 7.21 7.37 8.91
8/22/2021 9:30:00 AM 19.96 67.92799 0.119 7.23 5.91 8.94
8/22/2021 9:45:00 AM 19.96 67.92799 0.121 7.21 8.97 8.95
8/22/2021 10:00:00 AM 19.97 67.946 0.122 7.25 6.85 9
8/22/2021 10:15:00 AM 19.99 67.982 0.124 7.25 5.92 9.05
8/22/2021 10:30:00 AM 20.04 68.07201 0.126 7.27 7.07 9.1
8/22/2021 10:45:00 AM 20.08 68.144 0.128 7.31 6.49 9.19
8/22/2021 11:00:00 AM 20.14 68.252 0.129 7.33 7.94 9.14
8/22/2021 11:15:00 AM 20.21 68.378 0.13 7.34 9.93 9.24
8/22/2021 11:30:00 AM 20.29 68.522 0.13 7.36 11.31 9.25
8/22/2021 11:45:00 AM 20.38 68.684 0.13 7.38 16.37 9.34
8/22/2021 12:00:00 PM 20.5 68.9 0.129 7.4 19.41 9.32
8/22/2021 12:15:00 PM 20.62 69.116 0.127 7.42 25 9.34
8/22/2021 12:30:00 PM 20.69 69.242 0.126 7.41 34.08 9.28
8/22/2021 12:45:00 PM 20.79 69.422 0.123 7.42 38.89 9.28
8/22/2021 1:00:00 PM 20.88 69.584 0.121 7.42 48.05 9.27
8/22/2021 1:15:00 PM 20.96 69.728 0.119 7.42 45.78 9.21
8/22/2021 1:30:00 PM 21.04 69.872 0.118 7.4 45.69 9.2
8/22/2021 1:45:00 PM 21.15 70.07 0.117 7.4 46.36 9.17
8/22/2021 2:00:00 PM 21.23 70.214 0.116 7.39 45.29 8.88
8/22/2021 2:15:00 PM 21.31 70.358 0.115 7.39 37.94 9.16
8/22/2021 2:30:00 PM 21.4 70.52 0.114 7.41 38.55 9.16
8/22/2021 2:45:00 PM 21.47 70.646 0.113 7.4 34.31 9.1
8/22/2021 3:00:00 PM 21.53 70.754 0.114 7.39 30.37 9.09
8/22/2021 3:15:00 PM 21.57 70.826 0.113 7.41 29.63 9.11
8/22/2021 3:30:00 PM 21.57 70.826 0.113 7.4 26.71 9.06
8/22/2021 3:45:00 PM 21.55 70.79 0.113 7.39 24.89 8.99
8/22/2021 4:00:00 PM 21.49 70.682 0.112 7.37 22.85 8.9
8/22/2021 4:15:00 PM 21.47 70.646 0.111 7.36 23.91 8.88
8/22/2021 4:30:00 PM 21.44 70.592 0.112 7.34 22.86 8.85
8/22/2021 4:45:00 PM 21.42 70.556 0.112 7.34 20.34 8.79
8/22/2021 5:00:00 PM 21.4 70.52 0.112 7.33 18.33 8.79
8/22/2021 5:15:00 PM 21.39 70.502 0.113 7.32 18.91 8.73
8/22/2021 5:30:00 PM 21.4 70.52 0.113 7.32 17.39 8.72
8/22/2021 5:45:00 PM 21.4 70.52 0.114 7.33 14.52 8.74
8/22/2021 6:00:00 PM 21.4 70.52 0.115 7.33 15 8.64
8/22/2021 6:15:00 PM 21.38 70.484 0.115 7.32 17.31 8.67
8/22/2021 6:30:00 PM 21.35 70.43 0.115 7.31 20.6 8.66
8/22/2021 6:45:00 PM 21.32 70.376 0.116 7.29 19.95 8.6
8/22/2021 7:00:00 PM 21.29 70.32201 0.116 7.29 18.33 8.63
8/22/2021 7:15:00 PM 21.24 70.232 0.116 7.29 17.3 8.64
8/22/2021 7:30:00 PM 21.2 70.16 0.122 7.28 15.35 8.64
8/22/2021 7:45:00 PM 21.16 70.088 0.129 7.26 14.09 8.61
8/22/2021 8:00:00 PM 21.12 70.016 0.118 7.25 13.82 8.56
8/22/2021 8:15:00 PM 21.09 69.962 0.118 7.25 13.47 8.54
8/22/2021 8:30:00 PM 21.06 69.908 0.118 7.23 13.02 8.48
8/22/2021 8:45:00 PM 21.03 69.854 0.118 7.23 12.42 8.5
8/22/2021 9:00:00 PM 21 69.8 0.119 7.22 11.17 8.49
8/22/2021 9:15:00 PM 20.97 69.746 0.12 7.21 12.48 8.48
8/22/2021 9:30:00 PM 20.94 69.692 0.122 7.21 11.22 8.45
8/22/2021 9:45:00 PM 20.9 69.62 0.123 7.2 10.66 8.49
8/22/2021 10:00:00 PM 20.87 69.566 0.124 7.19 10.71 8.48
8/22/2021 10:15:00 PM 20.84 69.512 0.125 7.19 10.34 8.46
8/22/2021 10:30:00 PM 20.8 69.44 0.125 7.18 10.18 8.47
8/22/2021 10:45:00 PM 20.77 69.386 0.126 7.18 9.46 8.41
8/22/2021 11:00:00 PM 20.74 69.332 0.127 7.17 9.82 8.48
8/22/2021 11:15:00 PM 20.71 69.278 0.127 7.17 9.46 8.43
8/22/2021 11:30:00 PM 20.68 69.224 0.127 7.17 9.23 8.44
8/22/2021 11:45:00 PM 20.65 69.17 0.125 7.17 9.16 8.42
8/23/2021 12:00:00 AM 20.62 69.116 0.125 7.16 8.95 8.44
8/23/2021 12:15:00 AM 20.59 69.062 0.123 7.16 8.57 8.4
8/23/2021 12:30:00 AM 20.56 69.008 0.123 7.17 9.12 8.5
8/23/2021 12:45:00 AM 20.53 68.954 0.123 7.16 8.19 8.49
8/23/2021 1:00:00 AM 20.5 68.9 0.123 7.16 8.48 8.49
8/23/2021 1:15:00 AM 20.47 68.846 0.123 7.16 8.63 8.47
8/23/2021 1:30:00 AM 20.44 68.792 0.123 7.16 7.71 8.46
8/23/2021 1:45:00 AM 20.41 68.738 0.123 7.16 8.1 8.45
8/23/2021 2:00:00 AM 20.39 68.702 0.123 7.16 8.21 8.46
8/23/2021 2:15:00 AM 20.36 68.648 0.123 7.16 7.33 8.46
8/23/2021 2:30:00 AM 20.34 68.612 0.123 7.15 7.39 8.49
8/23/2021 2:45:00 AM 20.31 68.558 0.123 7.16 8.42 8.47
8/23/2021 3:00:00 AM 20.28 68.504 0.123 7.16 7.5 8.52
8/23/2021 3:15:00 AM 20.24 68.432 0.124 7.15 7.66 8.56
8/23/2021 3:30:00 AM 20.22 68.396 0.123 7.15 7.81 8.52
8/23/2021 3:45:00 AM 20.2 68.36 0.124 7.15 9 8.54
8/23/2021 4:00:00 AM 20.17 68.306 0.124 7.16 7.3 8.57
8/23/2021 4:15:00 AM 20.15 68.27 0.124 7.16 7.86 8.58
8/23/2021 4:30:00 AM 20.12 68.216 0.123 7.17 10.27 8.56
8/23/2021 4:45:00 AM 20.1 68.18 0.123 7.17 7.49 8.55
8/23/2021 5:00:00 AM 20.08 68.144 0.123 7.17 6.95 8.58
8/23/2021 5:15:00 AM 20.06 68.108 0.124 7.17 6.92 8.51
8/23/2021 5:30:00 AM 20.04 68.07201 0.124 7.17 7.74 8.61
8/23/2021 5:45:00 AM 20.01 68.018 0.123 7.17 6.92 8.55
8/23/2021 6:00:00 AM 19.99 67.982 0.124 7.17 6.94 8.58
8/23/2021 6:15:00 AM 19.96 67.92799 0.123 7.17 7.46 8.61
8/23/2021 6:30:00 AM 19.94 67.892 0.123 7.18 7.34 8.61
8/23/2021 6:45:00 AM 19.92 67.856 0.123 7.18 7.05 8.65
8/23/2021 7:00:00 AM 19.9 67.82 0.123 7.18 7.25 8.67
8/23/2021 7:15:00 AM 19.88 67.784 0.123 7.18 6.63 8.67
8/23/2021 7:30:00 AM 19.86 67.748 0.123 7.19 6.75 8.7
8/23/2021 7:45:00 AM 19.85 67.73 0.123 7.19 6.72 8.73
8/23/2021 8:00:00 AM 19.84 67.712 0.123 7.2 6.81 8.75
8/23/2021 8:15:00 AM 19.83 67.694 0.123 7.2 6.2 8.72
8/23/2021 8:30:00 AM 19.84 67.712 0.123 7.2 6.27 8.76
8/23/2021 8:45:00 AM 19.83 67.694 0.123 7.23 6.44 8.88
8/23/2021 9:00:00 AM 19.84 67.712 0.123 7.23 6.27 8.88
8/23/2021 9:15:00 AM 19.87 67.766 0.123 7.24 5.96 8.91
8/23/2021 9:30:00 AM 19.88 67.784 0.123 7.24 5.98 8.94
8/23/2021 9:45:00 AM 19.88 67.784 0.122 7.26 6.33 8.97
8/23/2021 10:00:00 AM 19.96 67.92799 0.122 7.27 5.65 8.97
8/23/2021 10:15:00 AM 20.05 68.09 0.122 7.3 8.3 9.14
8/23/2021 10:30:00 AM 20.1 68.18 0.122 7.32 5.69 9.18
8/23/2021 10:45:00 AM 20.19 68.342 0.121 7.34 9.84 8.86
8/23/2021 11:00:00 AM 20.32 68.576 0.121 7.36 8.43 9.26
8/23/2021 11:15:00 AM 20.46 68.828 0.121 7.39 8.13 9.31
8/23/2021 11:30:00 AM 20.57 69.026 0.121 7.38 14.63 9.3
8/23/2021 11:45:00 AM 20.66 69.188 0.121 7.41 5.81 9.31
8/23/2021 12:00:00 PM 20.8 69.44 0.12 7.43 5.71 9.36
8/23/2021 12:15:00 PM 20.88 69.584 0.12 7.43 11.37 9.25
8/23/2021 12:30:00 PM 20.97 69.746 0.12 7.42 5.32 9.26
8/23/2021 12:45:00 PM 21.18 70.124 0.12 7.48 5.22 9.35
8/23/2021 1:00:00 PM 21.45 70.61 0.12 7.5 4.85 9.34
8/23/2021 1:15:00 PM 21.62 70.916 0.12 7.51 4.92 9.36
8/23/2021 1:30:00 PM 21.83 71.294 0.12 7.53 4.91 9.33
8/23/2021 1:45:00 PM 22.03 71.654 0.12 7.53 5.11 9.37
8/23/2021 2:00:00 PM 22.24 72.032 0.12 7.57 4.71 9.36
8/23/2021 2:15:00 PM 22.4 72.32 0.12 7.58 4.86 9.35
8/23/2021 2:30:00 PM 22.59 72.662 0.119 7.59 5.1 9.34
8/23/2021 2:45:00 PM 22.74 72.932 0.119 7.59 5.14 9.3
8/23/2021 3:00:00 PM 22.83 73.094 0.119 7.59 4.57 9.25
8/23/2021 3:15:00 PM 22.96 73.328 0.119 7.59 5.21 9.23
8/23/2021 3:30:00 PM 23.1 73.58 0.119 7.59 5.44 9.19
8/23/2021 3:45:00 PM 23.21 73.778 0.118 7.6 4.48 9.15
8/23/2021 4:00:00 PM 23.3 73.94 0.118 7.59 5.31 9.1
8/23/2021 4:15:00 PM 23.37 74.066 0.118 7.59 4.78 9.05
8/23/2021 4:30:00 PM 23.39 74.102 0.118 7.56 5.18 8.94
8/23/2021 4:45:00 PM 23.42 74.156 0.118 7.56 4.8 8.93
8/23/2021 5:00:00 PM 23.43 74.174 0.119 7.53 4.75 8.83
8/23/2021 5:15:00 PM 23.44 74.192 0.118 7.52 5.77 8.76
8/23/2021 5:30:00 PM 23.44 74.192 0.118 7.51 4.88 8.73
8/23/2021 5:45:00 PM 23.44 74.192 0.118 7.49 4.97 8.64
8/23/2021 6:00:00 PM 23.39 74.102 0.118 7.46 4.81 8.58
8/23/2021 6:15:00 PM 23.36 74.048 0.118 7.44 4.84 8.54
8/23/2021 6:30:00 PM 23.34 74.012 0.118 7.42 6.06 8.48
8/23/2021 6:45:00 PM 23.33 73.994 0.118 7.4 4.83 8.44
8/23/2021 7:00:00 PM 23.32 73.976 0.118 7.38 4.65 8.4
8/23/2021 7:15:00 PM 23.29 73.922 0.118 7.37 5.03 8.3
8/23/2021 7:30:00 PM 23.27 73.886 0.118 7.35 4.66 8.31
8/23/2021 7:45:00 PM 23.23 73.814 0.118 7.33 4.18 8.23
8/23/2021 8:00:00 PM 23.18 73.724 0.118 7.31 5.37 8.22
8/23/2021 8:15:00 PM 23.13 73.634 0.118 7.29 5.99 8.12
8/23/2021 8:30:00 PM 23.06 73.508 0.118 7.27 5.36 8.15
8/23/2021 8:45:00 PM 22.99 73.382 0.118 7.25 5.29 8.06
8/23/2021 9:00:00 PM 22.91 73.238 0.119 7.23 5.9 8.07
8/23/2021 9:15:00 PM 22.83 73.094 0.119 7.22 5.37 8.06
8/23/2021 9:30:00 PM 22.77 72.986 0.119 7.2 6.15 8.04
8/23/2021 9:45:00 PM 22.67 72.806 0.119 7.2 5.88 8.07
8/23/2021 10:00:00 PM 22.6 72.68 0.119 7.19 5.78 8.06
8/23/2021 10:15:00 PM 22.52 72.536 0.119 7.19 5.06 8.1
8/23/2021 10:30:00 PM 22.46 72.42799 0.119 7.18 5.68 8.09
8/23/2021 10:45:00 PM 22.39 72.302 0.119 7.17 5.42 8.04
8/23/2021 11:00:00 PM 22.33 72.194 0.119 7.15 5.83 8.01
8/23/2021 11:15:00 PM 22.27 72.086 0.119 7.17 5.49 8.09
8/23/2021 11:30:00 PM 22.21 71.978 0.119 7.15 5.34 8.1
8/23/2021 11:45:00 PM 22.14 71.852 0.119 7.15 7.07 8.08
8/24/2021 12:00:00 AM 22.07 71.726 0.119 7.15 5.55 8.14
8/24/2021 12:15:00 AM 22.02 71.636 0.119 7.14 5.04 8.13
8/24/2021 12:30:00 AM 21.95 71.51 0.119 7.14 5.24 8.15
8/24/2021 12:45:00 AM 21.9 71.42 0.125 7.13 5.64 8.11
8/24/2021 1:00:00 AM 21.83 71.294 0.12 7.14 4.93 8.15
8/24/2021 1:15:00 AM 21.76 71.168 0.12 7.14 5.85 8.17
8/24/2021 1:30:00 AM 21.7 71.06 0.12 7.13 5.49 8.2
8/24/2021 1:45:00 AM 21.63 70.934 0.12 7.13 5.69 8.23
8/24/2021 2:00:00 AM 21.56 70.808 0.121 7.13 5.91 8.24
8/24/2021 2:15:00 AM 21.51 70.718 0.122 7.14 5.83 8.22
8/24/2021 2:30:00 AM 21.45 70.61 0.122 7.12 5.56 8.17
8/24/2021 2:45:00 AM 21.39 70.502 0.123 7.13 4.91 8.24
8/24/2021 3:00:00 AM 21.31 70.358 0.124 7.13 5.38 8.24
8/24/2021 3:15:00 AM 21.24 70.232 0.124 7.12 5.84 8.23
8/24/2021 3:30:00 AM 21.18 70.124 0.124 7.11 4.9 8.24
8/24/2021 3:45:00 AM 21.11 69.998 0.125 7.11 5.3 8.26
8/24/2021 4:00:00 AM 21.05 69.89 0.125 7.11 5.92 8.28
8/24/2021 4:15:00 AM 21 69.8 0.125 7.11 5.22 8.28
8/24/2021 4:30:00 AM 20.93 69.674 0.124 7.11 5.4 8.29
8/24/2021 4:45:00 AM 20.86 69.548 0.124 7.12 5.21 8.37
8/24/2021 5:00:00 AM 20.8 69.44 0.124 7.11 4.97 8.38
8/24/2021 5:15:00 AM 20.75 69.35 0.123 7.11 4.98 8.4
8/24/2021 5:30:00 AM 20.71 69.278 0.122 7.13 4.67 8.42
8/24/2021 5:45:00 AM 20.65 69.17 0.12 7.12 4.92 8.4
8/24/2021 6:00:00 AM 20.6 69.08 0.121 7.13 4.82 8.43
8/24/2021 6:15:00 AM 20.55 68.99 0.12 7.12 4.99 8.43
8/24/2021 6:30:00 AM 20.5 68.9 0.121 7.12 5.13 8.45
8/24/2021 6:45:00 AM 20.44 68.792 0.121 7.12 5.25 8.46
8/24/2021 7:00:00 AM 20.39 68.702 0.121 7.12 4.92 8.48
8/24/2021 7:15:00 AM 20.35 68.63 0.121 7.12 5.22 8.49
8/24/2021 7:30:00 AM 20.32 68.576 0.121 7.13 4.97 8.55
8/24/2021 7:45:00 AM 20.3 68.54 0.121 7.13 6.05 8.55
8/24/2021 8:00:00 AM 20.27 68.486 0.121 7.14 5.31 8.64
8/24/2021 8:15:00 AM 20.26 68.468 0.121 7.16 4.78 8.69
8/24/2021 8:30:00 AM 20.25 68.45 0.121 7.16 5.15 8.71
8/24/2021 8:45:00 AM 20.24 68.432 0.121 7.15 16.97 8.7
8/24/2021 9:00:00 AM 20.25 68.45 0.12 7.2 9.38 8.81
8/24/2021 9:15:00 AM 20.27 68.486 0.121 7.2 5.41 8.87
8/24/2021 9:30:00 AM 20.3 68.54 0.12 7.22 7.58 8.85
8/24/2021 9:45:00 AM 20.34 68.612 0.12 7.24 4.43 8.98
8/24/2021 10:00:00 AM 20.41 68.738 0.12 7.26 4.63 9.04
8/24/2021 10:15:00 AM 20.48 68.864 0.12 7.29 4.72 9.09
8/24/2021 10:30:00 AM 20.56 69.008 0.12 7.32 4.34 9.15
8/24/2021 10:45:00 AM 20.68 69.224 0.12 7.35 5.54 9.22
8/24/2021 11:00:00 AM 20.78 69.404 0.12 7.37 4.75 9.22
8/24/2021 11:15:00 AM 20.89 69.602 0.119 7.4 4.42 9.29
8/24/2021 11:30:00 AM 21.07 69.926 0.119 7.42 4.32 9.33
8/24/2021 11:45:00 AM 21.2 70.16 0.119 7.44 4.58 9.36
8/24/2021 12:00:00 PM 21.33 70.394 0.119 7.45 3.97 9.4
8/24/2021 12:15:00 PM 21.51 70.718 0.119 7.48 4.91 9.42
8/24/2021 12:30:00 PM 21.69 71.042 0.119 7.48 4.88 9.4
8/24/2021 12:45:00 PM 21.91 71.438 0.119 7.51 3.97 9.43
8/24/2021 1:00:00 PM 22.13 71.834 0.119 7.52 4.35 9.39
8/24/2021 1:15:00 PM 22.33 72.194 0.118 7.55 4.51 9.41
8/24/2021 1:30:00 PM 22.55 72.59 0.118 7.56 4.97 9.32
8/24/2021 1:45:00 PM 22.75 72.95 0.118 7.59 4.45 9.35
8/24/2021 2:00:00 PM 22.94 73.292 0.118 7.58 4.89 9.35
8/24/2021 2:15:00 PM 23.12 73.616 0.118 7.59 4.06 9.28
8/24/2021 2:30:00 PM 23.27 73.886 0.118 7.59 4.54 9.27
8/24/2021 2:45:00 PM 23.44 74.192 0.118 7.6 3.91 9.25
8/24/2021 3:00:00 PM 23.61 74.498 0.118 7.62 4.47 9.18
8/24/2021 3:15:00 PM 23.74 74.732 0.118 7.61 5.17 9.12
8/24/2021 3:30:00 PM 23.84 74.912 0.118 7.62 4.26 9.13
8/24/2021 3:45:00 PM 23.93 75.074 0.118 7.6 4.52 9.07
8/24/2021 4:00:00 PM 24 75.2 0.117 7.62 4.46 8.93
8/24/2021 4:15:00 PM 24.04 75.272 0.117 7.6 4.55 8.93
8/24/2021 4:30:00 PM 24.06 75.308 0.117 7.58 4.6 8.86
8/24/2021 4:45:00 PM 24.08 75.344 0.117 7.56 4.46 8.86
8/24/2021 5:00:00 PM 24.09 75.362 0.117 7.55 4.71 8.8
8/24/2021 5:15:00 PM 24.03 75.254 0.117 7.52 4.31 8.76
8/24/2021 5:30:00 PM 23.98 75.164 0.117 7.52 5.38 8.68
8/24/2021 5:45:00 PM 23.92 75.056 0.117 7.49 5.07 8.62
8/24/2021 6:00:00 PM 23.87 74.966 0.117 7.47 5.17 8.58
8/24/2021 6:15:00 PM 23.82 74.876 0.117 7.44 5.35 8.53
8/24/2021 6:30:00 PM 23.76 74.768 0.117 7.42 4.1 8.44
8/24/2021 6:45:00 PM 23.73 74.714 0.117 7.39 4.18 8.4
8/24/2021 7:00:00 PM 23.71 74.67799 0.117 7.37 3.83 8.34
8/24/2021 7:15:00 PM 23.67 74.606 0.117 7.36 5.19 8.28
8/24/2021 7:30:00 PM 23.62 74.516 0.117 7.33 4.36 8.22
8/24/2021 7:45:00 PM 23.58 74.444 0.117 7.32 126.69 8.21
8/24/2021 8:00:00 PM 23.52 74.336 0.076 7.3 4.01 8.12
8/24/2021 8:15:00 PM 23.46 74.228 0.118 7.29 4.39 8.11
8/24/2021 8:30:00 PM 23.4 74.12 0.122 7.26 4.39 8.08
8/24/2021 8:45:00 PM 23.32 73.976 0.122 7.25 4.68 8.05
8/24/2021 9:00:00 PM 23.24 73.832 0.123 7.23 5.01 7.99
8/24/2021 9:15:00 PM 23.17 73.706 0.123 7.22 4.96 7.99
8/24/2021 9:30:00 PM 23.11 73.598 0.122 7.19 5.6 7.99
8/24/2021 9:45:00 PM 23.04 73.472 0.122 7.18 5.74 7.85
8/24/2021 10:00:00 PM 22.97 73.346 0.122 7.17 4.99 7.94
8/24/2021 10:15:00 PM 22.92 73.256 0.121 7.17 4.53 7.94
8/24/2021 10:30:00 PM 22.86 73.148 0.121 7.16 4.63 7.93
8/24/2021 10:45:00 PM 22.81 73.058 0.12 7.15 5.31 7.98
8/24/2021 11:00:00 PM 22.76 72.968 0.119 7.14 5.21 7.93
8/24/2021 11:15:00 PM 22.7 72.86 0.118 7.13 4.75 7.91
8/24/2021 11:30:00 PM 22.65 72.77 0.118 7.13 4.76 7.93
8/24/2021 11:45:00 PM 22.6 72.68 0.118 7.12 4.78 7.93
8/25/2021 12:00:00 AM 22.54 72.57201 0.119 7.11 5.47 7.9
8/25/2021 12:15:00 AM 22.5 72.5 0.119 7.11 5.77 7.95
8/25/2021 12:30:00 AM 22.44 72.392 0.119 7.1 4.9 7.99
8/25/2021 12:45:00 AM 22.39 72.302 0.119 7.11 4.77 8.03
8/25/2021 1:00:00 AM 22.34 72.212 0.119 7.11 4.5 8.01
8/25/2021 1:15:00 AM 22.28 72.104 0.119 7.1 4.7 8.02
8/25/2021 1:30:00 AM 22.22 71.996 0.119 7.1 5.08 8.06
8/25/2021 1:45:00 AM 22.17 71.906 0.119 7.09 4.91 8.04
8/25/2021 2:00:00 AM 22.12 71.816 0.119 7.09 4.76 7.97
8/25/2021 2:15:00 AM 22.06 71.708 0.119 7.09 4.87 8.03
8/25/2021 2:30:00 AM 22.01 71.618 0.12 7.09 4.54 8.02
8/25/2021 2:45:00 AM 21.95 71.51 0.12 7.09 4.91 8.01
8/25/2021 3:00:00 AM 21.89 71.402 0.119 7.1 5.14 8.05
8/25/2021 3:15:00 AM 21.82 71.276 0.12 7.1 4.15 8.05
8/25/2021 3:30:00 AM 21.77 71.186 0.12 7.1 4.57 8.11
8/25/2021 3:45:00 AM 21.71 71.078 0.12 7.1 4.8 8.14
8/25/2021 4:00:00 AM 21.65 70.97 0.12 7.09 4.69 8.14
8/25/2021 4:15:00 AM 21.59 70.862 0.12 7.1 4.46 8.14
8/25/2021 4:30:00 AM 21.53 70.754 0.12 7.1 4.9 8.17
8/25/2021 4:45:00 AM 21.47 70.646 0.12 7.1 4.26 8.16
8/25/2021 5:00:00 AM 21.41 70.538 0.12 7.11 4.29 8.2
8/25/2021 5:15:00 AM 21.34 70.412 0.121 7.09 4.66 8.18
8/25/2021 5:30:00 AM 21.29 70.32201 0.12 7.1 4.85 8.2
8/25/2021 5:45:00 AM 21.22 70.196 0.12 7.1 4.55 8.3
8/25/2021 6:00:00 AM 21.16 70.088 0.12 7.1 4.94 8.27
8/25/2021 6:15:00 AM 21.1 69.98 0.12 7.1 4.53 8.28
8/25/2021 6:30:00 AM 21.05 69.89 0.12 7.1 4.99 8.29
8/25/2021 6:45:00 AM 21 69.8 0.121 7.1 5.35 8.28
8/25/2021 7:00:00 AM 20.95 69.71 0.121 7.1 4.77 8.33
8/25/2021 7:15:00 AM 20.92 69.656 0.121 7.1 5.63 8.33
8/25/2021 7:30:00 AM 20.88 69.584 0.121 7.11 5.12 8.34
8/25/2021 7:45:00 AM 20.85 69.53 0.121 7.11 6.17 8.38
8/25/2021 8:00:00 AM 20.84 69.512 0.12 7.14 4.4 8.48
8/25/2021 8:15:00 AM 20.82 69.476 0.121 7.14 4.15 8.49
8/25/2021 8:30:00 AM 20.81 69.458 0.121 7.16 5.36 8.59
8/25/2021 8:45:00 AM 20.8 69.44 0.121 7.17 5.15 8.68
8/25/2021 9:00:00 AM 20.8 69.44 0.12 7.19 4.5 8.72
8/25/2021 9:15:00 AM 20.8 69.44 0.121 7.2 4.63 8.77
8/25/2021 9:30:00 AM 20.83 69.494 0.12 7.22 5.18 8.82
8/25/2021 9:45:00 AM 20.87 69.566 0.12 7.24 4.75 8.9
8/25/2021 10:00:00 AM 20.92 69.656 0.12 7.27 6.34 9.05
8/25/2021 10:15:00 AM 20.99 69.782 0.12 7.28 5.22 9.04
8/25/2021 10:30:00 AM 21.05 69.89 0.12 7.3 3.88 9.13
8/25/2021 10:45:00 AM 21.13 70.034 0.12 7.32 4.82 9.16
8/25/2021 11:00:00 AM 21.23 70.214 0.12 7.35 3.65 9.24
8/25/2021 11:15:00 AM 21.34 70.412 0.12 7.38 4.04 9.25
8/25/2021 11:30:00 AM 21.5 70.7 0.12 7.42 3.9 9.38
8/25/2021 11:45:00 AM 21.62 70.916 0.12 7.44 3.84 9.38
8/25/2021 12:00:00 PM 21.76 71.168 0.12 7.45 3.82 9.38
8/25/2021 12:15:00 PM 21.9 71.42 0.119 7.49 3.87 9.45
8/25/2021 12:30:00 PM 22.1 71.78 0.119 7.52 4.11 9.43
8/25/2021 12:45:00 PM 22.29 72.122 0.119 7.54 3.89 9.48
8/25/2021 1:00:00 PM 22.5 72.5 0.119 7.55 3.71 9.44
8/25/2021 1:15:00 PM 22.69 72.842 0.119 7.59 4.65 9.5
8/25/2021 1:30:00 PM 22.91 73.238 0.118 7.6 3.61 9.41
8/25/2021 1:45:00 PM 23.12 73.616 0.118 7.61 3.96 9.4
8/25/2021 2:00:00 PM 23.33 73.994 0.118 7.62 3.9 9.4
8/25/2021 2:15:00 PM 23.54 74.372 0.118 7.65 3.85 9.35
8/25/2021 2:30:00 PM 23.69 74.642 0.118 7.65 3.73 9.33
8/25/2021 2:45:00 PM 23.9 75.02 0.118 7.66 4.02 9.26
8/25/2021 3:00:00 PM 24.05 75.29 0.118 7.67 3.92 9.14
8/25/2021 3:15:00 PM 24.22 75.596 0.118 7.68 3.71 9.19
8/25/2021 3:30:00 PM 24.34 75.812 0.118 7.67 3.73 9.11
8/25/2021 3:45:00 PM 24.47 76.046 0.118 7.68 3.82 9.15
8/25/2021 4:00:00 PM 24.56 76.208 0.118 7.68 5.55 9.04
8/25/2021 4:15:00 PM 24.63 76.334 0.117 7.67 3.63 8.94
8/25/2021 4:30:00 PM 24.68 76.424 0.121 7.66 4.08 8.97
8/25/2021 4:45:00 PM 24.71 76.478 0.124 7.64 3.94 8.8
8/25/2021 5:00:00 PM 24.7 76.46 0.124 7.64 4.05 8.84
8/25/2021 5:15:00 PM 24.69 76.442 0.124 7.61 6.46 8.74
8/25/2021 5:30:00 PM 24.67 76.406 0.124 7.58 4.1 8.67
8/25/2021 5:45:00 PM 24.63 76.334 0.123 7.56 3.93 8.57
8/25/2021 6:00:00 PM 24.59 76.262 0.122 7.54 3.84 8.54
8/25/2021 6:15:00 PM 24.52 76.136 0.122 7.51 3.66 8.46
8/25/2021 6:30:00 PM 24.46 76.028 0.122 7.48 6.91 8.41
8/25/2021 6:45:00 PM 24.39 75.902 0.121 7.46 5.46 8.35
8/25/2021 7:00:00 PM 24.33 75.794 0.12 7.43 4.11 8.28
8/25/2021 7:15:00 PM 24.27 75.686 0.118 7.4 3.98 8.21
8/25/2021 7:30:00 PM 24.23 75.614 0.118 7.38 3.92 8.14
8/25/2021 7:45:00 PM 24.15 75.47 0.117 7.36 4.59 8.12
8/25/2021 8:00:00 PM 24.09 75.362 0.116 7.34 3.77 8.08
8/25/2021 8:15:00 PM 24.04 75.272 0.116 7.33 3.74 8.05
8/25/2021 8:30:00 PM 23.97 75.146 0.116 7.31 4.25 7.98
8/25/2021 8:45:00 PM 23.9 75.02 0.117 7.28 4.66 7.92
8/25/2021 9:00:00 PM 23.82 74.876 0.117 7.27 5.31 7.89
8/25/2021 9:15:00 PM 23.73 74.714 0.117 7.26 4.54 7.92
8/25/2021 9:30:00 PM 23.67 74.606 0.117 7.23 4.39 7.87
8/25/2021 9:45:00 PM 23.57 74.426 0.117 7.22 4.25 7.9
8/25/2021 10:00:00 PM 23.48 74.264 0.117 7.21 5 7.87
8/25/2021 10:15:00 PM 23.38 74.084 0.117 7.2 4.68 7.86
8/25/2021 10:30:00 PM 23.29 73.922 0.117 7.19 4.4 7.84
8/25/2021 10:45:00 PM 23.2 73.76 0.117 7.17 4.77 7.89
8/25/2021 11:00:00 PM 23.11 73.598 0.117 7.16 4.82 7.86
8/25/2021 11:15:00 PM 23.03 73.454 0.118 7.14 4.26 7.85
8/25/2021 11:30:00 PM 22.96 73.328 0.118 7.14 4.37 7.86
8/25/2021 11:45:00 PM 22.9 73.22 0.118 7.12 4.75 7.83
8/26/2021 12:00:00 AM 22.82 73.076 0.118 7.12 4.07 7.9
8/26/2021 12:15:00 AM 22.75 72.95 0.118 7.12 4.39 7.93
8/26/2021 12:30:00 AM 22.69 72.842 0.118 7.11 4.39 7.88
8/26/2021 12:45:00 AM 22.63 72.734 0.118 7.1 4.38 7.91
8/26/2021 1:00:00 AM 22.58 72.644 0.118 7.11 4.82 7.94
8/26/2021 1:15:00 AM 22.52 72.536 0.118 7.11 4.25 7.95
8/26/2021 1:30:00 AM 22.46 72.42799 0.118 7.1 4.75 7.93
8/26/2021 1:45:00 AM 22.4 72.32 0.119 7.1 5.64 7.91
8/26/2021 2:00:00 AM 22.35 72.23 0.118 7.1 4.75 8
8/26/2021 2:15:00 AM 22.29 72.122 0.119 7.11 3.88 7.99
8/26/2021 2:30:00 AM 22.23 72.014 0.119 7.09 4.51 7.99
8/26/2021 2:45:00 AM 22.18 71.924 0.119 7.09 5.14 7.98
8/26/2021 3:00:00 AM 22.12 71.816 0.119 7.1 4.33 8.07
8/26/2021 3:15:00 AM 22.06 71.708 0.119 7.1 4.19 8.03
8/26/2021 3:30:00 AM 22.01 71.618 0.119 7.1 4.59 8.02
8/26/2021 3:45:00 AM 21.97 71.546 0.119 7.1 4.83 8.03
8/26/2021 4:00:00 AM 21.93 71.474 0.119 7.1 4.41 8.01
8/26/2021 4:15:00 AM 21.89 71.402 0.119 7.11 5.42 8.02
8/26/2021 4:30:00 AM 21.86 71.348 0.12 7.1 4.48 8.06
8/26/2021 4:45:00 AM 21.82 71.276 0.119 7.11 6.03 8.09
8/26/2021 5:00:00 AM 21.78 71.204 0.119 7.12 4.71 8.13
8/26/2021 5:15:00 AM 21.74 71.132 0.12 7.12 4.61 8.13
8/26/2021 5:30:00 AM 21.7 71.06 0.12 7.12 4.21 8.12
8/26/2021 5:45:00 AM 21.65 70.97 0.12 7.13 4.12 8.14
8/26/2021 6:00:00 AM 21.61 70.898 0.12 7.12 7.4 8.11
8/26/2021 6:15:00 AM 21.56 70.808 0.12 7.12 4.49 8.12
8/26/2021 6:30:00 AM 21.51 70.718 0.12 7.13 4.84 8.2
8/26/2021 6:45:00 AM 21.46 70.628 0.12 7.12 4.76 8.14
8/26/2021 7:00:00 AM 21.43 70.574 0.12 7.13 5.06 8.21
8/26/2021 7:15:00 AM 21.39 70.502 0.12 7.14 4.17 8.22
8/26/2021 7:30:00 AM 21.36 70.448 0.12 7.15 4.27 8.21
8/26/2021 7:45:00 AM 21.32 70.376 0.12 7.14 4.44 8.28
8/26/2021 8:00:00 AM 21.28 70.304 0.12 7.15 4.22 8.36
8/26/2021 8:15:00 AM 21.26 70.268 0.12 7.16 4.38 8.38
8/26/2021 8:30:00 AM 21.24 70.232 0.12 7.16 4.6 8.43
8/26/2021 8:45:00 AM 21.24 70.232 0.12 7.18 3.86 8.5
8/26/2021 9:00:00 AM 21.23 70.214 0.12 7.2 4.67 8.59
8/26/2021 9:15:00 AM 21.24 70.232 0.12 7.21 4.19 8.7
8/26/2021 9:30:00 AM 21.25 70.25 0.12 7.23 4.61 8.75
8/26/2021 9:45:00 AM 21.29 70.32201 0.12 7.24 4.39 8.8
8/26/2021 10:00:00 AM 21.36 70.448 0.12 7.27 4.09 8.94
8/26/2021 10:15:00 AM 21.42 70.556 0.12 7.29 4.26 8.98
8/26/2021 10:30:00 AM 21.5 70.7 0.12 7.31 4.65 9.07
8/26/2021 10:45:00 AM 21.6 70.88 0.12 7.33 3.97 9.02
8/26/2021 11:00:00 AM 21.69 71.042 0.12 7.38 3.54 9.18
8/26/2021 11:15:00 AM 21.82 71.276 0.12 7.41 4.12 9.27
8/26/2021 11:30:00 AM 21.94 71.492 0.12 7.44 4.3 9.3
8/26/2021 11:45:00 AM 22.09 71.762 0.12 7.46 3.96 9.39
8/26/2021 12:00:00 PM 22.23 72.014 0.119 7.5 3.96 9.43
8/26/2021 12:15:00 PM 22.38 72.284 0.119 7.53 3.78 9.44
8/26/2021 12:30:00 PM 22.53 72.554 0.119 7.54 4.27 9.41
8/26/2021 12:45:00 PM 22.72 72.896 0.119 7.55 3.62 9.43
8/26/2021 1:00:00 PM 22.89 73.202 0.128 7.59 3.8 9.34
8/26/2021 1:15:00 PM 23.08 73.544 0.12 7.5 3.54 9.42
8/26/2021 1:30:00 PM 23.27 73.886 0.118 7.47 3.41 9.34
8/26/2021 1:45:00 PM 23.48 74.264 0.118 7.46 3.41 9.49
8/26/2021 2:00:00 PM 23.68 74.624 0.119 7.47 3.74 9.4
8/26/2021 2:15:00 PM 23.84 74.912 0.12 7.49 3.78 9.22
8/26/2021 2:30:00 PM 24.05 75.29 0.121 7.61 8.4 9.21
8/26/2021 2:45:00 PM 24.28 75.704 0.121 7.68 7.93 9.39
8/26/2021 3:00:00 PM 24.44 75.992 0.122 7.69 7.68 9
8/26/2021 3:15:00 PM 24.61 76.298 0.122 7.73 7.57 9.12
8/26/2021 3:30:00 PM 24.76 76.568 0.122 7.72 7.44 9.14
8/26/2021 3:45:00 PM 24.89 76.802 0.122 7.74 7.35 9.1
8/26/2021 4:00:00 PM 24.99 76.982 0.122 7.74 7.24 9.07
8/26/2021 4:15:00 PM 25.09 77.162 0.123 7.74 7.14 9.01
8/26/2021 4:30:00 PM 25.13 77.234 0.123 7.68 7.05 8.81
8/26/2021 4:45:00 PM 25.2 77.36 0.122 7.7 7.03 8.76
8/26/2021 5:00:00 PM 25.24 77.432 0.122 7.69 6.94 8.7
8/26/2021 5:15:00 PM 25.27 77.486 0.122 7.68 6.94 8.63
8/26/2021 5:30:00 PM 25.27 77.486 0.122 7.66 6.89 8.51
8/26/2021 5:45:00 PM 25.24 77.432 0.122 7.63 6.86 8.51
8/26/2021 6:00:00 PM 25.19 77.342 0.122 7.62 6.85 8.53
8/26/2021 6:15:00 PM 25.13 77.234 0.122 7.58 6.83 8.41
8/26/2021 6:30:00 PM 25.08 77.144 0.122 7.53 6.81 8.32
8/26/2021 6:45:00 PM 25.04 77.07201 0.122 7.53 6.85 8.35
8/26/2021 7:00:00 PM 24.98 76.964 0.122 7.49 6.85 8.21
8/26/2021 7:15:00 PM 24.92 76.856 0.121 7.47 6.83 8.15
8/26/2021 7:30:00 PM 24.86 76.748 0.121 7.43 6.88 8.13
8/26/2021 7:45:00 PM 24.8 76.64 0.121 7.4 6.93 8
8/26/2021 8:00:00 PM 24.73 76.514 0.121 7.38 6.96 7.83
8/26/2021 8:15:00 PM 24.66 76.388 0.121 7.35 7.96 7.84
8/26/2021 8:30:00 PM 24.56 76.208 0.121 7.35 7.98 7.92
8/26/2021 8:45:00 PM 24.48 76.064 0.12 7.31 7.99 7.72
8/26/2021 9:00:00 PM 24.4 75.92 0.119 7.31 8.08 7.84
8/26/2021 9:15:00 PM 24.33 75.794 0.119 7.28 8.16 7.72
8/26/2021 9:30:00 PM 24.27 75.686 0.118 7.27 8.21 7.74
8/26/2021 9:45:00 PM 24.19 75.542 0.117 7.24 8.18 7.7
8/26/2021 10:00:00 PM 24.12 75.416 0.117 7.23 8.3 7.63
8/26/2021 10:15:00 PM 24.05 75.29 0.117 7.22 8.34 7.76
8/26/2021 10:30:00 PM 23.97 75.146 0.117 7.2 8.3 7.66
8/26/2021 10:45:00 PM 23.91 75.038 0.118 7.2 10.48 7.66
8/26/2021 11:00:00 PM 23.84 74.912 0.118 7.18 10.17 7.64
8/26/2021 11:15:00 PM 23.78 74.804 0.118 7.18 9.89 7.65
8/26/2021 11:30:00 PM 23.73 74.714 0.118 7.17 9.73 7.62
8/26/2021 11:45:00 PM 23.67 74.606 0.118 7.16 11.78 7.71
8/27/2021 12:00:00 AM 23.6 74.48 0.118 7.15 11.53 7.72
8/27/2021 12:15:00 AM 23.55 74.39 0.118 7.14 11.35 7.62
8/27/2021 12:30:00 AM 23.5 74.3 0.118 7.13 11.16 7.72
8/27/2021 12:45:00 AM 23.44 74.192 0.118 7.13 11.02 7.61
8/27/2021 1:00:00 AM 23.38 74.084 0.118 7.14 10.79 7.79
8/27/2021 1:15:00 AM 23.33 73.994 0.118 7.14 10.61 7.6
8/27/2021 1:30:00 AM 23.28 73.904 0.118 7.11 10.41 7.62
8/27/2021 1:45:00 AM 23.22 73.796 0.118 7.12 10.1 7.78
8/27/2021 2:00:00 AM 23.17 73.706 0.118 7.14 9.73 7.67
8/27/2021 2:15:00 AM 23.12 73.616 0.118 7.13 9.47 7.75
8/27/2021 2:30:00 AM 23.04 73.472 0.118 7.15 9.22 7.88
8/27/2021 2:45:00 AM 22.96 73.328 0.117 7.2 8.98 7.92
8/27/2021 3:00:00 AM 22.89 73.202 0.116 7.22 8.74 8.02
8/27/2021 3:15:00 AM 22.84 73.112 0.116 7.23 8.45 8.02
8/27/2021 3:30:00 AM 22.77 72.986 0.116 7.23 8.16 8.06
8/27/2021 3:45:00 AM 22.71 72.878 0.115 7.23 7.89 8.07
8/27/2021 4:00:00 AM 22.65 72.77 0.115 7.22 7.6 7.99
8/27/2021 4:15:00 AM 22.59 72.662 0.115 7.22 7.31 8.11
8/27/2021 4:30:00 AM 22.54 72.57201 0.115 7.21 7.14 8.08
8/27/2021 4:45:00 AM 22.48 72.464 0.115 7.21 7.04 8.09
8/27/2021 5:00:00 AM 22.42 72.356 0.115 7.19 6.78 8.07
8/27/2021 5:15:00 AM 22.37 72.266 0.115 7.19 6.62 8.1
8/27/2021 5:30:00 AM 22.31 72.158 0.115 7.19 6.5 7.92
8/27/2021 5:45:00 AM 22.27 72.086 0.115 7.18 6.52 8.02
8/27/2021 6:00:00 AM 22.22 71.996 0.115 7.17 6.36 8.09
8/27/2021 6:15:00 AM 22.16 71.888 0.114 7.17 6.23 8.1
8/27/2021 6:30:00 AM 22.11 71.798 0.114 7.18 6.16 8.14
8/27/2021 6:45:00 AM 22.05 71.69 0.113 7.2 6.01 8.19
8/27/2021 7:00:00 AM 22 71.6 0.113 7.2 5.91 8.13
8/27/2021 7:15:00 AM 21.95 71.51 0.113 7.21 5.87 8.23
8/27/2021 7:30:00 AM 21.9 71.42 0.113 7.21 5.83 8.18
8/27/2021 7:45:00 AM 21.87 71.366 0.114 7.21 5.9 8.21
8/27/2021 8:00:00 AM 21.82 71.276 0.115 7.22 5.9 8.22
8/27/2021 8:15:00 AM 21.77 71.186 0.116 7.22 6.1 8.22
8/27/2021 8:30:00 AM 21.74 71.132 0.117 7.22 6.3 8.17
8/27/2021 8:45:00 AM 21.7 71.06 0.117 7.23 6.54 8.21
8/27/2021 9:00:00 AM 21.68 71.024 0.117 7.23 6.92 8.23
8/27/2021 9:15:00 AM 21.64 70.952 0.116 7.24 7.29 8.19
8/27/2021 9:30:00 AM 21.62 70.916 0.116 7.24 7.55 8.34
8/27/2021 9:45:00 AM 21.61 70.898 0.115 7.25 8.25 8.4
8/27/2021 10:00:00 AM 21.6 70.88 0.114 7.28 8.88 8.5
8/27/2021 10:15:00 AM 21.6 70.88 0.113 7.29 9.07 8.47
8/27/2021 10:30:00 AM 21.61 70.898 0.113 7.31 8.46 8.65
8/27/2021 10:45:00 AM 21.64 70.952 0.112 7.33 7.86 8.68
8/27/2021 11:00:00 AM 21.66 70.988 0.112 7.34 7.28 8.81
8/27/2021 11:15:00 AM 21.69 71.042 0.112 7.37 6.84 8.88
8/27/2021 11:30:00 AM 21.72 71.096 0.112 7.39 6.65 8.89
8/27/2021 11:45:00 AM 21.76 71.168 0.112 7.41 6.21 8.97
8/27/2021 12:00:00 PM 21.82 71.276 0.112 7.42 5.92 9.01
8/27/2021 12:15:00 PM 21.86 71.348 0.112 7.45 5.7 9.02
8/27/2021 12:30:00 PM 21.91 71.438 0.112 7.46 5.54 9.12
8/27/2021 12:45:00 PM 21.97 71.546 0.111 7.49 5.38 9.18
8/27/2021 1:00:00 PM 22.04 71.672 0.111 7.52 5.29 9.12
8/27/2021 1:15:00 PM 22.12 71.816 0.111 7.54 5.3 9.32
8/27/2021 1:30:00 PM 22.23 72.014 0.111 7.57 5.15 9.38
8/27/2021 1:45:00 PM 22.35 72.23 0.11 7.62 5.05 9.42
8/27/2021 2:00:00 PM 22.48 72.464 0.11 7.64 5 9.46
8/27/2021 2:15:00 PM 22.58 72.644 0.109 7.67 4.92 9.5
8/27/2021 2:30:00 PM 22.7 72.86 0.108 7.68 4.84 9.5
8/27/2021 2:45:00 PM 22.87 73.166 0.106 7.72 4.66 9.34
8/27/2021 3:00:00 PM 23.01 73.418 0.105 7.74 4.62 9.03
8/27/2021 3:15:00 PM 23.12 73.616 0.104 7.73 4.55 9.48
8/27/2021 3:30:00 PM 23.24 73.832 0.103 7.73 4.44 9.28
8/27/2021 3:45:00 PM 23.33 73.994 0.101 7.72 4.37 9.23
8/27/2021 4:00:00 PM 23.44 74.192 0.101 7.72 4.28 9.33
8/27/2021 4:15:00 PM 23.53 74.354 0.099 7.74 4.2 9.27
8/27/2021 4:30:00 PM 23.6 74.48 0.099 7.74 4.12 9.13
8/27/2021 4:45:00 PM 23.66 74.588 0.098 7.72 4.03 9.08
8/27/2021 5:00:00 PM 23.71 74.67799 0.098 7.7 3.93 8.96
8/27/2021 5:15:00 PM 23.76 74.768 0.098 7.68 3.84 8.92
8/27/2021 5:30:00 PM 23.8 74.84 0.098 7.63 3.8 8.86
8/27/2021 5:45:00 PM 23.83 74.894 0.098 7.62 3.75 8.82
8/27/2021 6:00:00 PM 23.85 74.93 0.099 7.6 3.72 8.71
8/27/2021 6:15:00 PM 23.84 74.912 0.099 7.58 3.61 8.7
8/27/2021 6:30:00 PM 23.82 74.876 0.1 7.55 3.6 8.47
8/27/2021 6:45:00 PM 23.78 74.804 0.102 7.51 3.59 8.5
8/27/2021 7:00:00 PM 23.74 74.732 0.103 7.47 3.51 8.33
8/27/2021 7:15:00 PM 23.7 74.66 0.105 7.46 3.46 8.34
8/27/2021 7:30:00 PM 23.64 74.552 0.106 7.44 3.49 8.29
8/27/2021 7:45:00 PM 23.59 74.462 0.108 7.4 3.48 8.21
8/27/2021 8:00:00 PM 23.55 74.39 0.11 7.39 3.45 8.17
8/27/2021 8:15:00 PM 23.49 74.282 0.112 7.37 3.5 8.15
8/27/2021 8:30:00 PM 23.45 74.21 0.113 7.37 3.5 8.06
8/27/2021 8:45:00 PM 23.39 74.102 0.114 7.35 3.49 8.04
8/27/2021 9:00:00 PM 23.34 74.012 0.115 7.32 3.46 8.04
8/27/2021 9:15:00 PM 23.27 73.886 0.116 7.31 3.52 7.92
8/27/2021 9:30:00 PM 23.23 73.814 0.117 7.3 3.43 7.98
8/27/2021 9:45:00 PM 23.17 73.706 0.118 7.29 3.41 7.91
8/27/2021 10:00:00 PM 23.13 73.634 0.118 7.29 3.38 7.95
8/27/2021 10:15:00 PM 23.07 73.526 0.118 7.27 3.35 7.95
8/27/2021 10:30:00 PM 23.03 73.454 0.119 7.26 3.32 7.88
8/27/2021 10:45:00 PM 22.99 73.382 0.119 7.25 3.3 7.96
8/27/2021 11:00:00 PM 22.97 73.346 0.119 7.24 3.3 7.78
8/27/2021 11:15:00 PM 22.91 73.238 0.119 7.23 3.34 7.83
8/27/2021 11:30:00 PM 22.89 73.202 0.119 7.23 3.31 7.79
8/27/2021 11:45:00 PM 22.87 73.166 0.119 7.21 3.22 7.78
8/28/2021 12:00:00 AM 22.83 73.094 0.118 7.22 3.19 7.86
8/28/2021 12:15:00 AM 22.79 73.022 0.118 7.21 3.26 7.91
8/28/2021 12:30:00 AM 22.77 72.986 0.118 7.21 3.22 7.95
8/28/2021 12:45:00 AM 22.74 72.932 0.118 7.2 3.22 7.82
8/28/2021 1:00:00 AM 22.71 72.878 0.118 7.2 3.21 7.96
8/28/2021 1:15:00 AM 22.68 72.824 0.117 7.2 3.22 7.83
8/28/2021 1:30:00 AM 22.65 72.77 0.117 7.19 3.15 7.86
8/28/2021 1:45:00 AM 22.61 72.698 0.117 7.18 3.17 7.78
8/28/2021 2:00:00 AM 22.58 72.644 0.117 7.19 3.17 7.96
8/28/2021 2:15:00 AM 22.54 72.57201 0.117 7.18 3.13 7.86
8/28/2021 2:30:00 AM 22.51 72.518 0.116 7.18 3.21 7.89
8/28/2021 2:45:00 AM 22.48 72.464 0.116 7.17 3.15 7.87
8/28/2021 3:00:00 AM 22.45 72.41 0.116 7.18 3.11 7.97
8/28/2021 3:15:00 AM 22.41 72.338 0.116 7.17 3.03 7.94
8/28/2021 3:30:00 AM 22.39 72.302 0.116 7.18 3.04 7.9
8/28/2021 3:45:00 AM 22.35 72.23 0.115 7.18 2.99 7.17
8/28/2021 4:00:00 AM 22.32 72.176 0.115 7.17 2.95 7.84
8/28/2021 4:15:00 AM 22.29 72.122 0.115 7.17 2.94 7.84
8/28/2021 4:30:00 AM 22.26 72.068 0.115 7.17 2.87 7.65
8/28/2021 4:45:00 AM 22.22 71.996 0.115 7.17 2.8 7.77
8/28/2021 5:00:00 AM 22.19 71.942 0.115 7.15 2.77 7.82
8/28/2021 5:15:00 AM 22.15 71.87 0.115 7.17 2.7 7.97
8/28/2021 5:30:00 AM 22.1 71.78 0.115 7.16 2.63 7.53
8/28/2021 5:45:00 AM 22.07 71.726 0.115 7.16 2.58 8.05
8/28/2021 6:00:00 AM 22.04 71.672 0.115 7.16 2.49 7.94
8/28/2021 6:15:00 AM 22.01 71.618 0.115 7.16 2.48 7.92
8/28/2021 6:30:00 AM 21.98 71.564 0.115 7.16 2.43 7.8
8/28/2021 6:45:00 AM 21.96 71.528 0.115 7.16 2.39 7.89
8/28/2021 7:00:00 AM 21.93 71.474 0.114 7.16 2.37 8.04
8/28/2021 7:15:00 AM 21.91 71.438 0.114 7.17 2.3 8.18
8/28/2021 7:30:00 AM 21.89 71.402 0.114 7.18 2.36 8.15
8/28/2021 7:45:00 AM 21.88 71.384 0.114 7.18 2.32 8.22
8/28/2021 8:00:00 AM 21.87 71.366 0.114 7.18 2.23 7.89
8/28/2021 8:15:00 AM 21.86 71.348 0.114 7.19 2.2 8.2
8/28/2021 8:30:00 AM 21.86 71.348 0.114 7.2 2.18 7.92
8/28/2021 8:45:00 AM 21.86 71.348 0.114 7.21 2.19 8.23
8/28/2021 9:00:00 AM 21.86 71.348 0.114 7.23 2.16 8.37
8/28/2021 9:15:00 AM 21.85 71.33 0.114 7.25 2.13 8.06
8/28/2021 9:30:00 AM 21.86 71.348 0.114 7.25 2.13 7.46
8/28/2021 9:45:00 AM 21.89 71.402 0.113 7.28 2.15 8.16
8/28/2021 10:00:00 AM 21.98 71.564 0.113 7.3 2.12 8.41
8/28/2021 10:15:00 AM 22.04 71.672 0.113 7.33 2.1 8.42
8/28/2021 10:30:00 AM 22.1 71.78 0.113 7.36 2.15 8.34
8/28/2021 10:45:00 AM 22.2 71.96 0.113 7.38 2.14 8.8
8/28/2021 11:00:00 AM 22.29 72.122 0.112 7.43 2.14 8.92
8/28/2021 11:15:00 AM 22.29 72.122 0.112 7.45 2.16 9.16
8/28/2021 11:30:00 AM 22.33 72.194 0.112 7.47 2.12 9.2
8/28/2021 11:45:00 AM 22.43 72.374 0.112 7.49 2.17 9.25
8/28/2021 12:00:00 PM 22.52 72.536 0.111 7.52 2.12 9
8/28/2021 12:15:00 PM 22.67 72.806 0.111 7.54 2.2 8.82
8/28/2021 12:30:00 PM 22.77 72.986 0.111 7.59 2.19 9.06
8/28/2021 12:45:00 PM 22.81 73.058 0.111 7.59 2.17 8.58
8/28/2021 1:00:00 PM 22.83 73.094 0.11 7.62 2.23 7.91
8/28/2021 1:15:00 PM 22.97 73.346 0.108 7.63 2.18 8.93
8/28/2021 1:30:00 PM 23.22 73.796 0.11 7.66 2.24 9.27
8/28/2021 1:45:00 PM 23.45 74.21 0.109 7.7 2.23 9.05
8/28/2021 2:00:00 PM 23.62 74.516 0.109 7.72 2.18 9.17
8/28/2021 2:15:00 PM 23.83 74.894 0.109 7.76 2.18 8.93
8/28/2021 2:30:00 PM 24.04 75.272 0.109 7.77 2.16 9.15
8/28/2021 2:45:00 PM 24.2 75.56 0.108 7.79 2.13 8.81
8/28/2021 3:00:00 PM 24.33 75.794 0.108 7.79 2.12 8.26
8/28/2021 3:15:00 PM 24.33 75.794 0.108 7.79 2.1 8.95
8/28/2021 3:30:00 PM 24.36 75.848 0.108 7.77 2.08 8.99
8/28/2021 3:45:00 PM 24.41 75.938 0.107 7.8 2.06 8.59
8/28/2021 4:00:00 PM 24.46 76.028 0.107 7.77 2.06 8.32
8/28/2021 4:15:00 PM 24.52 76.136 0.106 7.77 2.07 8.03
8/28/2021 4:30:00 PM 24.55 76.19 0.106 7.76 2.06 8.25
8/28/2021 4:45:00 PM 24.58 76.244 0.106 7.73 2.06 8.42
8/28/2021 5:00:00 PM 24.59 76.262 0.105 7.69 2.09 8.39
8/28/2021 5:15:00 PM 24.57 76.226 0.105 7.65 2.04 7.55
8/28/2021 5:30:00 PM 24.55 76.19 0.105 7.62 2.06 8.06
8/28/2021 5:45:00 PM 24.5 76.1 0.105 7.58 2.06 7.81
8/28/2021 6:00:00 PM 24.44 75.992 0.105 7.55 2.09 8.17
8/28/2021 6:15:00 PM 24.37 75.866 0.105 7.52 2.03 7.86
8/28/2021 6:30:00 PM 24.31 75.758 0.105 7.49 2.06 7.78
8/28/2021 6:45:00 PM 24.2 75.56 0.104 7.47 2.05 7.75
8/28/2021 7:00:00 PM 24.09 75.362 0.104 7.45 2.07 7.98
8/28/2021 7:15:00 PM 24.03 75.254 0.104 7.44 2.09 8.1
8/28/2021 7:30:00 PM 23.87 74.966 0.104 7.4 2.06 8.13
8/28/2021 7:45:00 PM 23.76 74.768 0.104 7.38 2.11 8.02
8/28/2021 8:00:00 PM 23.62 74.516 0.104 7.35 2.12 7.88
8/28/2021 8:15:00 PM 23.52 74.336 0.104 7.33 2.15 8
8/28/2021 8:30:00 PM 23.44 74.192 0.104 7.31 2.19 7.97
8/28/2021 8:45:00 PM 23.35 74.03 0.104 7.29 2.15 7.92
8/28/2021 9:00:00 PM 23.28 73.904 0.104 7.28 2.21 7.93
8/28/2021 9:15:00 PM 23.22 73.796 0.104 7.25 2.23 7.87
8/28/2021 9:30:00 PM 23.16 73.688 0.104 7.24 2.23 7.93
8/28/2021 9:45:00 PM 23.09 73.562 0.104 7.23 2.29 7.94
8/28/2021 10:00:00 PM 23.03 73.454 0.104 7.22 2.32 7.94
8/28/2021 10:15:00 PM 22.96 73.328 0.105 7.2 2.35 7.87
8/28/2021 10:30:00 PM 22.89 73.202 0.105 7.2 2.42 7.91
8/28/2021 10:45:00 PM 22.84 73.112 0.105 7.19 2.45 7.85
8/28/2021 11:00:00 PM 22.77 72.986 0.112 7.18 2.55 7.93
8/28/2021 11:15:00 PM 22.71 72.878 0.11 7.18 2.51 7.9
8/28/2021 11:30:00 PM 22.64 72.752 0.109 7.15 2.58 7.84
8/28/2021 11:45:00 PM 22.58 72.644 0.108 7.16 2.65 7.89
8/29/2021 12:00:00 AM 22.51 72.518 0.109 7.16 2.73 7.94
8/29/2021 12:15:00 AM 22.44 72.392 0.111 7.14 2.78 7.92
8/29/2021 12:30:00 AM 22.41 72.338 0.112 7.14 2.85 7.9
8/29/2021 12:45:00 AM 22.33 72.194 0.112 7.14 2.9 7.9
8/29/2021 1:00:00 AM 22.29 72.122 0.061 7.13 4.9 7.87
8/29/2021 1:15:00 AM 22.25 72.05 0.061 7.14 5.74 7.99
8/29/2021 1:30:00 AM 22.2 71.96 0.058 7.14 8.35 8.07
8/29/2021 1:45:00 AM 22.17 71.906 0.059 7.14 8.69 8.01
8/29/2021 2:00:00 AM 22.12 71.816 0.06 7.14 8.78 7.99
8/29/2021 2:15:00 AM 22.09 71.762 0.061 7.14 10.06 8.01
8/29/2021 2:30:00 AM 22.05 71.69 0.062 7.14 11.18 8
8/29/2021 2:45:00 AM 22.02 71.636 0.062 7.15 12.23 8.09
8/29/2021 3:00:00 AM 22 71.6 0.063 7.14 11.09 8.01
8/29/2021 3:15:00 AM 21.97 71.546 0.064 7.15 12.93 8.05
8/29/2021 3:30:00 AM 21.93 71.474 0.065 7.15 14.25 8.04
8/29/2021 3:45:00 AM 21.91 71.438 0.066 7.15 14.39 8.03
8/29/2021 4:00:00 AM 21.88 71.384 0.067 7.15 14.01 8.1
8/29/2021 4:15:00 AM 21.85 71.33 0.068 7.17 17.15 8.08
8/29/2021 4:30:00 AM 21.83 71.294 0.068 7.17 16.23 8.1
8/29/2021 4:45:00 AM 21.81 71.258 0.068 7.17 15.33 8.04
8/29/2021 5:00:00 AM 21.78 71.204 0.069 7.17 16.47 8.09
8/29/2021 5:15:00 AM 21.76 71.168 0.069 7.18 17.52 8.1
8/29/2021 5:30:00 AM 21.74 71.132 0.07 7.18 18.96 8.09
8/29/2021 5:45:00 AM 21.72 71.096 0.069 7.18 19.06 8.02
8/29/2021 6:00:00 AM 21.7 71.06 0.069 7.18 19.33 8.11
8/29/2021 6:15:00 AM 21.68 71.024 0.069 7.18 16.02 8.11
8/29/2021 6:30:00 AM 21.67 71.006 0.069 7.19 16.64 8.06
8/29/2021 6:45:00 AM 21.63 70.934 0.07 7.19 24.97 8.15
8/29/2021 7:00:00 AM 21.61 70.898 0.07 7.19 27.06 8.11
8/29/2021 7:15:00 AM 21.59 70.862 0.071 7.18 26.68 8.14
8/29/2021 7:30:00 AM 21.57 70.826 0.071 7.18 29.69 8.19
8/29/2021 7:45:00 AM 21.56 70.808 0.071 7.2 29.89 8.23
8/29/2021 8:00:00 AM 21.55 70.79 0.072 7.21 44.54 8.2
8/29/2021 8:15:00 AM 21.54 70.772 0.072 7.21 73.66 8.16
8/29/2021 8:30:00 AM 21.53 70.754 0.072 7.23 84.89 8.24
8/29/2021 8:45:00 AM 21.53 70.754 0.073 7.23 82.57 8.35
8/29/2021 9:00:00 AM 21.53 70.754 0.073 7.24 83.87 8.36
8/29/2021 9:15:00 AM 21.53 70.754 0.073 7.26 82.22 8.4
8/29/2021 9:30:00 AM 21.53 70.754 0.074 7.27 64.32 8.37
8/29/2021 9:45:00 AM 21.54 70.772 0.074 7.28 71.79 8.5
8/29/2021 10:00:00 AM 21.57 70.826 0.074 7.29 79.79 8.66
8/29/2021 10:15:00 AM 21.6 70.88 0.074 7.32 68.82 7.87
8/29/2021 10:30:00 AM 21.63 70.934 0.074 7.34 64.14 8.3
8/29/2021 10:45:00 AM 21.66 70.988 0.075 7.36 67.17 8.77
8/29/2021 11:00:00 AM 21.68 71.024 0.075 7.36 53.25 8.86
8/29/2021 11:15:00 AM 21.7 71.06 0.075 7.37 64.01 8.97
8/29/2021 11:30:00 AM 21.74 71.132 0.075 7.39 61.68 8.91
8/29/2021 11:45:00 AM 21.77 71.186 0.075 7.42 63.11 9.03
8/29/2021 12:00:00 PM 21.79 71.222 0.075 7.41 34.31 8.95
8/29/2021 12:15:00 PM 21.84 71.312 0.075 7.42 30.67 9.01
8/29/2021 12:30:00 PM 21.91 71.438 0.075 7.45 32.11 9.23
8/29/2021 12:45:00 PM 21.97 71.546 0.075 7.48 33.74 9.16
8/29/2021 1:00:00 PM 22 71.6 0.075 7.47 35.21 9.16
8/29/2021 1:15:00 PM 22.04 71.672 0.075 7.5 33.54 9.21
8/29/2021 1:30:00 PM 22.08 71.744 0.075 7.49 35.24 9.14
8/29/2021 1:45:00 PM 22.1 71.78 0.075 7.51 35.45 9.02
8/29/2021 2:00:00 PM 22.14 71.852 0.076 7.51 34.91 9.06
8/29/2021 2:15:00 PM 22.17 71.906 0.076 7.52 34.37 9.01
8/29/2021 2:30:00 PM 22.22 71.996 0.076 7.51 30.77 9.01
8/29/2021 2:45:00 PM 22.27 72.086 0.076 7.52 49.79 8.96
8/29/2021 3:00:00 PM 22.32 72.176 0.076 7.53 117.08 8.96
8/29/2021 3:15:00 PM 22.36 72.248 0.076 7.52 95.63 8.88
8/29/2021 3:30:00 PM 22.38 72.284 0.076 7.52 79.09 9.05
8/29/2021 3:45:00 PM 22.4 72.32 0.076 7.51 77.03 8.97
8/29/2021 4:00:00 PM 22.42 72.356 0.076 7.49 55.46 8.89
8/29/2021 4:15:00 PM 22.45 72.41 0.076 7.52 56.17 8.95
8/29/2021 4:30:00 PM 22.46 72.42799 0.077 7.51 45.74 8.87
8/29/2021 4:45:00 PM 22.48 72.464 0.077 7.5 69 8.83
8/29/2021 5:00:00 PM 22.49 72.482 0.077 7.51 47 8.89
8/29/2021 5:15:00 PM 22.5 72.5 0.077 7.49 86.81 8.79
8/29/2021 5:30:00 PM 22.49 72.482 0.077 7.48 4.55 8.7
8/29/2021 5:45:00 PM 22.48 72.464 0.077 7.48 4.35 8.64
8/29/2021 6:00:00 PM 22.47 72.446 0.078 7.46 4.61 8.59
8/29/2021 6:15:00 PM 22.48 72.464 0.078 7.44 4.43 8.53
8/29/2021 6:30:00 PM 22.48 72.464 0.078 7.43 4.29 8.57
8/29/2021 6:45:00 PM 22.47 72.446 0.078 7.42 4.38 8.5
8/29/2021 7:00:00 PM 22.46 72.42799 0.079 7.41 4.21 8.42
8/29/2021 7:15:00 PM 22.44 72.392 0.079 7.4 4.3 8.35
8/29/2021 7:30:00 PM 22.42 72.356 0.079 7.38 4.12 8.27
8/29/2021 7:45:00 PM 22.4 72.32 0.079 7.36 4.47 8.15
8/29/2021 8:00:00 PM 22.37 72.266 0.08 7.33 4.02 8.08
8/29/2021 8:15:00 PM 22.33 72.194 0.08 7.33 3.95 8.23
8/29/2021 8:30:00 PM 22.3 72.14 0.08 7.32 4.67 8.11
8/29/2021 8:45:00 PM 22.26 72.068 0.08 7.31 4.67 8.12
8/29/2021 9:00:00 PM 22.21 71.978 0.081 7.3 4.17 8.07
8/29/2021 9:15:00 PM 22.17 71.906 0.081 7.29 5 8.19
8/29/2021 9:30:00 PM 22.14 71.852 0.082 7.28 9.29 8.02
8/29/2021 9:45:00 PM 22.1 71.78 0.082 7.27 8.62 8.05
8/29/2021 10:00:00 PM 22.06 71.708 0.082 7.25 10.11 8.01
8/29/2021 10:15:00 PM 22.01 71.618 0.082 7.26 10.9 7.96
8/29/2021 10:30:00 PM 21.96 71.528 0.082 7.24 11.09 7.91
8/29/2021 10:45:00 PM 21.92 71.456 0.083 7.24 11.56 8.01
8/29/2021 11:00:00 PM 21.87 71.366 0.083 7.22 12.59 7.97
8/29/2021 11:15:00 PM 21.81 71.258 0.083 7.22 14.28 8.04
8/29/2021 11:30:00 PM 21.77 71.186 0.084 7.22 5.02 8.11
8/29/2021 11:45:00 PM 21.72 71.096 0.084 7.22 5.52 8.1
8/30/2021 12:00:00 AM 21.68 71.024 0.084 7.21 4.37 8.07
8/30/2021 12:15:00 AM 21.63 70.934 0.084 7.21 5.87 8.05
8/30/2021 12:30:00 AM 21.59 70.862 0.085 7.2 4.93 8
8/30/2021 12:45:00 AM 21.54 70.772 0.085 7.2 5.11 8.01
8/30/2021 1:00:00 AM 21.5 70.7 0.085 7.19 7.02 8.08
8/30/2021 1:15:00 AM 21.45 70.61 0.085 7.18 4.75 8.1
8/30/2021 1:30:00 AM 21.41 70.538 0.086 7.18 5.52 8.08
8/30/2021 1:45:00 AM 21.36 70.448 0.086 7.19 5.13 8.07
8/30/2021 2:00:00 AM 21.3 70.34 0.086 7.19 5.1 8.16
8/30/2021 2:15:00 AM 21.26 70.268 0.087 7.18 4.55 8.16
8/30/2021 2:30:00 AM 21.22 70.196 0.087 7.18 4.72 8.14
8/30/2021 2:45:00 AM 21.17 70.106 0.087 7.18 5.09 8.16
8/30/2021 3:00:00 AM 21.12 70.016 0.088 7.18 4.6 8.1
8/30/2021 3:15:00 AM 21.08 69.944 0.088 7.18 6.51 8.21
8/30/2021 3:30:00 AM 21.04 69.872 0.088 7.17 6.02 8.15
8/30/2021 3:45:00 AM 21 69.8 0.088 7.17 12.54 8.21
8/30/2021 4:00:00 AM 20.96 69.728 0.088 7.18 7.49 8.23
8/30/2021 4:15:00 AM 20.93 69.674 0.089 7.18 4.41 8.22
8/30/2021 4:30:00 AM 20.89 69.602 0.089 7.19 7.87 8.23
8/30/2021 4:45:00 AM 20.86 69.548 0.089 7.18 4.42 8.3
8/30/2021 5:00:00 AM 20.82 69.476 0.09 7.19 6.29 8.14
8/30/2021 5:15:00 AM 20.78 69.404 0.09 7.19 4.71 8.27
8/30/2021 5:30:00 AM 20.74 69.332 0.091 7.19 4.14 8.26
8/30/2021 5:45:00 AM 20.71 69.278 0.091 7.19 4.3 8.28
8/30/2021 6:00:00 AM 20.67 69.206 0.091 7.2 4.64 8.33
8/30/2021 6:15:00 AM 20.64 69.152 0.092 7.2 4.44 8.31
8/30/2021 6:30:00 AM 20.61 69.098 0.092 7.2 4.83 8.29
8/30/2021 6:45:00 AM 20.58 69.044 0.092 7.2 4.66 8.22
8/30/2021 7:00:00 AM 20.54 68.972 0.092 7.2 5.23 8.3
8/30/2021 7:15:00 AM 20.51 68.918 0.092 7.2 4.62 8.36
8/30/2021 7:30:00 AM 20.49 68.882 0.093 7.2 4.74 8.3
8/30/2021 7:45:00 AM 20.48 68.864 0.093 7.21 4.21 8.38
8/30/2021 8:00:00 AM 20.46 68.828 0.094 7.21 4.67 8.42
8/30/2021 8:15:00 AM 20.46 68.828 0.094 7.23 4.39 8.43
8/30/2021 8:30:00 AM 20.45 68.81 0.094 7.23 4.7 8.52
8/30/2021 8:45:00 AM 20.46 68.828 0.094 7.24 4.59 8.59
8/30/2021 9:00:00 AM 20.47 68.846 0.094 7.26 3.8 8.51
8/30/2021 9:15:00 AM 20.48 68.864 0.094 7.27 4.52 8.58
8/30/2021 9:30:00 AM 20.49 68.882 0.095 7.28 4.43 8.7
8/30/2021 9:45:00 AM 20.51 68.918 0.095 7.3 4.19 8.73
8/30/2021 10:00:00 AM 20.55 68.99 0.095 7.32 4.31 8.87
8/30/2021 10:15:00 AM 20.59 69.062 0.095 7.34 3.82 8.9
8/30/2021 10:30:00 AM 20.63 69.134 0.095 7.36 4.97 8.96
8/30/2021 10:45:00 AM 20.64 69.152 0.095 7.37 3.91 8.98
8/30/2021 11:00:00 AM 20.66 69.188 0.095 7.39 4.76 9.03
8/30/2021 11:15:00 AM 20.75 69.35 0.095 7.39 3.99 9.04
8/30/2021 11:30:00 AM 20.92 69.656 0.096 7.43 3.86 9.22
8/30/2021 11:45:00 AM 20.96 69.728 0.096 7.46 3.5 9.15
8/30/2021 12:00:00 PM 21 69.8 0.096 7.48 3.85 9.22
8/30/2021 12:15:00 PM 21.09 69.962 0.096 7.49 3.79 9.2
8/30/2021 12:30:00 PM 21.21 70.17799 0.096 7.55 4.31 9.32
8/30/2021 12:45:00 PM 21.27 70.286 0.096 7.55 3.74 9.31
8/30/2021 1:00:00 PM 21.28 70.304 0.096 7.56 3.61 9.24
8/30/2021 1:15:00 PM 21.31 70.358 0.096 7.54 3.9 9.12
8/30/2021 1:30:00 PM 21.48 70.664 0.096 7.57 3.7 9.15
8/30/2021 1:45:00 PM 21.57 70.826 0.096 7.6 3.33 9.04
8/30/2021 2:00:00 PM 21.67 71.006 0.096 7.63 3.75 9.05
8/30/2021 2:15:00 PM 21.76 71.168 0.097 7.64 3.62 9.15
8/30/2021 2:30:00 PM 21.92 71.456 0.097 7.65 3.6 9.25
8/30/2021 2:45:00 PM 22.03 71.654 0.097 7.67 3.78 9.27
8/30/2021 3:00:00 PM 22.23 72.014 0.097 7.71 3.75 9.45
8/30/2021 3:15:00 PM 22.34 72.212 0.097 7.72 3.67 9.38
8/30/2021 3:30:00 PM 22.44 72.392 0.097 7.73 4.32 9.37
8/30/2021 3:45:00 PM 22.51 72.518 0.097 7.73 3.88 9.29
8/30/2021 4:00:00 PM 22.64 72.752 0.097 7.74 4.14 9.19
8/30/2021 4:15:00 PM 22.72 72.896 0.097 7.77 4 9.2
8/30/2021 4:30:00 PM 22.76 72.968 0.097 7.78 4.06 9.18
8/30/2021 4:45:00 PM 22.83 73.094 0.097 7.78 3.98 9.23
8/30/2021 5:00:00 PM 22.88 73.184 0.097 7.77 3.58 9.2
8/30/2021 5:15:00 PM 22.92 73.256 0.098 7.73 4.04 9.09
8/30/2021 5:30:00 PM 22.94 73.292 0.098 7.74 3.56 9.05
8/30/2021 5:45:00 PM 22.95 73.31 0.098 7.71 3.86 8.99
8/30/2021 6:00:00 PM 22.96 73.328 0.098 7.69 4.01 8.85
8/30/2021 6:15:00 PM 22.96 73.328 0.098 7.68 5.1 8.79
8/30/2021 6:30:00 PM 22.98 73.364 0.098 7.64 5 8.7
8/30/2021 6:45:00 PM 22.99 73.382 0.098 7.62 3.65 8.59
8/30/2021 7:00:00 PM 23 73.4 0.098 7.59 3.91 8.54
8/30/2021 7:15:00 PM 23.01 73.418 0.099 7.55 3.94 8.43
8/30/2021 7:30:00 PM 23 73.4 0.099 7.52 4.33 8.33
8/30/2021 7:45:00 PM 22.99 73.382 0.099 7.49 3.73 8.21
8/30/2021 8:00:00 PM 22.96 73.328 0.099 7.46 3.9 8.16
8/30/2021 8:15:00 PM 22.93 73.274 0.099 7.44 4.2 8.09
8/30/2021 8:30:00 PM 22.9 73.22 0.099 7.41 4.28 8.04
8/30/2021 8:45:00 PM 22.86 73.148 0.1 7.38 4.01 7.99
8/30/2021 9:00:00 PM 22.82 73.076 0.1 7.38 4.39 7.91
8/30/2021 9:15:00 PM 22.76 72.968 0.1 7.35 3.77 7.92
8/30/2021 9:30:00 PM 22.69 72.842 0.1 7.34 4.39 7.95
8/30/2021 9:45:00 PM 22.64 72.752 0.1 7.31 3.89 7.84
8/30/2021 10:00:00 PM 22.56 72.608 0.101 7.3 4.2 7.86
8/30/2021 10:15:00 PM 22.5 72.5 0.101 7.3 3.93 7.86
8/30/2021 10:30:00 PM 22.42 72.356 0.101 7.28 4.07 7.86
8/30/2021 10:45:00 PM 22.33 72.194 0.101 7.27 3.89 7.92
8/30/2021 11:00:00 PM 22.27 72.086 0.101 7.24 4.74 7.81
8/30/2021 11:15:00 PM 22.19 71.942 0.102 7.24 4.17 7.86
8/30/2021 11:30:00 PM 22.13 71.834 0.102 7.23 4.26 7.82
8/30/2021 11:45:00 PM 22.06 71.708 0.102 7.22 4.35 7.83
8/31/2021 12:00:00 AM 22.02 71.636 0.102 7.22 4.9 7.7
8/31/2021 12:15:00 AM 21.96 71.528 0.102 7.21 5.5 7.85
8/31/2021 12:30:00 AM 21.92 71.456 0.102 7.2 3.92 7.89
8/31/2021 12:45:00 AM 21.87 71.366 0.102 7.2 3.97 7.92
8/31/2021 1:00:00 AM 21.83 71.294 0.102 7.19 4.08 7.88
8/31/2021 1:15:00 AM 21.79 71.222 0.103 7.18 4.49 7.94
8/31/2021 1:30:00 AM 21.76 71.168 0.103 7.18 4.17 7.91
8/31/2021 1:45:00 AM 21.73 71.114 0.103 7.17 4.68 7.91
8/31/2021 2:00:00 AM 21.71 71.078 0.103 7.17 3.77 7.89
8/31/2021 2:15:00 AM 21.68 71.024 0.103 7.17 3.98 7.95
8/31/2021 2:30:00 AM 21.64 70.952 0.103 7.17 4.39 7.9
8/31/2021 2:45:00 AM 21.6 70.88 0.103 7.16 4.17 7.92
8/31/2021 3:00:00 AM 21.55 70.79 0.103 7.16 4.19 7.88
8/31/2021 3:15:00 AM 21.51 70.718 0.104 7.15 3.83 7.88
8/31/2021 3:30:00 AM 21.45 70.61 0.104 7.16 4.23 8
8/31/2021 3:45:00 AM 21.41 70.538 0.104 7.16 4.13 7.9
8/31/2021 4:00:00 AM 21.36 70.448 0.104 7.16 4.15 8.06
8/31/2021 4:15:00 AM 21.31 70.358 0.104 7.16 6.55 8.01
8/31/2021 4:30:00 AM 21.26 70.268 0.104 7.16 4.25 8.06
8/31/2021 4:45:00 AM 21.2 70.16 0.104 7.16 4.55 8.04
8/31/2021 5:00:00 AM 21.15 70.07 0.104 7.15 4.2 8.01
8/31/2021 5:15:00 AM 21.1 69.98 0.104 7.15 3.71 8.02
8/31/2021 5:30:00 AM 21.04 69.872 0.105 7.15 4.09 8
8/31/2021 5:45:00 AM 20.99 69.782 0.105 7.16 4.41 8.1
8/31/2021 6:00:00 AM 20.94 69.692 0.105 7.16 3.9 8.1
8/31/2021 6:15:00 AM 20.89 69.602 0.105 7.16 4.05 8.08
8/31/2021 6:30:00 AM 20.83 69.494 0.105 7.16 4.26 8.13
8/31/2021 6:45:00 AM 20.79 69.422 0.105 7.15 4.1 8.04
8/31/2021 7:00:00 AM 20.74 69.332 0.105 7.17 4.34 8.13
8/31/2021 7:15:00 AM 20.7 69.26 0.105 7.17 4.1 8.16
8/31/2021 7:30:00 AM 20.66 69.188 0.105 7.16 4.41 7.94
8/31/2021 7:45:00 AM 20.61 69.098 0.105 7.17 3.88 8.14
8/31/2021 8:00:00 AM 20.57 69.026 0.105 7.19 4.25 8.3
8/31/2021 8:15:00 AM 20.54 68.972 0.105 7.18 4.02 8.36
8/31/2021 8:30:00 AM 20.52 68.936 0.105 7.19 3.89 8.39
8/31/2021 8:45:00 AM 20.49 68.882 0.105 7.21 4.33 8.42
8/31/2021 9:00:00 AM 20.47 68.846 0.105 7.21 3.76 8.39
8/31/2021 9:15:00 AM 20.46 68.828 0.105 7.23 4.1 8.46
8/31/2021 9:30:00 AM 20.45 68.81 0.105 7.24 4.3 8.6
8/31/2021 9:45:00 AM 20.45 68.81 0.105 7.26 4.48 8.67
8/31/2021 10:00:00 AM 20.47 68.846 0.105 7.27 3.39 8.75
8/31/2021 10:15:00 AM 20.49 68.882 0.105 7.32 3.92 8.85
8/31/2021 10:30:00 AM 20.51 68.918 0.105 7.32 3.55 8.9
8/31/2021 10:45:00 AM 20.55 68.99 0.105 7.37 3.64 9.08
8/31/2021 11:00:00 AM 20.59 69.062 0.105 7.4 3.5 9.21
8/31/2021 11:15:00 AM 20.63 69.134 0.105 7.41 3.63 9.15
8/31/2021 11:30:00 AM 20.67 69.206 0.105 7.43 3.53 9.18
8/31/2021 11:45:00 AM 20.71 69.278 0.105 7.47 3.43 9.31
8/31/2021 12:00:00 PM 20.81 69.458 0.105 7.5 3.6 9.39
8/31/2021 12:15:00 PM 20.89 69.602 0.105 7.54 3.45 9.48
8/31/2021 12:30:00 PM 21.03 69.854 0.105 7.59 3.41 9.55
8/31/2021 12:45:00 PM 21.22 70.196 0.104 7.64 3.3 9.54
8/31/2021 1:00:00 PM 21.4 70.52 0.104 7.67 3.6 9.65
8/31/2021 1:15:00 PM 21.48 70.664 0.104 7.71 3.41 9.57
8/31/2021 1:30:00 PM 21.6 70.88 0.104 7.74 3.44 9.64
8/31/2021 1:45:00 PM 21.76 71.168 0.104 7.76 3.09 9.57
8/31/2021 2:00:00 PM 21.88 71.384 0.104 7.78 3.35 9.66
8/31/2021 2:15:00 PM 22 71.6 0.103 7.81 3.13 9.56
8/31/2021 2:30:00 PM 22.07 71.726 0.103 7.86 3.27 9.59
8/31/2021 2:45:00 PM 22.19 71.942 0.103 7.89 3.47 9.62
8/31/2021 3:00:00 PM 22.27 72.086 0.103 7.9 3.34 9.53
8/31/2021 3:15:00 PM 22.36 72.248 0.103 7.92 3.5 9.48
8/31/2021 3:30:00 PM 22.46 72.42799 0.103 7.95 3.2 9.45
8/31/2021 3:45:00 PM 22.55 72.59 0.103 7.95 3.24 9.38
8/31/2021 4:00:00 PM 22.62 72.716 0.103 7.98 3.52 9.33
8/31/2021 4:15:00 PM 22.67 72.806 0.103 7.98 3.24 9.27
8/31/2021 4:30:00 PM 22.75 72.95 0.103 7.99 3.11 9.27
8/31/2021 4:45:00 PM 22.87 73.166 0.103 8.01 3.26 9.22
8/31/2021 5:00:00 PM 22.91 73.238 0.103 8.03 3.23 9.21
8/31/2021 5:15:00 PM 22.95 73.31 0.103 8.03 3.07 9.13
8/31/2021 5:30:00 PM 22.95 73.31 0.103 7.99 3.28 9.04
8/31/2021 5:45:00 PM 22.93 73.274 0.103 7.96 3.36 8.95
8/31/2021 6:00:00 PM 22.9 73.22 0.103 7.91 3.4 8.8
8/31/2021 6:15:00 PM 22.85 73.13 0.103 7.87 3.38 8.7
8/31/2021 6:30:00 PM 22.79 73.022 0.103 7.82 3.37 8.59
8/31/2021 6:45:00 PM 22.72 72.896 0.103 7.77 3.28 8.53
8/31/2021 7:00:00 PM 22.65 72.77 0.103 7.71 3.53 8.48
8/31/2021 7:15:00 PM 22.58 72.644 0.104 7.66 3.51 8.42
8/31/2021 7:30:00 PM 22.51 72.518 0.103 7.62 3.52 8.25
8/31/2021 7:45:00 PM 22.43 72.374 0.103 7.6 3.17 8.27
8/31/2021 8:00:00 PM 22.38 72.284 0.104 7.55 3.52 8.11
8/31/2021 8:15:00 PM 22.31 72.158 0.103 7.51 3.38 8.06
8/31/2021 8:30:00 PM 22.24 72.032 0.104 7.47 3.72 8.06
8/31/2021 8:45:00 PM 22.17 71.906 0.104 7.45 3.45 8.02
8/31/2021 9:00:00 PM 22.1 71.78 0.104 7.42 3.82 7.99
8/31/2021 9:15:00 PM 22.03 71.654 0.104 7.4 3.81 7.89
8/31/2021 9:30:00 PM 21.97 71.546 0.104 7.37 3.52 8
8/31/2021 9:45:00 PM 21.91 71.438 0.104 7.34 3.48 7.95
8/31/2021 10:00:00 PM 21.85 71.33 0.104 7.33 4.1 7.9
8/31/2021 10:15:00 PM 21.79 71.222 0.104 7.31 3.71 7.84
8/31/2021 10:30:00 PM 21.75 71.15 0.105 7.3 4.02 7.76
8/31/2021 10:45:00 PM 21.69 71.042 0.105 7.29 3.78 7.79
8/31/2021 11:00:00 PM 21.64 70.952 0.105 7.27 4.39 7.87
8/31/2021 11:15:00 PM 21.6 70.88 0.105 7.26 3.52 7.87
8/31/2021 11:30:00 PM 21.56 70.808 0.105 7.25 3.78 7.88
8/31/2021 11:45:00 PM 21.52 70.736 0.105 7.23 3.93 7.82
9/1/2021 12:00:00 AM 21.48 70.664 0.105 7.22 4.07 7.8
9/1/2021 12:15:00 AM 21.45 70.61 0.105 7.22 4.33 7.75
9/1/2021 12:30:00 AM 21.41 70.538 0.105 7.21 4.12 7.83
9/1/2021 12:45:00 AM 21.37 70.466 0.105 7.21 4.02 7.83
9/1/2021 1:00:00 AM 21.34 70.412 0.105 7.2 3.6 7.86
9/1/2021 1:15:00 AM 21.3 70.34 0.106 7.19 3.95 7.85
9/1/2021 1:30:00 AM 21.26 70.268 0.105 7.19 3.79 7.9
9/1/2021 1:45:00 AM 21.22 70.196 0.105 7.19 3.66 7.95
9/1/2021 2:00:00 AM 21.18 70.124 0.105 7.19 4.07 7.93
9/1/2021 2:15:00 AM 21.15 70.07 0.105 7.18 4.18 7.92
9/1/2021 2:30:00 AM 21.12 70.016 0.105 7.18 4.14 7.82
9/1/2021 2:45:00 AM 21.08 69.944 0.106 7.17 3.72 7.76
9/1/2021 3:00:00 AM 21.05 69.89 0.105 7.17 3.76 7.7
9/1/2021 3:15:00 AM 21 69.8 0.105 7.17 3.97 7.7
9/1/2021 3:30:00 AM 20.97 69.746 0.105 7.18 4.03 7.67
9/1/2021 3:45:00 AM 20.93 69.674 0.105 7.17 4.39 7.64
9/1/2021 4:00:00 AM 20.88 69.584 0.104 7.17 4.79 7.75
9/1/2021 4:15:00 AM 20.84 69.512 0.104 7.17 3.87 7.67
9/1/2021 4:30:00 AM 20.82 69.476 0.104 7.18 3.97 7.53
9/1/2021 4:45:00 AM 20.79 69.422 0.104 7.18 4.35 7.42
9/1/2021 5:00:00 AM 20.75 69.35 0.103 7.18 3.99 7.39
9/1/2021 5:15:00 AM 20.71 69.278 0.103 7.18 4.02 7.32
9/1/2021 5:30:00 AM 20.68 69.224 0.103 7.18 4.77 7.28
9/1/2021 5:45:00 AM 20.63 69.134 0.103 7.17 5.82 7.29
9/1/2021 6:00:00 AM 20.59 69.062 0.103 7.16 4.93 7.3
9/1/2021 6:15:00 AM 20.54 68.972 0.103 7.16 4.69 7.43
9/1/2021 6:30:00 AM 20.5 68.9 0.103 7.17 4.04 7.45
9/1/2021 6:45:00 AM 20.47 68.846 0.103 7.17 5.08 7.42
9/1/2021 7:00:00 AM 20.42 68.756 0.103 7.16 5.61 7.37
9/1/2021 7:15:00 AM 20.35 68.63 0.103 7.16 4.93 7.36
9/1/2021 7:30:00 AM 20.3 68.54 0.104 7.16 6.01 7.34
9/1/2021 7:45:00 AM 20.24 68.432 0.103 7.19 6.33 7.06
9/1/2021 8:00:00 AM 20.17 68.306 0.105 7.17 10.98 7.29
9/1/2021 8:15:00 AM 20.13 68.234 0.111 7.17 13.43 7.38
9/1/2021 8:30:00 AM 20.08 68.144 0.113 7.19 13.85 7.18
9/1/2021 8:45:00 AM 20.01 68.018 0.116 7.23 17.77 7.5
9/1/2021 9:00:00 AM 19.98 67.964 0.118 7.24 16.92 6.56
9/1/2021 9:15:00 AM 19.92 67.856 0.121 7.25 22.55 7.46
9/1/2021 9:30:00 AM 19.88 67.784 0.124 7.27 24.69 8.38
9/1/2021 9:45:00 AM 19.83 67.694 0.129 7.28 28.05 8.57
9/1/2021 10:00:00 AM 19.81 67.658 0.136 7.3 29.46 8.6
9/1/2021 10:15:00 AM 19.79 67.622 0.142 7.31 34.91 8.64
9/1/2021 10:30:00 AM 19.78 67.604 0.142 7.33 35.91 8.69
9/1/2021 10:45:00 AM 19.78 67.604 0.145 7.33 37.69 8.56
9/1/2021 11:00:00 AM 19.77 67.586 0.143 7.34 41.74 8.7
9/1/2021 11:15:00 AM 19.76 67.568 0.145 7.33 38.87 8.57
9/1/2021 11:30:00 AM 19.75 67.55 0.144 7.32 38.78 8.7
9/1/2021 11:45:00 AM 19.74 67.532 0.138 7.32 35.55 8.67
9/1/2021 12:00:00 PM 19.72 67.496 0.136 7.32 34.96 8.67
9/1/2021 12:15:00 PM 19.7 67.46 0.134 7.32 34.56 8.71
9/1/2021 12:30:00 PM 19.68 67.424 0.133 7.31 37.14 8.69
9/1/2021 12:45:00 PM 19.65 67.37 0.133 7.32 40.86 8.71
9/1/2021 1:00:00 PM 19.62 67.316 0.132 7.32 34.4 8.7
9/1/2021 1:15:00 PM 19.58 67.244 0.131 7.31 36.36 8.71
9/1/2021 1:30:00 PM 19.55 67.19 0.13 7.31 39.48 8.7
9/1/2021 1:45:00 PM 19.52 67.136 0.129 7.31 46.16 8.71
9/1/2021 2:00:00 PM 19.47 67.046 0.128 7.3 52.9 8.73
9/1/2021 2:15:00 PM 19.44 66.992 0.127 7.29 143.8 8.75
9/1/2021 2:30:00 PM 19.4 66.92 0.125 7.29 54.15 8.74
9/1/2021 2:45:00 PM 19.35 66.83 0.123 7.29 68.79 8.71
9/1/2021 3:00:00 PM 19.3 66.74 0.12 7.29 62.76 8.77
9/1/2021 3:15:00 PM 19.25 66.65 0.117 7.28 71.07 8.79
9/1/2021 3:30:00 PM 19.21 66.578 0.116 7.26 51.76 8.78
9/1/2021 3:45:00 PM 19.17 66.506 0.115 7.24 71.58 8.78
9/1/2021 4:00:00 PM 19.15 66.47 0.116 7.23 61.86 8.78
9/1/2021 4:15:00 PM 19.12 66.416 0.116 7.22 62.06 8.77
9/1/2021 4:30:00 PM 19.11 66.398 0.117 7.22 61.96 8.77
9/1/2021 4:45:00 PM 19.1 66.38 0.117 7.21 55.59 8.76
9/1/2021 5:00:00 PM 19.09 66.362 0.117 7.21 66.25 8.75
9/1/2021 5:15:00 PM 19.09 66.362 0.119 7.22 59.81 8.75
9/1/2021 5:30:00 PM 19.08 66.344 0.12 7.21 80.84 8.74
9/1/2021 5:45:00 PM 19.06 66.308 0.121 7.22 81.49 8.75
9/1/2021 6:00:00 PM 19.03 66.254 0.122 7.22 74.97 8.75
9/1/2021 6:15:00 PM 19.02 66.236 0.122 7.22 66.45 8.75
9/1/2021 6:30:00 PM 18.98 66.164 0.122 7.22 62.91 8.76
9/1/2021 6:45:00 PM 18.95 66.11 0.121 7.22 59.07 8.77
9/1/2021 7:00:00 PM 18.91 66.038 0.12 7.22 67.97 8.79
9/1/2021 7:15:00 PM 18.88 65.984 0.12 7.2 58.09 8.8
9/1/2021 7:30:00 PM 18.84 65.912 0.119 7.2 67.11 8.81
9/1/2021 7:45:00 PM 18.79 65.82201 0.119 7.21 66.51 8.82
9/1/2021 8:00:00 PM 18.73 65.714 0.118 7.2 65.18 8.83
9/1/2021 8:15:00 PM 18.7 65.66 0.119 7.19 58.49 8.84
9/1/2021 8:30:00 PM 18.66 65.588 0.118 7.19 63.8 8.85
9/1/2021 8:45:00 PM 18.61 65.498 0.117 7.18 78.78 8.86
9/1/2021 9:00:00 PM 18.56 65.408 0.115 7.18 68.33 8.89
9/1/2021 9:15:00 PM 18.51 65.318 0.114 7.19 67.49 8.9
9/1/2021 9:30:00 PM 18.48 65.264 0.113 7.18 65.51 8.91
9/1/2021 9:45:00 PM 18.44 65.192 0.113 7.18 60.67 8.92
9/1/2021 10:00:00 PM 18.41 65.138 0.111 7.19 54.37 8.93
9/1/2021 10:15:00 PM 18.37 65.066 0.111 7.19 60.77 8.95
9/1/2021 10:30:00 PM 18.33 64.994 0.111 7.19 56.92 8.97
9/1/2021 10:45:00 PM 18.28 64.904 0.11 7.19 59.26 8.98
9/1/2021 11:00:00 PM 18.24 64.832 0.11 7.19 57.32 9
9/1/2021 11:15:00 PM 18.19 64.742 0.11 7.2 52.06 9.01
9/1/2021 11:30:00 PM 18.15 64.67 0.111 7.19 52.51 9.03
9/1/2021 11:45:00 PM 18.1 64.58 0.111 7.19 52.41 9.05
9/2/2021 12:00:00 AM 18.05 64.49 0.111 7.2 56.1 9.06
9/2/2021 12:15:00 AM 18 64.4 0.111 7.2 50.43 9.08
9/2/2021 12:30:00 AM 17.94 64.292 0.111 7.2 48.85 9.1
9/2/2021 12:45:00 AM 17.88 64.184 0.111 7.2 47.03 9.11
9/2/2021 1:00:00 AM 17.83 64.094 0.111 7.19 51.39 9.08
9/2/2021 1:15:00 AM 17.76 63.968 0.111 7.19 44.79 9.11
9/2/2021 1:30:00 AM 17.7 63.86 0.111 7.2 42.31 9.13
9/2/2021 1:45:00 AM 17.63 63.734 0.11 7.2 42.82 9.15
9/2/2021 2:00:00 AM 17.56 63.608 0.11 7.2 41.28 9.17
9/2/2021 2:15:00 AM 17.49 63.482 0.11 7.2 40.8 9.18
9/2/2021 2:30:00 AM 17.43 63.374 0.111 7.19 38.35 9.19
9/2/2021 2:45:00 AM 17.36 63.248 0.111 7.19 34.97 9.2
9/2/2021 3:00:00 AM 17.28 63.104 0.11 7.19 37.74 9.23
9/2/2021 3:15:00 AM 17.21 62.978 0.11 7.19 42.47 9.25
9/2/2021 3:30:00 AM 17.15 62.87 0.109 7.19 34.88 9.27
9/2/2021 3:45:00 AM 17.07 62.726 0.109 7.19 32.39 9.29
9/2/2021 4:00:00 AM 17 62.6 0.109 7.19 32.88 9.31
9/2/2021 4:15:00 AM 16.92 62.456 0.108 7.18 32.37 9.33
9/2/2021 4:30:00 AM 16.85 62.33 0.108 7.19 30.91 9.35
9/2/2021 4:45:00 AM 16.78 62.204 0.108 7.18 31.34 9.37
9/2/2021 5:00:00 AM 16.71 62.078 0.107 7.19 28.66 9.41
9/2/2021 5:15:00 AM 16.63 61.934 0.107 7.19 31.22 9.44
9/2/2021 5:30:00 AM 16.56 61.808 0.107 7.18 27.85 9.46
9/2/2021 5:45:00 AM 16.49 61.682 0.106 7.18 28.54 9.48
9/2/2021 6:00:00 AM 16.42 61.556 0.106 7.16 27.91 9.48
9/2/2021 6:15:00 AM 16.35 61.43 0.106 7.17 27.49 9.52
9/2/2021 6:30:00 AM 16.27 61.286 0.106 7.18 29.74 9.54
9/2/2021 6:45:00 AM 16.21 61.178 0.106 7.17 25.94 9.55
9/2/2021 7:00:00 AM 16.14 61.052 0.106 7.17 25.46 9.58
9/2/2021 7:15:00 AM 16.07 60.926 0.105 7.18 26.27 9.61
9/2/2021 7:30:00 AM 16 60.8 0.105 7.18 24.43 9.63
9/2/2021 7:45:00 AM 15.93 60.674 0.105 7.18 23.38 9.65
9/2/2021 8:00:00 AM 15.88 60.584 0.105 7.19 23.27 9.68
9/2/2021 8:15:00 AM 15.84 60.512 0.105 7.19 21.7 9.7
9/2/2021 8:30:00 AM 15.8 60.44 0.105 7.2 110.11 9.73
9/2/2021 8:45:00 AM 15.78 60.404 0.105 7.2 124.36 9.76
9/2/2021 9:00:00 AM 15.78 60.404 0.105 7.2 20.6 9.78
9/2/2021 9:15:00 AM 15.78 60.404 0.104 7.21 19.37 9.81
9/2/2021 9:30:00 AM 15.8 60.44 0.104 7.22 18.82 9.85
9/2/2021 9:45:00 AM 15.83 60.494 0.104 7.24 18.81 9.88
9/2/2021 10:00:00 AM 15.88 60.584 0.104 7.25 18.07 9.92
9/2/2021 10:15:00 AM 15.94 60.692 0.104 7.27 17.45 9.95
9/2/2021 10:30:00 AM 16 60.8 0.104 7.29 17.92